Darstellungsparameter: Aktuell verwendete Einstellungen:
Skalierung der Graphiken ... ?
xyx+y,   Skalierungsfaktor:      Skalierung: Modus: x, Faktor: 1
Darstellungszeitraum ... ?
Vom - - bis: - -   Zeitraum: 25.06.2016 - 24.07.2016
Min/Max/Avg-Anzeige ... ?
Zeige MMA aktuell
Zeige MMA Monat
Zeige MMA alles
Zeige --A aktuell
Zeige --A Monat
Zeige --A alles
Keine MMA-Anzeige
MMA:
Keine MMA-Graphiken
MMA-Basis: 25.06.2016 - 24.07.2016
Quicknavigation für Darstellung... ?
Tage:      1T, 2T, 3T, 5T -1T -2T -3T -5T +1T +2T +3T +5T
Wochen: 1W, 2W, 3W -1W -2W -3W +1W +2W +3W
Monate: 1M, 3M, 6M -1M -3M -6M +1M +3M +6M
Jahre:    1J, 3J, 5J, 10J -1J -3J -5J -10J +1J +3J +5J +10J
Nutze für die Darstellung ... ?
Originaldaten oder Mittelwerte auf ...
Stundenbasis Tagesbasis Wochenbasis
Monatsbasis Jahresbasis      Datenbasis: Original-Daten
Darstellen als:
Statistik (Auto) Statistik J:M      Darstellung:
Zur Graphik,    zurück zur Übersicht aller Sensoren.
 
Tabellarische Datenbersicht: ?
 
Sensor: Nr:Datum:Temp:Feuchte:Taupunkt:
Aussen-T/F 1 25-06-2016 00:00:00 19.8 C 96 % 19.14 C
2 25-06-2016 00:05:00 19.8 C 96 % 19.14 C
3 25-06-2016 00:10:00 19.8 C 96 % 19.14 C
4 25-06-2016 00:15:00 19.7 C 96 % 19.04 C
5 25-06-2016 00:20:00 19.7 C 96 % 19.04 C
6 25-06-2016 00:25:00 19.6 C 96 % 18.94 C
7 25-06-2016 00:30:00 19.4 C 96 % 18.75 C
8 25-06-2016 00:35:00 19.3 C 96 % 18.65 C
9 25-06-2016 00:40:00 19.3 C 96 % 18.65 C
10 25-06-2016 00:45:00 19.3 C 96 % 18.65 C
11 25-06-2016 00:50:00 19.3 C 96 % 18.65 C
12 25-06-2016 00:55:00 19.3 C 96 % 18.65 C
13 25-06-2016 01:00:00 19.3 C 96 % 18.65 C
14 25-06-2016 01:05:00 19.3 C 96 % 18.65 C
15 25-06-2016 01:10:00 19.3 C 96 % 18.65 C
16 25-06-2016 01:15:00 19.2 C 96 % 18.55 C
17 25-06-2016 01:20:00 19.2 C 96 % 18.55 C
18 25-06-2016 01:25:00 19.2 C 96 % 18.55 C
19 25-06-2016 01:30:00 19.2 C 96 % 18.55 C
20 25-06-2016 01:35:00 19.1 C 96 % 18.45 C
21 25-06-2016 01:40:00 19.1 C 96 % 18.45 C
22 25-06-2016 01:45:00 19.1 C 96 % 18.45 C
23 25-06-2016 01:50:00 19.1 C 96 % 18.45 C
24 25-06-2016 01:55:00 19 C 96 % 18.35 C
25 25-06-2016 02:00:00 19 C 96 % 18.35 C
Sensor: Nr:Datum:Temp:Feuchte:Taupunkt:
Aussen-T/F 26 25-06-2016 02:05:00 19.1 C 96 % 18.45 C
27 25-06-2016 02:10:00 19.1 C 96 % 18.45 C
28 25-06-2016 02:15:00 19.1 C 96 % 18.45 C
29 25-06-2016 02:20:00 19.1 C 96 % 18.45 C
30 25-06-2016 02:25:00 19.1 C 96 % 18.45 C
31 25-06-2016 02:30:00 19.2 C 96 % 18.55 C
32 25-06-2016 02:35:00 19.2 C 96 % 18.55 C
33 25-06-2016 02:40:00 19.2 C 96 % 18.55 C
34 25-06-2016 02:45:00 19.2 C 96 % 18.55 C
35 25-06-2016 02:50:00 19.2 C 96 % 18.55 C
36 25-06-2016 02:55:00 19.2 C 96 % 18.55 C
37 25-06-2016 03:00:00 19.2 C 96 % 18.55 C
38 25-06-2016 03:05:00 19.2 C 96 % 18.55 C
39 25-06-2016 03:10:00 19.2 C 96 % 18.55 C
40 25-06-2016 03:15:00 19.2 C 96 % 18.55 C
41 25-06-2016 03:20:00 19.2 C 96 % 18.55 C
42 25-06-2016 03:25:00 19.2 C 96 % 18.55 C
43 25-06-2016 03:30:00 19.2 C 96 % 18.55 C
44 25-06-2016 03:35:00 19.2 C 96 % 18.55 C
45 25-06-2016 03:40:00 19.2 C 96 % 18.55 C
46 25-06-2016 03:45:00 19.2 C 96 % 18.55 C
47 25-06-2016 03:50:00 19.2 C 96 % 18.55 C
48 25-06-2016 03:55:00 19.2 C 96 % 18.55 C
49 25-06-2016 04:00:00 19.1 C 96 % 18.45 C
50 25-06-2016 04:05:00 19.1 C 96 % 18.45 C
Sensor: Nr:Datum:Temp:Feuchte:Taupunkt:
Aussen-T/F 51 25-06-2016 04:10:00 19.1 C 96 % 18.45 C
52 25-06-2016 04:15:00 19.1 C 96 % 18.45 C
53 25-06-2016 04:20:00 19.1 C 96 % 18.45 C
54 25-06-2016 04:25:00 19.1 C 96 % 18.45 C
55 25-06-2016 04:30:00 19.1 C 96 % 18.45 C
56 25-06-2016 04:35:00 19.1 C 96 % 18.45 C
57 25-06-2016 04:40:00 19 C 96 % 18.35 C
58 25-06-2016 04:45:00 19 C 96 % 18.35 C
59 25-06-2016 04:50:00 19 C 96 % 18.35 C
60 25-06-2016 04:55:00 19 C 96 % 18.35 C
61 25-06-2016 05:00:00 19 C 96 % 18.35 C
62 25-06-2016 05:05:00 19 C 96 % 18.35 C
63 25-06-2016 05:10:00 18.9 C 96 % 18.25 C
64 25-06-2016 05:15:00 18.9 C 96 % 18.25 C
65 25-06-2016 05:20:00 18.9 C 96 % 18.25 C
66 25-06-2016 05:25:00 18.9 C 96 % 18.25 C
67 25-06-2016 05:30:00 18.9 C 96 % 18.25 C
68 25-06-2016 05:35:00 18.9 C 96 % 18.25 C
69 25-06-2016 05:40:00 18.9 C 96 % 18.25 C
70 25-06-2016 05:45:00 18.9 C 96 % 18.25 C
71 25-06-2016 05:50:00 18.9 C 96 % 18.25 C
72 25-06-2016 05:55:00 18.9 C 96 % 18.25 C
73 25-06-2016 06:00:00 18.8 C 96 % 18.15 C
74 25-06-2016 06:05:00 18.8 C 96 % 18.15 C
75 25-06-2016 06:10:00 18.8 C 96 % 18.15 C
Sensor: Nr:Datum:Temp:Feuchte:Taupunkt:
Aussen-T/F 76 25-06-2016 06:15:00 18.7 C 96 % 18.05 C
77 25-06-2016 06:20:00 18.7 C 96 % 18.05 C
78 25-06-2016 06:25:00 18.7 C 96 % 18.05 C
79 25-06-2016 06:30:00 18.6 C 96 % 17.95 C
80 25-06-2016 06:35:00 18.6 C 96 % 17.95 C
81 25-06-2016 06:40:00 18.5 C 96 % 17.85 C
82 25-06-2016 06:45:00 18.5 C 96 % 17.85 C
83 25-06-2016 06:50:00 18.4 C 96 % 17.75 C
84 25-06-2016 06:55:00 18.4 C 96 % 17.75 C
85 25-06-2016 07:00:00 18.4 C 96 % 17.75 C
86 25-06-2016 07:05:00 18.4 C 96 % 17.75 C
87 25-06-2016 07:10:00 18.4 C 96 % 17.75 C
88 25-06-2016 07:15:00 18.4 C 96 % 17.75 C
89 25-06-2016 07:20:00 18.4 C 96 % 17.75 C
90 25-06-2016 07:25:00 18.4 C 97 % 17.91 C
91 25-06-2016 07:30:00 18.4 C 97 % 17.91 C
92 25-06-2016 07:35:00 18.4 C 97 % 17.91 C
93 25-06-2016 07:40:00 18.4 C 97 % 17.91 C
94 25-06-2016 07:45:00 18.3 C 96 % 17.65 C
95 25-06-2016 07:50:00 18.3 C 97 % 17.82 C
96 25-06-2016 07:55:00 18.3 C 97 % 17.82 C
97 25-06-2016 08:00:00 18.3 C 97 % 17.82 C
98 25-06-2016 08:05:00 18.3 C 97 % 17.82 C
99 25-06-2016 08:10:00 18.4 C 97 % 17.91 C
100 25-06-2016 08:15:00 18.4 C 97 % 17.91 C
Sensor: Nr:Datum:Temp:Feuchte:Taupunkt:
Aussen-T/F 101 25-06-2016 08:20:00 18.4 C 97 % 17.91 C
102 25-06-2016 08:25:00 18.4 C 97 % 17.91 C
103 25-06-2016 08:30:00 18.5 C 97 % 18.01 C
104 25-06-2016 08:35:00 18.6 C 97 % 18.11 C
105 25-06-2016 08:40:00 18.6 C 97 % 18.11 C
106 25-06-2016 08:45:00 18.3 C 97 % 17.82 C
107 25-06-2016 08:50:00 18.1 C 96 % 17.45 C
108 25-06-2016 08:55:00 17.9 C 96 % 17.25 C
109 25-06-2016 09:00:00 17.8 C 96 % 17.15 C
110 25-06-2016 09:05:00 17.7 C 96 % 17.05 C
111 25-06-2016 09:10:00 17.6 C 96 % 16.95 C
112 25-06-2016 09:15:00 17.6 C 96 % 16.95 C
113 25-06-2016 09:20:00 17.6 C 96 % 16.95 C
114 25-06-2016 09:25:00 17.6 C 96 % 16.95 C
115 25-06-2016 09:30:00 17.6 C 97 % 17.12 C
116 25-06-2016 09:35:00 17.7 C 97 % 17.22 C
117 25-06-2016 09:40:00 17.7 C 97 % 17.22 C
118 25-06-2016 09:45:00 17.7 C 97 % 17.22 C
119 25-06-2016 09:50:00 17.7 C 97 % 17.22 C
120 25-06-2016 09:55:00 17.7 C 96 % 17.05 C
121 25-06-2016 10:00:00 17.7 C 97 % 17.22 C
122 25-06-2016 10:05:00 17.7 C 96 % 17.05 C
123 25-06-2016 10:10:00 17.7 C 97 % 17.22 C
124 25-06-2016 10:15:00 17.8 C 97 % 17.32 C
125 25-06-2016 10:20:00 17.8 C 97 % 17.32 C
Sensor: Nr:Datum:Temp:Feuchte:Taupunkt:
Aussen-T/F 126 25-06-2016 10:25:00 17.8 C 96 % 17.15 C
127 25-06-2016 10:30:00 17.7 C 96 % 17.05 C
128 25-06-2016 10:35:00 17.6 C 96 % 16.95 C
129 25-06-2016 10:40:00 17.5 C 96 % 16.85 C
130 25-06-2016 10:45:00 17.4 C 96 % 16.76 C
131 25-06-2016 10:50:00 17.3 C 96 % 16.66 C
132 25-06-2016 10:55:00 17.2 C 96 % 16.56 C
133 25-06-2016 11:00:00 17.2 C 96 % 16.56 C
134 25-06-2016 11:05:00 17.1 C 96 % 16.46 C
135 25-06-2016 11:10:00 17.1 C 96 % 16.46 C
136 25-06-2016 11:15:00 17.1 C 96 % 16.46 C
137 25-06-2016 11:20:00 17 C 96 % 16.36 C
138 25-06-2016 11:25:00 17 C 96 % 16.36 C
139 25-06-2016 11:30:00 17.1 C 96 % 16.46 C
140 25-06-2016 11:35:00 17 C 96 % 16.36 C
141 25-06-2016 11:40:00 16.9 C 96 % 16.26 C
142 25-06-2016 11:45:00 16.9 C 96 % 16.26 C
143 25-06-2016 11:50:00 16.9 C 96 % 16.26 C
144 25-06-2016 11:55:00 16.9 C 96 % 16.26 C
145 25-06-2016 12:00:00 16.9 C 96 % 16.26 C
146 25-06-2016 12:05:00 16.9 C 96 % 16.26 C
147 25-06-2016 12:10:00 16.9 C 96 % 16.26 C
148 25-06-2016 12:15:00 16.8 C 96 % 16.16 C
149 25-06-2016 12:20:00 16.8 C 96 % 16.16 C
150 25-06-2016 12:25:00 16.6 C 96 % 15.96 C
Sensor: Nr:Datum:Temp:Feuchte:Taupunkt:
Aussen-T/F 151 25-06-2016 12:30:00 16.6 C 96 % 15.96 C
152 25-06-2016 12:35:00 16.6 C 96 % 15.96 C
153 25-06-2016 12:40:00 16.6 C 96 % 15.96 C
154 25-06-2016 12:45:00 16.5 C 96 % 15.86 C
155 25-06-2016 12:50:00 16.4 C 96 % 15.76 C
156 25-06-2016 12:55:00 16.4 C 96 % 15.76 C
157 25-06-2016 13:00:00 16.4 C 96 % 15.76 C
158 25-06-2016 13:05:00 16.3 C 96 % 15.66 C
159 25-06-2016 13:10:00 16.3 C 96 % 15.66 C
160 25-06-2016 13:15:00 16.3 C 96 % 15.66 C
161 25-06-2016 13:20:00 16.2 C 96 % 15.56 C
162 25-06-2016 13:25:00 16.1 C 95 % 15.3 C
163 25-06-2016 13:30:00 16.1 C 96 % 15.46 C
164 25-06-2016 13:35:00 16.2 C 96 % 15.56 C
165 25-06-2016 13:40:00 16.2 C 96 % 15.56 C
166 25-06-2016 13:45:00 16.2 C 96 % 15.56 C
167 25-06-2016 13:50:00 16.2 C 96 % 15.56 C
168 25-06-2016 13:55:00 16.1 C 96 % 15.46 C
169 25-06-2016 14:00:00 16.1 C 96 % 15.46 C
170 25-06-2016 14:05:00 16.1 C 96 % 15.46 C
171 25-06-2016 14:10:00 16.1 C 96 % 15.46 C
172 25-06-2016 14:15:00 16.1 C 96 % 15.46 C
173 25-06-2016 14:20:00 16 C 96 % 15.36 C
174 25-06-2016 14:25:00 15.9 C 96 % 15.26 C
175 25-06-2016 14:30:00 15.9 C 96 % 15.26 C
Sensor: Nr:Datum:Temp:Feuchte:Taupunkt:
Aussen-T/F 176 25-06-2016 14:35:00 15.9 C 96 % 15.26 C
177 25-06-2016 14:40:00 15.8 C 96 % 15.16 C
178 25-06-2016 14:45:00 15.8 C 96 % 15.16 C
179 25-06-2016 14:50:00 15.8 C 96 % 15.16 C
180 25-06-2016 14:55:00 15.8 C 96 % 15.16 C
181 25-06-2016 15:00:00 15.8 C 96 % 15.16 C
182 25-06-2016 15:05:00 15.8 C 96 % 15.16 C
183 25-06-2016 15:10:00 15.8 C 96 % 15.16 C
184 25-06-2016 15:15:00 15.8 C 96 % 15.16 C
185 25-06-2016 15:20:00 15.8 C 96 % 15.16 C
186 25-06-2016 15:25:00 15.8 C 96 % 15.16 C
187 25-06-2016 15:30:00 15.9 C 96 % 15.26 C
188 25-06-2016 15:35:00 15.8 C 96 % 15.16 C
189 25-06-2016 15:40:00 15.7 C 95 % 14.9 C
190 25-06-2016 15:45:00 15.8 C 96 % 15.16 C
191 25-06-2016 15:50:00 15.8 C 96 % 15.16 C
192 25-06-2016 15:55:00 15.7 C 95 % 14.9 C
193 25-06-2016 16:00:00 15.6 C 95 % 14.8 C
194 25-06-2016 16:05:00 15.7 C 96 % 15.06 C
195 25-06-2016 16:10:00 15.6 C 95 % 14.8 C
196 25-06-2016 16:15:00 15.6 C 96 % 14.96 C
197 25-06-2016 16:20:00 15.6 C 96 % 14.96 C
198 25-06-2016 16:25:00 15.5 C 95 % 14.7 C
199 25-06-2016 16:30:00 15.4 C 95 % 14.6 C
200 25-06-2016 16:35:00 15.4 C 96 % 14.77 C
Sensor: Nr:Datum:Temp:Feuchte:Taupunkt:
Aussen-T/F 201 25-06-2016 16:40:00 15.4 C 96 % 14.77 C
202 25-06-2016 16:45:00 15.4 C 96 % 14.77 C
203 25-06-2016 16:50:00 15.3 C 95 % 14.5 C
204 25-06-2016 16:55:00 15.3 C 95 % 14.5 C
205 25-06-2016 17:00:00 15.3 C 95 % 14.5 C
206 25-06-2016 17:05:00 15.2 C 95 % 14.4 C
207 25-06-2016 17:10:00 15.2 C 95 % 14.4 C
208 25-06-2016 17:15:00 15.3 C 96 % 14.67 C
209 25-06-2016 17:20:00 15.3 C 96 % 14.67 C
210 25-06-2016 17:25:00 15.4 C 96 % 14.77 C
211 25-06-2016 17:30:00 15.5 C 96 % 14.86 C
212 25-06-2016 17:35:00 15.6 C 96 % 14.96 C
213 25-06-2016 17:40:00 15.7 C 96 % 15.06 C
214 25-06-2016 17:45:00 15.7 C 96 % 15.06 C
215 25-06-2016 17:50:00 15.7 C 96 % 15.06 C
216 25-06-2016 17:55:00 15.6 C 95 % 14.8 C
217 25-06-2016 18:00:00 15.6 C 95 % 14.8 C
218 25-06-2016 18:05:00 15.7 C 95 % 14.9 C
219 25-06-2016 18:10:00 15.7 C 95 % 14.9 C
220 25-06-2016 18:15:00 15.8 C 95 % 15 C
221 25-06-2016 18:20:00 15.8 C 95 % 15 C
222 25-06-2016 18:25:00 15.8 C 95 % 15 C
223 25-06-2016 18:30:00 15.7 C 95 % 14.9 C
224 25-06-2016 18:35:00 15.6 C 95 % 14.8 C
225 25-06-2016 18:40:00 15.6 C 95 % 14.8 C
Sensor: Nr:Datum:Temp:Feuchte:Taupunkt:
Aussen-T/F 226 25-06-2016 18:45:00 15.6 C 95 % 14.8 C
227 25-06-2016 18:50:00 15.6 C 95 % 14.8 C
228 25-06-2016 18:55:00 15.6 C 95 % 14.8 C
229 25-06-2016 19:00:00 15.6 C 95 % 14.8 C
230 25-06-2016 19:05:00 15.6 C 95 % 14.8 C
231 25-06-2016 19:10:00 15.5 C 95 % 14.7 C
232 25-06-2016 19:15:00 15.4 C 95 % 14.6 C
233 25-06-2016 19:20:00 15.3 C 95 % 14.5 C
234 25-06-2016 19:25:00 15.2 C 95 % 14.4 C
235 25-06-2016 19:30:00 15.1 C 95 % 14.31 C
236 25-06-2016 19:35:00 15.1 C 95 % 14.31 C
237 25-06-2016 19:40:00 15.1 C 95 % 14.31 C
238 25-06-2016 19:45:00 15 C 95 % 14.21 C
239 25-06-2016 19:50:00 15 C 95 % 14.21 C
240 25-06-2016 19:55:00 14.9 C 95 % 14.11 C
241 25-06-2016 20:00:00 15 C 96 % 14.37 C
242 25-06-2016 20:05:00 15.1 C 96 % 14.47 C
243 25-06-2016 20:10:00 15.2 C 96 % 14.57 C
244 25-06-2016 20:15:00 15.1 C 96 % 14.47 C
245 25-06-2016 20:20:00 15.1 C 96 % 14.47 C
246 25-06-2016 20:25:00 15.2 C 96 % 14.57 C
247 25-06-2016 20:30:00 15.2 C 96 % 14.57 C
248 25-06-2016 20:35:00 15.1 C 96 % 14.47 C
249 25-06-2016 20:40:00 15.1 C 96 % 14.47 C
250 25-06-2016 20:45:00 15 C 96 % 14.37 C
Sensor: Nr:Datum:Temp:Feuchte:Taupunkt:
Aussen-T/F 251 25-06-2016 20:50:00 15.1 C 96 % 14.47 C
252 25-06-2016 20:55:00 15.1 C 96 % 14.47 C
253 25-06-2016 21:00:00 15 C 96 % 14.37 C
254 25-06-2016 21:05:00 14.9 C 96 % 14.27 C
255 25-06-2016 21:10:00 14.8 C 96 % 14.17 C
256 25-06-2016 21:15:00 14.6 C 95 % 13.81 C
257 25-06-2016 21:20:00 14.3 C 95 % 13.51 C
258 25-06-2016 21:25:00 14.2 C 95 % 13.41 C
259 25-06-2016 21:30:00 14.1 C 95 % 13.31 C
260 25-06-2016 21:35:00 13.9 C 95 % 13.11 C
261 25-06-2016 21:40:00 13.8 C 95 % 13.01 C
262 25-06-2016 21:45:00 13.8 C 95 % 13.01 C
263 25-06-2016 21:50:00 13.7 C 96 % 13.07 C
264 25-06-2016 21:55:00 13.6 C 96 % 12.97 C
265 25-06-2016 22:00:00 13.6 C 95 % 12.81 C
266 25-06-2016 22:05:00 13.5 C 96 % 12.87 C
267 25-06-2016 22:10:00 13.4 C 96 % 12.78 C
268 25-06-2016 22:15:00 13.4 C 96 % 12.78 C
269 25-06-2016 22:20:00 13.3 C 96 % 12.68 C
270 25-06-2016 22:25:00 13.2 C 96 % 12.58 C
271 25-06-2016 22:30:00 13.2 C 96 % 12.58 C
272 25-06-2016 22:35:00 13.2 C 96 % 12.58 C
273 25-06-2016 22:40:00 13.2 C 96 % 12.58 C
274 25-06-2016 22:45:00 13.2 C 96 % 12.58 C
275 25-06-2016 22:50:00 13.1 C 96 % 12.48 C
Sensor: Nr:Datum:Temp:Feuchte:Taupunkt:
Aussen-T/F 276 25-06-2016 22:55:00 13.1 C 96 % 12.48 C
277 25-06-2016 23:00:00 13 C 96 % 12.38 C
278 25-06-2016 23:05:00 12.9 C 96 % 12.28 C
279 25-06-2016 23:10:00 12.8 C 96 % 12.18 C
280 25-06-2016 23:15:00 12.8 C 96 % 12.18 C
281 25-06-2016 23:20:00 12.8 C 96 % 12.18 C
282 25-06-2016 23:25:00 12.8 C 96 % 12.18 C
283 25-06-2016 23:30:00 12.8 C 96 % 12.18 C
284 25-06-2016 23:35:00 12.7 C 96 % 12.08 C
285 25-06-2016 23:40:00 12.7 C 96 % 12.08 C
286 25-06-2016 23:45:00 12.7 C 96 % 12.08 C
287 25-06-2016 23:50:00 12.6 C 96 % 11.98 C
288 25-06-2016 23:55:00 12.6 C 96 % 11.98 C
289 26-06-2016 00:00:00 12.6 C 96 % 11.98 C
290 26-06-2016 00:05:00 12.6 C 96 % 11.98 C
291 26-06-2016 00:10:00 12.5 C 96 % 11.88 C
292 26-06-2016 00:15:00 12.5 C 97 % 12.04 C
293 26-06-2016 00:20:00 12.5 C 97 % 12.04 C
294 26-06-2016 00:25:00 12.5 C 97 % 12.04 C
295 26-06-2016 00:30:00 12.5 C 97 % 12.04 C
296 26-06-2016 00:35:00 12.5 C 97 % 12.04 C
297 26-06-2016 00:40:00 12.6 C 97 % 12.14 C
298 26-06-2016 00:45:00 12.7 C 97 % 12.24 C
299 26-06-2016 00:50:00 12.8 C 97 % 12.34 C
300 26-06-2016 00:55:00 12.9 C 97 % 12.44 C
Sensor: Nr:Datum:Temp:Feuchte:Taupunkt:
Aussen-T/F 301 26-06-2016 01:00:00 13.1 C 97 % 12.63 C
302 26-06-2016 01:05:00 13.2 C 97 % 12.73 C
303 26-06-2016 01:10:00 13.3 C 97 % 12.83 C
304 26-06-2016 01:15:00 13.4 C 97 % 12.93 C
305 26-06-2016 01:20:00 13.4 C 97 % 12.93 C
306 26-06-2016 01:25:00 13.4 C 97 % 12.93 C
307 26-06-2016 01:30:00 13.5 C 97 % 13.03 C
308 26-06-2016 01:35:00 13.5 C 97 % 13.03 C
309 26-06-2016 01:40:00 13.5 C 97 % 13.03 C
310 26-06-2016 01:45:00 13.4 C 97 % 12.93 C
311 26-06-2016 01:50:00 13.3 C 97 % 12.83 C
312 26-06-2016 01:55:00 13.3 C 97 % 12.83 C
313 26-06-2016 02:00:00 13.2 C 97 % 12.73 C
314 26-06-2016 02:05:00 13.1 C 97 % 12.63 C
315 26-06-2016 02:10:00 13.1 C 97 % 12.63 C
316 26-06-2016 02:15:00 13.1 C 97 % 12.63 C
317 26-06-2016 02:20:00 13.1 C 97 % 12.63 C
318 26-06-2016 02:25:00 13.1 C 97 % 12.63 C
319 26-06-2016 02:30:00 13.1 C 97 % 12.63 C
320 26-06-2016 02:35:00 13 C 97 % 12.54 C
321 26-06-2016 02:40:00 13 C 97 % 12.54 C
322 26-06-2016 02:45:00 13 C 97 % 12.54 C
323 26-06-2016 02:50:00 12.9 C 97 % 12.44 C
324 26-06-2016 02:55:00 12.9 C 97 % 12.44 C
325 26-06-2016 03:00:00 12.9 C 97 % 12.44 C
Sensor: Nr:Datum:Temp:Feuchte:Taupunkt:
Aussen-T/F 326 26-06-2016 03:05:00 12.9 C 97 % 12.44 C
327 26-06-2016 03:10:00 12.9 C 97 % 12.44 C
328 26-06-2016 03:15:00 12.8 C 97 % 12.34 C
329 26-06-2016 03:20:00 12.8 C 97 % 12.34 C
330 26-06-2016 03:25:00 12.8 C 97 % 12.34 C
331 26-06-2016 03:30:00 12.8 C 97 % 12.34 C
332 26-06-2016 03:35:00 12.7 C 97 % 12.24 C
333 26-06-2016 03:40:00 12.7 C 97 % 12.24 C
334 26-06-2016 03:45:00 12.6 C 97 % 12.14 C
335 26-06-2016 03:50:00 12.6 C 97 % 12.14 C
336 26-06-2016 03:55:00 12.5 C 97 % 12.04 C
337 26-06-2016 04:00:00 12.4 C 97 % 11.94 C
338 26-06-2016 04:05:00 12.4 C 97 % 11.94 C
339 26-06-2016 04:10:00 12.3 C 97 % 11.84 C
340 26-06-2016 04:15:00 12.3 C 97 % 11.84 C
341 26-06-2016 04:20:00 12.2 C 97 % 11.74 C
342 26-06-2016 04:25:00 12.2 C 97 % 11.74 C
343 26-06-2016 04:30:00 12.2 C 97 % 11.74 C
344 26-06-2016 04:35:00 12.1 C 97 % 11.64 C
345 26-06-2016 04:40:00 12.1 C 97 % 11.64 C
346 26-06-2016 04:45:00 12 C 97 % 11.54 C
347 26-06-2016 04:50:00 12 C 97 % 11.54 C
348 26-06-2016 04:55:00 11.9 C 97 % 11.44 C
349 26-06-2016 05:00:00 11.8 C 97 % 11.34 C
350 26-06-2016 05:05:00 11.7 C 97 % 11.24 C
Sensor: Nr:Datum:Temp:Feuchte:Taupunkt:
Aussen-T/F 351 26-06-2016 05:10:00 11.7 C 97 % 11.24 C
352 26-06-2016 05:15:00 11.6 C 97 % 11.14 C
353 26-06-2016 05:20:00 11.5 C 97 % 11.04 C
354 26-06-2016 05:25:00 11.3 C 97 % 10.84 C
355 26-06-2016 05:30:00 11.3 C 97 % 10.84 C
356 26-06-2016 05:35:00 11.2 C 97 % 10.74 C
357 26-06-2016 05:40:00 11.2 C 97 % 10.74 C
358 26-06-2016 05:45:00 11.2 C 97 % 10.74 C
359 26-06-2016 05:50:00 11.2 C 97 % 10.74 C
360 26-06-2016 05:55:00 11.2 C 97 % 10.74 C
361 26-06-2016 06:00:00 11.2 C 97 % 10.74 C
362 26-06-2016 06:05:00 11.3 C 97 % 10.84 C
363 26-06-2016 06:10:00 11.3 C 97 % 10.84 C
364 26-06-2016 06:15:00 11.3 C 97 % 10.84 C
365 26-06-2016 06:20:00 11.3 C 97 % 10.84 C
366 26-06-2016 06:25:00 11.4 C 97 % 10.94 C
367 26-06-2016 06:30:00 11.4 C 97 % 10.94 C
368 26-06-2016 06:35:00 11.5 C 97 % 11.04 C
369 26-06-2016 06:40:00 11.6 C 97 % 11.14 C
370 26-06-2016 06:45:00 11.6 C 97 % 11.14 C
371 26-06-2016 06:50:00 11.7 C 97 % 11.24 C
372 26-06-2016 06:55:00 11.7 C 97 % 11.24 C
373 26-06-2016 07:00:00 11.8 C 97 % 11.34 C
374 26-06-2016 07:05:00 11.8 C 97 % 11.34 C
375 26-06-2016 07:10:00 11.9 C 97 % 11.44 C
Sensor: Nr:Datum:Temp:Feuchte:Taupunkt:
Aussen-T/F 376 26-06-2016 07:15:00 12 C 98 % 11.69 C
377 26-06-2016 07:20:00 12.1 C 97 % 11.64 C
378 26-06-2016 07:25:00 12.2 C 97 % 11.74 C
379 26-06-2016 07:30:00 12.2 C 98 % 11.89 C
380 26-06-2016 07:35:00 12.3 C 98 % 11.99 C
381 26-06-2016 07:40:00 12.5 C 98 % 12.19 C
382 26-06-2016 07:45:00 12.8 C 98 % 12.49 C
383 26-06-2016 07:50:00 12.9 C 98 % 12.59 C
384 26-06-2016 07:55:00 13 C 98 % 12.69 C
385 26-06-2016 08:00:00 13 C 98 % 12.69 C
386 26-06-2016 08:05:00 13 C 98 % 12.69 C
387 26-06-2016 08:10:00 13 C 98 % 12.69 C
388 26-06-2016 08:15:00 13 C 97 % 12.54 C
389 26-06-2016 08:20:00 13.1 C 97 % 12.63 C
390 26-06-2016 08:25:00 13.1 C 97 % 12.63 C
391 26-06-2016 08:30:00 13.1 C 97 % 12.63 C
392 26-06-2016 08:35:00 13 C 97 % 12.54 C
393 26-06-2016 08:40:00 13 C 97 % 12.54 C
394 26-06-2016 08:45:00 13.1 C 97 % 12.63 C
395 26-06-2016 08:50:00 13.1 C 97 % 12.63 C
396 26-06-2016 08:55:00 13.2 C 97 % 12.73 C
397 26-06-2016 09:00:00 13.2 C 97 % 12.73 C
398 26-06-2016 09:05:00 13.3 C 97 % 12.83 C
399 26-06-2016 09:10:00 13.3 C 97 % 12.83 C
400 26-06-2016 09:15:00 13.5 C 97 % 13.03 C
Sensor: Nr:Datum:Temp:Feuchte:Taupunkt:
Aussen-T/F 401 26-06-2016 09:20:00 13.6 C 96 % 12.97 C
402 26-06-2016 09:25:00 13.8 C 96 % 13.17 C
403 26-06-2016 09:30:00 13.9 C 95 % 13.11 C
404 26-06-2016 09:35:00 14.2 C 94 % 13.25 C
405 26-06-2016 09:40:00 14.4 C 94 % 13.45 C
406 26-06-2016 09:45:00 14.6 C 93 % 13.48 C
407 26-06-2016 09:50:00 14.7 C 90 % 13.08 C
408 26-06-2016 09:55:00 14.9 C 90 % 13.28 C
409 26-06-2016 10:00:00 15.2 C 90 % 13.57 C
410 26-06-2016 10:05:00 15.4 C 88 % 13.42 C
411 26-06-2016 10:10:00 15.6 C 88 % 13.62 C
412 26-06-2016 10:15:00 15.8 C 88 % 13.82 C
413 26-06-2016 10:20:00 16 C 88 % 14.01 C
414 26-06-2016 10:25:00 16.3 C 86 % 13.95 C
415 26-06-2016 10:30:00 16.4 C 84 % 13.69 C
416 26-06-2016 10:35:00 16.4 C 83 % 13.51 C
417 26-06-2016 10:40:00 16.4 C 84 % 13.69 C
418 26-06-2016 10:45:00 16.6 C 81 % 13.33 C
419 26-06-2016 10:50:00 16.7 C 81 % 13.43 C
420 26-06-2016 10:55:00 16.8 C 79 % 13.14 C
421 26-06-2016 11:00:00 16.7 C 80 % 13.23 C
422 26-06-2016 11:05:00 16.8 C 80 % 13.33 C
423 26-06-2016 11:10:00 16.9 C 78 % 13.04 C
424 26-06-2016 11:15:00 17 C 79 % 13.33 C
425 26-06-2016 11:20:00 17 C 80 % 13.53 C
Sensor: Nr:Datum:Temp:Feuchte:Taupunkt:
Aussen-T/F 426 26-06-2016 11:25:00 17 C 78 % 13.14 C
427 26-06-2016 11:30:00 17 C 77 % 12.94 C
428 26-06-2016 11:35:00 17.1 C 76 % 12.84 C
429 26-06-2016 11:40:00 17.2 C 75 % 12.73 C
430 26-06-2016 11:45:00 17.3 C 76 % 13.03 C
431 26-06-2016 11:50:00 17.4 C 75 % 12.93 C
432 26-06-2016 11:55:00 17.5 C 73 % 12.61 C
433 26-06-2016 12:00:00 17.4 C 75 % 12.93 C
434 26-06-2016 12:05:00 17.4 C 73 % 12.51 C
435 26-06-2016 12:10:00 17.6 C 75 % 13.12 C
436 26-06-2016 12:15:00 17.7 C 73 % 12.8 C
437 26-06-2016 12:20:00 17.8 C 72 % 12.69 C
438 26-06-2016 12:25:00 18 C 71 % 12.67 C
439 26-06-2016 12:30:00 18 C 73 % 13.09 C
440 26-06-2016 12:35:00 18.1 C 72 % 12.98 C
441 26-06-2016 12:40:00 18.1 C 74 % 13.4 C
442 26-06-2016 12:45:00 18.1 C 73 % 13.19 C
443 26-06-2016 12:50:00 18.3 C 73 % 13.38 C
444 26-06-2016 12:55:00 18.4 C 72 % 13.26 C
445 26-06-2016 13:00:00 18.6 C 71 % 13.24 C
446 26-06-2016 13:05:00 18.8 C 68 % 12.77 C
447 26-06-2016 13:10:00 19.1 C 69 % 13.28 C
448 26-06-2016 13:15:00 19.1 C 68 % 13.06 C
449 26-06-2016 13:20:00 19.2 C 68 % 13.15 C
450 26-06-2016 13:25:00 19.4 C 65 % 12.66 C
Sensor: Nr:Datum:Temp:Feuchte:Taupunkt:
Aussen-T/F 451 26-06-2016 13:30:00 19.6 C 65 % 12.84 C
452 26-06-2016 13:35:00 19.6 C 67 % 13.31 C
453 26-06-2016 13:40:00 19.5 C 65 % 12.75 C
454 26-06-2016 13:45:00 19.6 C 67 % 13.31 C
455 26-06-2016 13:50:00 19.6 C 68 % 13.54 C
456 26-06-2016 13:55:00 19.7 C 67 % 13.4 C
457 26-06-2016 14:00:00 19.7 C 62 % 12.22 C
458 26-06-2016 14:05:00 19.6 C 65 % 12.84 C
459 26-06-2016 14:10:00 19.4 C 68 % 13.34 C
460 26-06-2016 14:15:00 19.4 C 72 % 14.22 C
461 26-06-2016 14:20:00 19.6 C 68 % 13.54 C
462 26-06-2016 14:25:00 19.7 C 67 % 13.4 C
463 26-06-2016 14:30:00 19.8 C 67 % 13.5 C
464 26-06-2016 14:35:00 19.9 C 70 % 14.27 C
465 26-06-2016 14:40:00 19.8 C 69 % 13.95 C
466 26-06-2016 14:45:00 19.9 C 65 % 13.13 C
467 26-06-2016 14:50:00 19.8 C 68 % 13.73 C
468 26-06-2016 14:55:00 19.8 C 69 % 13.95 C
469 26-06-2016 15:00:00 19.8 C 66 % 13.27 C
470 26-06-2016 15:05:00 19.8 C 66 % 13.27 C
471 26-06-2016 15:10:00 19.9 C 68 % 13.82 C
472 26-06-2016 15:15:00 19.9 C 68 % 13.82 C
473 26-06-2016 15:20:00 19.9 C 66 % 13.36 C
474 26-06-2016 15:25:00 19.8 C 69 % 13.95 C
475 26-06-2016 15:30:00 20.1 C 69 % 14.24 C
Sensor: Nr:Datum:Temp:Feuchte:Taupunkt:
Aussen-T/F 476 26-06-2016 15:35:00 20.6 C 66 % 14.03 C
477 26-06-2016 15:40:00 21.1 C 62 % 13.54 C
478 26-06-2016 15:45:00 21.4 C 62 % 13.82 C
479 26-06-2016 15:50:00 21.6 C 64 % 14.5 C
480 26-06-2016 15:55:00 21.9 C 62 % 14.29 C
481 26-06-2016 16:00:00 21.9 C 60 % 13.79 C
482 26-06-2016 16:05:00 21.4 C 59 % 13.06 C
483 26-06-2016 16:10:00 20.9 C 64 % 13.84 C
484 26-06-2016 16:15:00 20.5 C 63 % 13.22 C
485 26-06-2016 16:20:00 20.2 C 65 % 13.41 C
486 26-06-2016 16:25:00 20.1 C 64 % 13.08 C
487 26-06-2016 16:30:00 20.1 C 67 % 13.78 C
488 26-06-2016 16:35:00 20.2 C 69 % 14.33 C
489 26-06-2016 16:40:00 20.2 C 65 % 13.41 C
490 26-06-2016 16:45:00 20.4 C 68 % 14.3 C
491 26-06-2016 16:50:00 20.9 C 65 % 14.08 C
492 26-06-2016 16:55:00 21.3 C 62 % 13.73 C
493 26-06-2016 17:00:00 21.3 C 62 % 13.73 C
494 26-06-2016 17:05:00 20.9 C 60 % 12.85 C
495 26-06-2016 17:10:00 20.4 C 59 % 12.12 C
496 26-06-2016 17:15:00 19.7 C 63 % 12.46 C
497 26-06-2016 17:20:00 19.3 C 68 % 13.25 C
498 26-06-2016 17:25:00 19.1 C 66 % 12.6 C
499 26-06-2016 17:30:00 18.9 C 71 % 13.53 C
500 26-06-2016 17:35:00 18.7 C 68 % 12.68 C
Sensor: Nr:Datum:Temp:Feuchte:Taupunkt:
Aussen-T/F 501 26-06-2016 17:40:00 18.7 C 72 % 13.55 C
502 26-06-2016 17:45:00 18.7 C 72 % 13.55 C
503 26-06-2016 17:50:00 18.8 C 71 % 13.43 C
504 26-06-2016 17:55:00 18.8 C 69 % 13 C
505 26-06-2016 18:00:00 18.9 C 72 % 13.74 C
506 26-06-2016 18:05:00 18.9 C 69 % 13.09 C
507 26-06-2016 18:10:00 18.9 C 71 % 13.53 C
508 26-06-2016 18:15:00 18.8 C 69 % 13 C
509 26-06-2016 18:20:00 18.8 C 73 % 13.86 C
510 26-06-2016 18:25:00 18.7 C 75 % 14.18 C
511 26-06-2016 18:30:00 18.6 C 76 % 14.29 C
512 26-06-2016 18:35:00 18.6 C 77 % 14.49 C
513 26-06-2016 18:40:00 18.6 C 80 % 15.08 C
514 26-06-2016 18:45:00 18.6 C 78 % 14.69 C
515 26-06-2016 18:50:00 18.6 C 72 % 13.46 C
516 26-06-2016 18:55:00 18.1 C 71 % 12.76 C
517 26-06-2016 19:00:00 17.7 C 72 % 12.59 C
518 26-06-2016 19:05:00 17.4 C 74 % 12.72 C
519 26-06-2016 19:10:00 17.6 C 75 % 13.12 C
520 26-06-2016 19:15:00 17.8 C 75 % 13.31 C
521 26-06-2016 19:20:00 18.2 C 75 % 13.7 C
522 26-06-2016 19:25:00 18.3 C 75 % 13.79 C
523 26-06-2016 19:30:00 18.2 C 75 % 13.7 C
524 26-06-2016 19:35:00 18 C 75 % 13.51 C
525 26-06-2016 19:40:00 17.8 C 75 % 13.31 C
Sensor: Nr:Datum:Temp:Feuchte:Taupunkt:
Aussen-T/F 526 26-06-2016 19:45:00 17.7 C 76 % 13.42 C
527 26-06-2016 19:50:00 17.5 C 81 % 14.2 C
528 26-06-2016 19:55:00 17.3 C 83 % 14.39 C
529 26-06-2016 20:00:00 17.1 C 83 % 14.19 C
530 26-06-2016 20:05:00 16.8 C 84 % 14.08 C
531 26-06-2016 20:10:00 16.6 C 86 % 14.25 C
532 26-06-2016 20:15:00 16.4 C 86 % 14.05 C
533 26-06-2016 20:20:00 16.2 C 87 % 14.03 C
534 26-06-2016 20:25:00 16.1 C 88 % 14.11 C
535 26-06-2016 20:30:00 15.9 C 88 % 13.92 C
536 26-06-2016 20:35:00 15.7 C 88 % 13.72 C
537 26-06-2016 20:40:00 15.6 C 89 % 13.79 C
538 26-06-2016 20:45:00 15.4 C 89 % 13.6 C
539 26-06-2016 20:50:00 15.3 C 89 % 13.5 C
540 26-06-2016 20:55:00 15.2 C 90 % 13.57 C
541 26-06-2016 21:00:00 15.1 C 90 % 13.47 C
542 26-06-2016 21:05:00 15.1 C 91 % 13.64 C
543 26-06-2016 21:10:00 15 C 90 % 13.37 C
544 26-06-2016 21:15:00 15 C 91 % 13.54 C
545 26-06-2016 21:20:00 14.9 C 90 % 13.28 C
546 26-06-2016 21:25:00 14.8 C 90 % 13.18 C
547 26-06-2016 21:30:00 14.8 C 91 % 13.35 C
548 26-06-2016 21:35:00 14.7 C 91 % 13.25 C
549 26-06-2016 21:40:00 14.6 C 91 % 13.15 C
550 26-06-2016 21:45:00 14.5 C 91 % 13.05 C
Sensor: Nr:Datum:Temp:Feuchte:Taupunkt:
Aussen-T/F 551 26-06-2016 21:50:00 14.3 C 91 % 12.85 C
552 26-06-2016 21:55:00 14.2 C 91 % 12.75 C
553 26-06-2016 22:00:00 14 C 91 % 12.56 C
554 26-06-2016 22:05:00 13.8 C 91 % 12.36 C
555 26-06-2016 22:10:00 13.7 C 91 % 12.26 C
556 26-06-2016 22:15:00 13.5 C 92 % 12.23 C
557 26-06-2016 22:20:00 13.4 C 92 % 12.13 C
558 26-06-2016 22:25:00 13.3 C 92 % 12.03 C
559 26-06-2016 22:30:00 13.2 C 93 % 12.09 C
560 26-06-2016 22:35:00 13.1 C 93 % 11.99 C
561 26-06-2016 22:40:00 13 C 93 % 11.9 C
562 26-06-2016 22:45:00 12.9 C 94 % 11.96 C
563 26-06-2016 22:50:00 12.9 C 93 % 11.8 C
564 26-06-2016 22:55:00 12.8 C 94 % 11.86 C
565 26-06-2016 23:00:00 12.8 C 94 % 11.86 C
566 26-06-2016 23:05:00 12.8 C 94 % 11.86 C
567 26-06-2016 23:10:00 12.7 C 94 % 11.76 C
568 26-06-2016 23:15:00 12.7 C 94 % 11.76 C
569 26-06-2016 23:20:00 12.6 C 94 % 11.66 C
570 26-06-2016 23:25:00 12.6 C 94 % 11.66 C
571 26-06-2016 23:30:00 12.6 C 94 % 11.66 C
572 26-06-2016 23:35:00 12.6 C 95 % 11.82 C
573 26-06-2016 23:40:00 12.5 C 95 % 11.72 C
574 26-06-2016 23:45:00 12.5 C 95 % 11.72 C
575 26-06-2016 23:50:00 12.5 C 95 % 11.72 C
Sensor: Nr:Datum:Temp:Feuchte:Taupunkt:
Aussen-T/F 576 26-06-2016 23:55:00 12.5 C 95 % 11.72 C
577 27-06-2016 00:00:00 12.5 C 95 % 11.72 C
578 27-06-2016 00:05:00 12.4 C 95 % 11.62 C
579 27-06-2016 00:10:00 12.4 C 95 % 11.62 C
580 27-06-2016 00:15:00 12.4 C 95 % 11.62 C
581 27-06-2016 00:20:00 12.4 C 95 % 11.62 C
582 27-06-2016 00:25:00 12.4 C 95 % 11.62 C
583 27-06-2016 00:30:00 12.4 C 95 % 11.62 C
584 27-06-2016 00:35:00 12.3 C 95 % 11.52 C
585 27-06-2016 00:40:00 12.3 C 95 % 11.52 C
586 27-06-2016 00:45:00 12.2 C 95 % 11.42 C
587 27-06-2016 00:50:00 12.2 C 95 % 11.42 C
588 27-06-2016 00:55:00 12.2 C 95 % 11.42 C
589 27-06-2016 01:00:00 12.2 C 95 % 11.42 C
590 27-06-2016 01:05:00 12.2 C 95 % 11.42 C
591 27-06-2016 01:10:00 12.2 C 95 % 11.42 C
592 27-06-2016 01:15:00 12.2 C 95 % 11.42 C
593 27-06-2016 01:20:00 12.2 C 95 % 11.42 C
594 27-06-2016 01:25:00 12.2 C 95 % 11.42 C
595 27-06-2016 01:30:00 12.2 C 95 % 11.42 C
596 27-06-2016 01:35:00 12.2 C 96 % 11.58 C
597 27-06-2016 01:40:00 12.1 C 95 % 11.32 C
598 27-06-2016 01:45:00 12.1 C 95 % 11.32 C
599 27-06-2016 01:50:00 12 C 95 % 11.22 C
600 27-06-2016 01:55:00 12 C 95 % 11.22 C
Sensor: Nr:Datum:Temp:Feuchte:Taupunkt:
Aussen-T/F 601 27-06-2016 02:00:00 11.9 C 95 % 11.13 C
602 27-06-2016 02:05:00 11.9 C 95 % 11.13 C
603 27-06-2016 02:10:00 11.9 C 95 % 11.13 C
604 27-06-2016 02:15:00 11.9 C 96 % 11.28 C
605 27-06-2016 02:20:00 11.9 C 96 % 11.28 C
606 27-06-2016 02:25:00 11.9 C 96 % 11.28 C
607 27-06-2016 02:30:00 11.8 C 96 % 11.18 C
608 27-06-2016 02:35:00 11.8 C 95 % 11.03 C
609 27-06-2016 02:40:00 11.8 C 95 % 11.03 C
610 27-06-2016 02:45:00 11.9 C 96 % 11.28 C
611 27-06-2016 02:50:00 11.9 C 96 % 11.28 C
612 27-06-2016 02:55:00 11.9 C 96 % 11.28 C
613 27-06-2016 03:00:00 11.9 C 96 % 11.28 C
614 27-06-2016 03:05:00 12 C 96 % 11.38 C
615 27-06-2016 03:10:00 12.1 C 96 % 11.48 C
616 27-06-2016 03:15:00 12.1 C 96 % 11.48 C
617 27-06-2016 03:20:00 12.2 C 96 % 11.58 C
618 27-06-2016 03:25:00 12.3 C 96 % 11.68 C
619 27-06-2016 03:30:00 12.4 C 96 % 11.78 C
620 27-06-2016 03:35:00 12.4 C 96 % 11.78 C
621 27-06-2016 03:40:00 12.5 C 96 % 11.88 C
622 27-06-2016 03:45:00 12.5 C 96 % 11.88 C
623 27-06-2016 03:50:00 12.4 C 96 % 11.78 C
624 27-06-2016 03:55:00 12.3 C 96 % 11.68 C
625 27-06-2016 04:00:00 12.3 C 96 % 11.68 C
Sensor: Nr:Datum:Temp:Feuchte:Taupunkt:
Aussen-T/F 626 27-06-2016 04:05:00 12.3 C 96 % 11.68 C
627 27-06-2016 04:10:00 12.2 C 95 % 11.42 C
628 27-06-2016 04:15:00 12.2 C 96 % 11.58 C
629 27-06-2016 04:20:00 12.2 C 95 % 11.42 C
630 27-06-2016 04:25:00 12.1 C 95 % 11.32 C
631 27-06-2016 04:30:00 12.1 C 95 % 11.32 C
632 27-06-2016 04:35:00 12.1 C 96 % 11.48 C
633 27-06-2016 04:40:00 12.1 C 96 % 11.48 C
634 27-06-2016 04:45:00 12.2 C 96 % 11.58 C
635 27-06-2016 04:50:00 12.2 C 96 % 11.58 C
636 27-06-2016 04:55:00 12.2 C 96 % 11.58 C
637 27-06-2016 05:00:00 12.2 C 96 % 11.58 C
638 27-06-2016 05:05:00 12.2 C 96 % 11.58 C
639 27-06-2016 05:10:00 12.2 C 95 % 11.42 C
640 27-06-2016 05:15:00 12.1 C 95 % 11.32 C
641 27-06-2016 05:20:00 12.1 C 95 % 11.32 C
642 27-06-2016 05:25:00 12 C 95 % 11.22 C
643 27-06-2016 05:30:00 11.9 C 95 % 11.13 C
644 27-06-2016 05:35:00 11.9 C 95 % 11.13 C
645 27-06-2016 05:40:00 11.9 C 95 % 11.13 C
646 27-06-2016 05:45:00 11.8 C 95 % 11.03 C
647 27-06-2016 05:50:00 11.8 C 95 % 11.03 C
648 27-06-2016 05:55:00 11.8 C 95 % 11.03 C
649 27-06-2016 06:00:00 11.8 C 95 % 11.03 C
650 27-06-2016 06:05:00 11.7 C 95 % 10.93 C
Sensor: Nr:Datum:Temp:Feuchte:Taupunkt:
Aussen-T/F 651 27-06-2016 06:10:00 11.7 C 95 % 10.93 C
652 27-06-2016 06:15:00 11.7 C 95 % 10.93 C
653 27-06-2016 06:20:00 11.6 C 95 % 10.83 C
654 27-06-2016 06:25:00 11.5 C 95 % 10.73 C
655 27-06-2016 06:30:00 11.4 C 95 % 10.63 C
656 27-06-2016 06:35:00 11.4 C 95 % 10.63 C
657 27-06-2016 06:40:00 11.4 C 95 % 10.63 C
658 27-06-2016 06:45:00 11.4 C 95 % 10.63 C
659 27-06-2016 06:50:00 11.4 C 95 % 10.63 C
660 27-06-2016 06:55:00 11.4 C 95 % 10.63 C
661 27-06-2016 07:00:00 11.4 C 95 % 10.63 C
662 27-06-2016 07:05:00 11.4 C 95 % 10.63 C
663 27-06-2016 07:10:00 11.4 C 96 % 10.79 C
664 27-06-2016 07:15:00 11.4 C 96 % 10.79 C
665 27-06-2016 07:20:00 11.5 C 96 % 10.88 C
666 27-06-2016 07:25:00 11.5 C 96 % 10.88 C
667 27-06-2016 07:30:00 11.6 C 96 % 10.98 C
668 27-06-2016 07:35:00 11.7 C 96 % 11.08 C
669 27-06-2016 07:40:00 11.8 C 96 % 11.18 C
670 27-06-2016 07:45:00 12 C 96 % 11.38 C
671 27-06-2016 07:50:00 12.2 C 96 % 11.58 C
672 27-06-2016 07:55:00 12.3 C 96 % 11.68 C
673 27-06-2016 08:00:00 12.6 C 96 % 11.98 C
674 27-06-2016 08:05:00 12.7 C 96 % 12.08 C
675 27-06-2016 08:10:00 12.8 C 96 % 12.18 C
Sensor: Nr:Datum:Temp:Feuchte:Taupunkt:
Aussen-T/F 676 27-06-2016 08:15:00 13.1 C 96 % 12.48 C
677 27-06-2016 08:20:00 13.2 C 95 % 12.42 C
678 27-06-2016 08:25:00 13.4 C 95 % 12.62 C
679 27-06-2016 08:30:00 13.7 C 94 % 12.75 C
680 27-06-2016 08:35:00 13.8 C 92 % 12.52 C
681 27-06-2016 08:40:00 14.1 C 91 % 12.65 C
682 27-06-2016 08:45:00 14.3 C 91 % 12.85 C
683 27-06-2016 08:50:00 14.6 C 90 % 12.98 C
684 27-06-2016 08:55:00 14.7 C 88 % 12.73 C
685 27-06-2016 09:00:00 14.9 C 86 % 12.58 C
686 27-06-2016 09:05:00 15 C 85 % 12.5 C
687 27-06-2016 09:10:00 15.2 C 85 % 12.7 C
688 27-06-2016 09:15:00 15.4 C 85 % 12.89 C
689 27-06-2016 09:20:00 15.6 C 83 % 12.72 C
690 27-06-2016 09:25:00 15.8 C 82 % 12.74 C
691 27-06-2016 09:30:00 15.9 C 82 % 12.83 C
692 27-06-2016 09:35:00 16.1 C 82 % 13.03 C
693 27-06-2016 09:40:00 16.2 C 81 % 12.94 C
694 27-06-2016 09:45:00 16.2 C 81 % 12.94 C
695 27-06-2016 09:50:00 16.3 C 81 % 13.04 C
696 27-06-2016 09:55:00 16.3 C 80 % 12.85 C
697 27-06-2016 10:00:00 16.3 C 80 % 12.85 C
698 27-06-2016 10:05:00 16.3 C 80 % 12.85 C
699 27-06-2016 10:10:00 16.4 C 82 % 13.32 C
700 27-06-2016 10:15:00 16.6 C 80 % 13.14 C
Sensor: Nr:Datum:Temp:Feuchte:Taupunkt:
Aussen-T/F 701 27-06-2016 10:20:00 16.7 C 80 % 13.23 C
702 27-06-2016 10:25:00 16.8 C 79 % 13.14 C
703 27-06-2016 10:30:00 16.9 C 80 % 13.43 C
704 27-06-2016 10:35:00 17 C 80 % 13.53 C
705 27-06-2016 10:40:00 17.2 C 79 % 13.53 C
706 27-06-2016 10:45:00 17.3 C 79 % 13.63 C
707 27-06-2016 10:50:00 17.3 C 80 % 13.82 C
708 27-06-2016 10:55:00 17.4 C 80 % 13.92 C
709 27-06-2016 11:00:00 17.6 C 79 % 13.92 C
710 27-06-2016 11:05:00 17.7 C 78 % 13.82 C
711 27-06-2016 11:10:00 17.6 C 77 % 13.52 C
712 27-06-2016 11:15:00 17.6 C 79 % 13.92 C
713 27-06-2016 11:20:00 17.5 C 79 % 13.82 C
714 27-06-2016 11:25:00 17.4 C 79 % 13.72 C
715 27-06-2016 11:30:00 17.3 C 79 % 13.63 C
716 27-06-2016 11:35:00 17.2 C 80 % 13.72 C
717 27-06-2016 11:40:00 17 C 81 % 13.72 C
718 27-06-2016 11:45:00 16.8 C 81 % 13.52 C
719 27-06-2016 11:50:00 16.8 C 82 % 13.71 C
720 27-06-2016 11:55:00 16.7 C 82 % 13.61 C
721 27-06-2016 12:00:00 16.7 C 83 % 13.8 C
722 27-06-2016 12:05:00 16.9 C 83 % 14 C
723 27-06-2016 12:10:00 17.1 C 81 % 13.82 C
724 27-06-2016 12:15:00 17.4 C 81 % 14.11 C
725 27-06-2016 12:20:00 17.8 C 80 % 14.31 C
Sensor: Nr:Datum:Temp:Feuchte:Taupunkt:
Aussen-T/F 726 27-06-2016 12:25:00 18 C 79 % 14.31 C
727 27-06-2016 12:30:00 18.1 C 80 % 14.6 C
728 27-06-2016 12:35:00 18.1 C 78 % 14.21 C
729 27-06-2016 12:40:00 18 C 78 % 14.11 C
730 27-06-2016 12:45:00 17.9 C 79 % 14.21 C
731 27-06-2016 12:50:00 17.9 C 79 % 14.21 C
732 27-06-2016 12:55:00 17.8 C 81 % 14.5 C
733 27-06-2016 13:00:00 17.7 C 82 % 14.59 C
734 27-06-2016 13:05:00 17.7 C 81 % 14.4 C
735 27-06-2016 13:10:00 17.8 C 80 % 14.31 C
736 27-06-2016 13:15:00 17.9 C 78 % 14.01 C
737 27-06-2016 13:20:00 17.9 C 79 % 14.21 C
738 27-06-2016 13:25:00 18.2 C 78 % 14.3 C
739 27-06-2016 13:30:00 18.4 C 78 % 14.5 C
740 27-06-2016 13:35:00 18.6 C 77 % 14.49 C
741 27-06-2016 13:40:00 18.7 C 77 % 14.59 C
742 27-06-2016 13:45:00 18.8 C 77 % 14.68 C
743 27-06-2016 13:50:00 18.9 C 77 % 14.78 C
744 27-06-2016 13:55:00 18.9 C 77 % 14.78 C
745 27-06-2016 14:00:00 19.1 C 77 % 14.97 C
746 27-06-2016 14:05:00 19.2 C 77 % 15.07 C
747 27-06-2016 14:10:00 19.3 C 77 % 15.17 C
748 27-06-2016 14:15:00 19.3 C 76 % 14.97 C
749 27-06-2016 14:20:00 19.1 C 76 % 14.77 C
750 27-06-2016 14:25:00 18.7 C 78 % 14.79 C
Sensor: Nr:Datum:Temp:Feuchte:Taupunkt:
Aussen-T/F 751 27-06-2016 14:30:00 18.6 C 78 % 14.69 C
752 27-06-2016 14:35:00 18.5 C 80 % 14.99 C
753 27-06-2016 14:40:00 18.5 C 80 % 14.99 C
754 27-06-2016 14:45:00 18.4 C 80 % 14.89 C
755 27-06-2016 14:50:00 18.4 C 80 % 14.89 C
756 27-06-2016 14:55:00 18.3 C 81 % 14.98 C
757 27-06-2016 15:00:00 18.4 C 81 % 15.08 C
758 27-06-2016 15:05:00 18.6 C 79 % 14.89 C
759 27-06-2016 15:10:00 18.6 C 79 % 14.89 C
760 27-06-2016 15:15:00 18.5 C 79 % 14.79 C
761 27-06-2016 15:20:00 18.7 C 80 % 15.18 C
762 27-06-2016 15:25:00 18.9 C 79 % 15.18 C
763 27-06-2016 15:30:00 19.1 C 78 % 15.18 C
764 27-06-2016 15:35:00 19.2 C 79 % 15.47 C
765 27-06-2016 15:40:00 19.2 C 78 % 15.27 C
766 27-06-2016 15:45:00 19.2 C 79 % 15.47 C
767 27-06-2016 15:50:00 19.3 C 78 % 15.37 C
768 27-06-2016 15:55:00 19.3 C 79 % 15.57 C
769 27-06-2016 16:00:00 19.3 C 78 % 15.37 C
770 27-06-2016 16:05:00 19.2 C 78 % 15.27 C
771 27-06-2016 16:10:00 19.1 C 78 % 15.18 C
772 27-06-2016 16:15:00 18.9 C 80 % 15.38 C
773 27-06-2016 16:20:00 18.8 C 79 % 15.08 C
774 27-06-2016 16:25:00 18.7 C 80 % 15.18 C
775 27-06-2016 16:30:00 18.7 C 80 % 15.18 C
Sensor: Nr:Datum:Temp:Feuchte:Taupunkt:
Aussen-T/F 776 27-06-2016 16:35:00 18.7 C 81 % 15.37 C
777 27-06-2016 16:40:00 18.7 C 81 % 15.37 C
778 27-06-2016 16:45:00 18.8 C 81 % 15.47 C
779 27-06-2016 16:50:00 19.1 C 80 % 15.57 C
780 27-06-2016 16:55:00 19.4 C 78 % 15.47 C
781 27-06-2016 17:00:00 19.4 C 79 % 15.66 C
782 27-06-2016 17:05:00 19.4 C 78 % 15.47 C
783 27-06-2016 17:10:00 19.4 C 79 % 15.66 C
784 27-06-2016 17:15:00 19.7 C 78 % 15.76 C
785 27-06-2016 17:20:00 19.8 C 78 % 15.85 C
786 27-06-2016 17:25:00 19.9 C 78 % 15.95 C
787 27-06-2016 17:30:00 19.9 C 77 % 15.75 C
788 27-06-2016 17:35:00 19.8 C 79 % 16.05 C
789 27-06-2016 17:40:00 19.7 C 78 % 15.76 C
790 27-06-2016 17:45:00 19.5 C 79 % 15.76 C
791 27-06-2016 17:50:00 19.3 C 81 % 15.96 C
792 27-06-2016 17:55:00 19.3 C 81 % 15.96 C
793 27-06-2016 18:00:00 19.3 C 80 % 15.76 C
794 27-06-2016 18:05:00 19.7 C 80 % 16.15 C
795 27-06-2016 18:10:00 20.1 C 79 % 16.34 C
796 27-06-2016 18:15:00 20.3 C 77 % 16.14 C
797 27-06-2016 18:20:00 20.4 C 76 % 16.03 C
798 27-06-2016 18:25:00 20.4 C 76 % 16.03 C
799 27-06-2016 18:30:00 20.3 C 76 % 15.93 C
800 27-06-2016 18:35:00 20.4 C 76 % 16.03 C
Sensor: Nr:Datum:Temp:Feuchte:Taupunkt:
Aussen-T/F 801 27-06-2016 18:40:00 20.7 C 76 % 16.32 C
802 27-06-2016 18:45:00 20.7 C 75 % 16.11 C
803 27-06-2016 18:50:00 20.7 C 75 % 16.11 C
804 27-06-2016 18:55:00 20.8 C 77 % 16.62 C
805 27-06-2016 19:00:00 20.9 C 74 % 16.09 C
806 27-06-2016 19:05:00 20.7 C 75 % 16.11 C
807 27-06-2016 19:10:00 20.4 C 77 % 16.23 C
808 27-06-2016 19:15:00 20.1 C 77 % 15.94 C
809 27-06-2016 19:20:00 20 C 77 % 15.85 C
810 27-06-2016 19:25:00 20.1 C 78 % 16.14 C
811 27-06-2016 19:30:00 19.9 C 78 % 15.95 C
812 27-06-2016 19:35:00 19.9 C 79 % 16.15 C
813 27-06-2016 19:40:00 19.8 C 81 % 16.45 C
814 27-06-2016 19:45:00 19.8 C 79 % 16.05 C
815 27-06-2016 19:50:00 19.7 C 79 % 15.96 C
816 27-06-2016 19:55:00 19.6 C 80 % 16.06 C
817 27-06-2016 20:00:00 19.6 C 81 % 16.25 C
818 27-06-2016 20:05:00 19.4 C 81 % 16.06 C
819 27-06-2016 20:10:00 19.2 C 81 % 15.86 C
820 27-06-2016 20:15:00 19.1 C 82 % 15.96 C
821 27-06-2016 20:20:00 18.8 C 82 % 15.66 C
822 27-06-2016 20:25:00 18.7 C 83 % 15.75 C
823 27-06-2016 20:30:00 18.6 C 83 % 15.66 C
824 27-06-2016 20:35:00 18.6 C 84 % 15.84 C
825 27-06-2016 20:40:00 18.4 C 85 % 15.83 C
Sensor: Nr:Datum:Temp:Feuchte:Taupunkt:
Aussen-T/F 826 27-06-2016 20:45:00 18.4 C 85 % 15.83 C
827 27-06-2016 20:50:00 18.3 C 85 % 15.74 C
828 27-06-2016 20:55:00 18.2 C 86 % 15.82 C
829 27-06-2016 21:00:00 18.2 C 85 % 15.64 C
830 27-06-2016 21:05:00 18.1 C 85 % 15.54 C
831 27-06-2016 21:10:00 18 C 86 % 15.62 C
832 27-06-2016 21:15:00 17.9 C 86 % 15.53 C
833 27-06-2016 21:20:00 17.8 C 86 % 15.43 C
834 27-06-2016 21:25:00 17.7 C 86 % 15.33 C
835 27-06-2016 21:30:00 17.7 C 87 % 15.51 C
836 27-06-2016 21:35:00 17.6 C 87 % 15.41 C
837 27-06-2016 21:40:00 17.4 C 88 % 15.39 C
838 27-06-2016 21:45:00 17.4 C 88 % 15.39 C
839 27-06-2016 21:50:00 17.3 C 89 % 15.47 C
840 27-06-2016 21:55:00 17.3 C 89 % 15.47 C
841 27-06-2016 22:00:00 17.3 C 89 % 15.47 C
842 27-06-2016 22:05:00 17.3 C 90 % 15.64 C
843 27-06-2016 22:10:00 17.2 C 90 % 15.55 C
844 27-06-2016 22:15:00 17.2 C 90 % 15.55 C
845 27-06-2016 22:20:00 17.2 C 91 % 15.72 C
846 27-06-2016 22:25:00 17.2 C 91 % 15.72 C
847 27-06-2016 22:30:00 17.1 C 91 % 15.62 C
848 27-06-2016 22:35:00 17.1 C 91 % 15.62 C
849 27-06-2016 22:40:00 17.1 C 92 % 15.79 C
850 27-06-2016 22:45:00 17 C 92 % 15.69 C
Sensor: Nr:Datum:Temp:Feuchte:Taupunkt:
Aussen-T/F 851 27-06-2016 22:50:00 17 C 93 % 15.86 C
852 27-06-2016 22:55:00 16.9 C 93 % 15.76 C
853 27-06-2016 23:00:00 16.9 C 93 % 15.76 C
854 27-06-2016 23:05:00 16.8 C 93 % 15.66 C
855 27-06-2016 23:10:00 16.7 C 93 % 15.56 C
856 27-06-2016 23:15:00 16.6 C 93 % 15.46 C
857 27-06-2016 23:20:00 16.4 C 93 % 15.27 C
858 27-06-2016 23:25:00 16.3 C 94 % 15.33 C
859 27-06-2016 23:30:00 16.3 C 94 % 15.33 C
860 27-06-2016 23:35:00 16.2 C 94 % 15.23 C
861 27-06-2016 23:40:00 16.1 C 94 % 15.13 C
862 27-06-2016 23:45:00 16 C 94 % 15.03 C
863 27-06-2016 23:50:00 15.9 C 94 % 14.94 C
864 27-06-2016 23:55:00 15.9 C 94 % 14.94 C
865 28-06-2016 00:00:00 15.9 C 94 % 14.94 C
866 28-06-2016 00:05:00 15.9 C 94 % 14.94 C
867 28-06-2016 00:10:00 15.9 C 95 % 15.1 C
868 28-06-2016 00:15:00 15.9 C 95 % 15.1 C
869 28-06-2016 00:20:00 15.9 C 95 % 15.1 C
870 28-06-2016 00:25:00 15.9 C 95 % 15.1 C
871 28-06-2016 00:30:00 16 C 95 % 15.2 C
872 28-06-2016 00:35:00 16 C 95 % 15.2 C
873 28-06-2016 00:40:00 16 C 95 % 15.2 C
874 28-06-2016 00:45:00 16.1 C 95 % 15.3 C
875 28-06-2016 00:50:00 16.1 C 95 % 15.3 C
Sensor: Nr:Datum:Temp:Feuchte:Taupunkt:
Aussen-T/F 876 28-06-2016 00:55:00 16 C 95 % 15.2 C
877 28-06-2016 01:00:00 16 C 95 % 15.2 C
878 28-06-2016 01:05:00 16 C 95 % 15.2 C
879 28-06-2016 01:10:00 16 C 95 % 15.2 C
880 28-06-2016 01:15:00 16 C 95 % 15.2 C
881 28-06-2016 01:20:00 16 C 95 % 15.2 C
882 28-06-2016 01:25:00 16 C 95 % 15.2 C
883 28-06-2016 01:30:00 15.9 C 95 % 15.1 C
884 28-06-2016 01:35:00 15.8 C 95 % 15 C
885 28-06-2016 01:40:00 15.8 C 95 % 15 C
886 28-06-2016 01:45:00 15.7 C 95 % 14.9 C
887 28-06-2016 01:50:00 15.6 C 95 % 14.8 C
888 28-06-2016 01:55:00 15.6 C 95 % 14.8 C
889 28-06-2016 02:00:00 15.6 C 95 % 14.8 C
890 28-06-2016 02:05:00 15.6 C 96 % 14.96 C
891 28-06-2016 02:10:00 15.5 C 96 % 14.86 C
892 28-06-2016 02:15:00 15.5 C 96 % 14.86 C
893 28-06-2016 02:20:00 15.4 C 96 % 14.77 C
894 28-06-2016 02:25:00 15.4 C 96 % 14.77 C
895 28-06-2016 02:30:00 15.4 C 96 % 14.77 C
896 28-06-2016 02:35:00 15.4 C 96 % 14.77 C
897 28-06-2016 02:40:00 15.4 C 96 % 14.77 C
898 28-06-2016 02:45:00 15.4 C 96 % 14.77 C
899 28-06-2016 02:50:00 15.3 C 96 % 14.67 C
900 28-06-2016 02:55:00 15.3 C 96 % 14.67 C
Sensor: Nr:Datum:Temp:Feuchte:Taupunkt:
Aussen-T/F 901 28-06-2016 03:00:00 15.2 C 96 % 14.57 C
902 28-06-2016 03:05:00 15.1 C 96 % 14.47 C
903 28-06-2016 03:10:00 15.1 C 96 % 14.47 C
904 28-06-2016 03:15:00 15 C 96 % 14.37 C
905 28-06-2016 03:20:00 14.9 C 96 % 14.27 C
906 28-06-2016 03:25:00 14.9 C 96 % 14.27 C
907 28-06-2016 03:30:00 14.9 C 96 % 14.27 C
908 28-06-2016 03:35:00 14.9 C 96 % 14.27 C
909 28-06-2016 03:40:00 14.8 C 96 % 14.17 C
910 28-06-2016 03:45:00 14.8 C 96 % 14.17 C
911 28-06-2016 03:50:00 14.7 C 96 % 14.07 C
912 28-06-2016 03:55:00 14.6 C 96 % 13.97 C
913 28-06-2016 04:00:00 14.5 C 96 % 13.87 C
914 28-06-2016 04:05:00 14.4 C 96 % 13.77 C
915 28-06-2016 04:10:00 14.3 C 96 % 13.67 C
916 28-06-2016 04:15:00 14.2 C 96 % 13.57 C
917 28-06-2016 04:20:00 14.2 C 96 % 13.57 C
918 28-06-2016 04:25:00 14.1 C 96 % 13.47 C
919 28-06-2016 04:30:00 14.1 C 96 % 13.47 C
920 28-06-2016 04:35:00 14 C 96 % 13.37 C
921 28-06-2016 04:40:00 14 C 96 % 13.37 C
922 28-06-2016 04:45:00 14.1 C 96 % 13.47 C
923 28-06-2016 04:50:00 14.1 C 96 % 13.47 C
924 28-06-2016 04:55:00 14.2 C 96 % 13.57 C
925 28-06-2016 05:00:00 14.3 C 96 % 13.67 C
Sensor: Nr:Datum:Temp:Feuchte:Taupunkt:
Aussen-T/F 926 28-06-2016 05:05:00 14.3 C 96 % 13.67 C
927 28-06-2016 05:10:00 14.4 C 96 % 13.77 C
928 28-06-2016 05:15:00 14.4 C 96 % 13.77 C
929 28-06-2016 05:20:00 14.5 C 97 % 14.03 C
930 28-06-2016 05:25:00 14.6 C 97 % 14.13 C
931 28-06-2016 05:30:00 14.6 C 97 % 14.13 C
932 28-06-2016 05:35:00 14.7 C 96 % 14.07 C
933 28-06-2016 05:40:00 14.7 C 96 % 14.07 C
934 28-06-2016 05:45:00 14.7 C 96 % 14.07 C
935 28-06-2016 05:50:00 14.7 C 96 % 14.07 C
936 28-06-2016 05:55:00 14.8 C 96 % 14.17 C
937 28-06-2016 06:00:00 14.8 C 97 % 14.33 C
938 28-06-2016 06:05:00 14.8 C 97 % 14.33 C
939 28-06-2016 06:10:00 14.8 C 97 % 14.33 C
940 28-06-2016 06:15:00 14.8 C 96 % 14.17 C
941 28-06-2016 06:20:00 14.8 C 96 % 14.17 C
942 28-06-2016 06:25:00 14.8 C 97 % 14.33 C
943 28-06-2016 06:30:00 14.8 C 96 % 14.17 C
944 28-06-2016 06:35:00 14.8 C 96 % 14.17 C
945 28-06-2016 06:40:00 14.8 C 96 % 14.17 C
946 28-06-2016 06:45:00 14.8 C 97 % 14.33 C
947 28-06-2016 06:50:00 14.9 C 97 % 14.43 C
948 28-06-2016 06:55:00 14.9 C 97 % 14.43 C
949 28-06-2016 07:00:00 15 C 97 % 14.53 C
950 28-06-2016 07:05:00 15.1 C 97 % 14.63 C
Sensor: Nr:Datum:Temp:Feuchte:Taupunkt:
Aussen-T/F 951 28-06-2016 07:10:00 15.2 C 97 % 14.73 C
952 28-06-2016 07:15:00 15.2 C 97 % 14.73 C
953 28-06-2016 07:20:00 15.2 C 97 % 14.73 C
954 28-06-2016 07:25:00 15.3 C 97 % 14.83 C
955 28-06-2016 07:30:00 15.3 C 97 % 14.83 C
956 28-06-2016 07:35:00 15.4 C 97 % 14.93 C
957 28-06-2016 07:40:00 15.4 C 97 % 14.93 C
958 28-06-2016 07:45:00 15.4 C 97 % 14.93 C
959 28-06-2016 07:50:00 15.4 C 97 % 14.93 C
960 28-06-2016 07:55:00 15.5 C 97 % 15.03 C
961 28-06-2016 08:00:00 15.5 C 97 % 15.03 C
962 28-06-2016 08:05:00 15.6 C 97 % 15.13 C
963 28-06-2016 08:10:00 15.5 C 97 % 15.03 C
964 28-06-2016 08:15:00 15.6 C 97 % 15.13 C
965 28-06-2016 08:20:00 15.7 C 97 % 15.23 C
966 28-06-2016 08:25:00 15.7 C 97 % 15.23 C
967 28-06-2016 08:30:00 15.7 C 97 % 15.23 C
968 28-06-2016 08:35:00 15.8 C 96 % 15.16 C
969 28-06-2016 08:40:00 15.8 C 97 % 15.32 C
970 28-06-2016 08:45:00 15.9 C 96 % 15.26 C
971 28-06-2016 08:50:00 15.9 C 96 % 15.26 C
972 28-06-2016 08:55:00 16 C 96 % 15.36 C
973 28-06-2016 09:00:00 16.1 C 96 % 15.46 C
974 28-06-2016 09:05:00 16.2 C 96 % 15.56 C
975 28-06-2016 09:10:00 16.2 C 96 % 15.56 C
Sensor: Nr:Datum:Temp:Feuchte:Taupunkt:
Aussen-T/F 976 28-06-2016 09:15:00 16.3 C 96 % 15.66 C
977 28-06-2016 09:20:00 16.3 C 96 % 15.66 C
978 28-06-2016 09:25:00 16.4 C 96 % 15.76 C
979 28-06-2016 09:30:00 16.4 C 96 % 15.76 C
980 28-06-2016 09:35:00 16.6 C 96 % 15.96 C
981 28-06-2016 09:40:00 16.6 C 95 % 15.8 C
982 28-06-2016 09:45:00 16.8 C 95 % 15.99 C
983 28-06-2016 09:50:00 16.9 C 94 % 15.93 C
984 28-06-2016 09:55:00 17 C 94 % 16.03 C
985 28-06-2016 10:00:00 17.2 C 93 % 16.06 C
986 28-06-2016 10:05:00 17.3 C 93 % 16.16 C
987 28-06-2016 10:10:00 17.4 C 93 % 16.26 C
988 28-06-2016 10:15:00 17.3 C 91 % 15.82 C
989 28-06-2016 10:20:00 17.4 C 91 % 15.92 C
990 28-06-2016 10:25:00 17.5 C 91 % 16.01 C
991 28-06-2016 10:30:00 17.7 C 91 % 16.21 C
992 28-06-2016 10:35:00 17.8 C 91 % 16.31 C
993 28-06-2016 10:40:00 18 C 91 % 16.51 C
994 28-06-2016 10:45:00 18.2 C 90 % 16.53 C
995 28-06-2016 10:50:00 18.2 C 88 % 16.18 C
996 28-06-2016 10:55:00 18.3 C 88 % 16.28 C
997 28-06-2016 11:00:00 18.6 C 87 % 16.39 C
998 28-06-2016 11:05:00 18.8 C 88 % 16.77 C
999 28-06-2016 11:10:00 18.9 C 85 % 16.32 C
1000 28-06-2016 11:15:00 18.9 C 83 % 15.95 C
Sensor: Nr:Datum:Temp:Feuchte:Taupunkt:
Aussen-T/F 1001 28-06-2016 11:20:00 18.9 C 83 % 15.95 C
1002 28-06-2016 11:25:00 18.9 C 84 % 16.14 C
1003 28-06-2016 11:30:00 19 C 83 % 16.05 C
1004 28-06-2016 11:35:00 19.1 C 82 % 15.96 C
1005 28-06-2016 11:40:00 19.2 C 82 % 16.05 C
1006 28-06-2016 11:45:00 19.2 C 79 % 15.47 C
1007 28-06-2016 11:50:00 19.4 C 80 % 15.86 C
1008 28-06-2016 11:55:00 19.7 C 81 % 16.35 C
1009 28-06-2016 12:00:00 19.8 C 78 % 15.85 C
1010 28-06-2016 12:05:00 19.9 C 79 % 16.15 C
1011 28-06-2016 12:10:00 20.1 C 77 % 15.94 C
1012 28-06-2016 12:15:00 20.2 C 81 % 16.84 C
1013 28-06-2016 12:20:00 20.3 C 80 % 16.74 C
1014 28-06-2016 12:25:00 20.4 C 79 % 16.64 C
1015 28-06-2016 12:30:00 20.4 C 74 % 15.61 C
1016 28-06-2016 12:35:00 20.5 C 75 % 15.92 C
1017 28-06-2016 12:40:00 20.6 C 74 % 15.8 C
1018 28-06-2016 12:45:00 20.7 C 72 % 15.47 C
1019 28-06-2016 12:50:00 20.8 C 69 % 14.91 C
1020 28-06-2016 12:55:00 20.9 C 77 % 16.72 C
1021 28-06-2016 13:00:00 21 C 79 % 17.22 C
1022 28-06-2016 13:05:00 20.9 C 76 % 16.51 C
1023 28-06-2016 13:10:00 20.9 C 78 % 16.92 C
1024 28-06-2016 13:15:00 21 C 75 % 16.4 C
1025 28-06-2016 13:20:00 21.1 C 69 % 15.19 C
Sensor: Nr:Datum:Temp:Feuchte:Taupunkt:
Aussen-T/F 1026 28-06-2016 13:25:00 21.1 C 68 % 14.97 C
1027 28-06-2016 13:30:00 21.2 C 70 % 15.51 C
1028 28-06-2016 13:35:00 21.2 C 67 % 14.83 C
1029 28-06-2016 13:40:00 21.3 C 71 % 15.83 C
1030 28-06-2016 13:45:00 21.4 C 67 % 15.02 C
1031 28-06-2016 13:50:00 21.5 C 68 % 15.35 C
1032 28-06-2016 13:55:00 21.5 C 67 % 15.12 C
1033 28-06-2016 14:00:00 21.4 C 71 % 15.93 C
1034 28-06-2016 14:05:00 21.3 C 70 % 15.61 C
1035 28-06-2016 14:10:00 21.3 C 70 % 15.61 C
1036 28-06-2016 14:15:00 21.3 C 68 % 15.16 C
1037 28-06-2016 14:20:00 21.3 C 66 % 14.69 C
1038 28-06-2016 14:25:00 21.3 C 67 % 14.93 C
1039 28-06-2016 14:30:00 21.4 C 69 % 15.48 C
1040 28-06-2016 14:35:00 21.4 C 67 % 15.02 C
1041 28-06-2016 14:40:00 21.5 C 65 % 14.65 C
1042 28-06-2016 14:45:00 21.4 C 65 % 14.55 C
1043 28-06-2016 14:50:00 21.6 C 66 % 14.98 C
1044 28-06-2016 14:55:00 21.8 C 65 % 14.93 C
1045 28-06-2016 15:00:00 21.9 C 63 % 14.54 C
1046 28-06-2016 15:05:00 22.1 C 65 % 15.21 C
1047 28-06-2016 15:10:00 22.2 C 63 % 14.82 C
1048 28-06-2016 15:15:00 22.2 C 65 % 15.31 C
1049 28-06-2016 15:20:00 22.3 C 59 % 13.9 C
1050 28-06-2016 15:25:00 22.3 C 59 % 13.9 C
Sensor: Nr:Datum:Temp:Feuchte:Taupunkt:
Aussen-T/F 1051 28-06-2016 15:30:00 22.3 C 62 % 14.67 C
1052 28-06-2016 15:35:00 22.3 C 61 % 14.42 C
1053 28-06-2016 15:40:00 22.4 C 60 % 14.26 C
1054 28-06-2016 15:45:00 22.6 C 60 % 14.44 C
1055 28-06-2016 15:50:00 22.6 C 61 % 14.7 C
1056 28-06-2016 15:55:00 22.7 C 61 % 14.79 C
1057 28-06-2016 16:00:00 22.7 C 60 % 14.54 C
1058 28-06-2016 16:05:00 22.8 C 61 % 14.89 C
1059 28-06-2016 16:10:00 22.9 C 60 % 14.73 C
1060 28-06-2016 16:15:00 22.9 C 60 % 14.73 C
1061 28-06-2016 16:20:00 22.9 C 61 % 14.98 C
1062 28-06-2016 16:25:00 23.4 C 65 % 16.45 C
1063 28-06-2016 16:30:00 23.9 C 57 % 14.87 C
1064 28-06-2016 16:35:00 24.1 C 54 % 14.21 C
1065 28-06-2016 16:40:00 24 C 55 % 14.41 C
1066 28-06-2016 16:45:00 23.7 C 55 % 14.13 C
1067 28-06-2016 16:50:00 23.3 C 59 % 14.84 C
1068 28-06-2016 16:55:00 23.1 C 61 % 15.17 C
1069 28-06-2016 17:00:00 22.9 C 63 % 15.48 C
1070 28-06-2016 17:05:00 22.7 C 57 % 13.75 C
1071 28-06-2016 17:10:00 22.4 C 64 % 15.26 C
1072 28-06-2016 17:15:00 22.3 C 64 % 15.16 C
1073 28-06-2016 17:20:00 22.4 C 63 % 15.01 C
1074 28-06-2016 17:25:00 22.7 C 66 % 16.02 C
1075 28-06-2016 17:30:00 23.1 C 68 % 16.87 C
Sensor: Nr:Datum:Temp:Feuchte:Taupunkt:
Aussen-T/F 1076 28-06-2016 17:35:00 23.3 C 64 % 16.11 C
1077 28-06-2016 17:40:00 23.2 C 66 % 16.5 C
1078 28-06-2016 17:45:00 23.2 C 70 % 17.42 C
1079 28-06-2016 17:50:00 23.3 C 71 % 17.75 C
1080 28-06-2016 17:55:00 23.3 C 68 % 17.06 C
1081 28-06-2016 18:00:00 23.2 C 69 % 17.2 C
1082 28-06-2016 18:05:00 23.1 C 66 % 16.4 C
1083 28-06-2016 18:10:00 23.1 C 73 % 17.99 C
1084 28-06-2016 18:15:00 23 C 67 % 16.54 C
1085 28-06-2016 18:20:00 22.9 C 64 % 15.73 C
1086 28-06-2016 18:25:00 22.8 C 66 % 16.12 C
1087 28-06-2016 18:30:00 23.1 C 60 % 14.91 C
1088 28-06-2016 18:35:00 23.2 C 60 % 15.01 C
1089 28-06-2016 18:40:00 23.1 C 63 % 15.67 C
1090 28-06-2016 18:45:00 23 C 69 % 17.01 C
1091 28-06-2016 18:50:00 23.1 C 65 % 16.16 C
1092 28-06-2016 18:55:00 23.2 C 62 % 15.52 C
1093 28-06-2016 19:00:00 23.1 C 64 % 15.92 C
1094 28-06-2016 19:05:00 22.8 C 62 % 15.14 C
1095 28-06-2016 19:10:00 22.7 C 73 % 17.61 C
1096 28-06-2016 19:15:00 22.5 C 74 % 17.63 C
1097 28-06-2016 19:20:00 22.3 C 74 % 17.44 C
1098 28-06-2016 19:25:00 21.9 C 75 % 17.27 C
1099 28-06-2016 19:30:00 21.6 C 76 % 17.19 C
1100 28-06-2016 19:35:00 21.3 C 77 % 17.1 C
Sensor: Nr:Datum:Temp:Feuchte:Taupunkt:
Aussen-T/F 1101 28-06-2016 19:40:00 21.1 C 78 % 17.11 C
1102 28-06-2016 19:45:00 20.8 C 79 % 17.02 C
1103 28-06-2016 19:50:00 20.7 C 79 % 16.93 C
1104 28-06-2016 19:55:00 20.5 C 80 % 16.93 C
1105 28-06-2016 20:00:00 20.3 C 80 % 16.74 C
1106 28-06-2016 20:05:00 20.1 C 81 % 16.74 C
1107 28-06-2016 20:10:00 19.9 C 82 % 16.74 C
1108 28-06-2016 20:15:00 19.7 C 82 % 16.54 C
1109 28-06-2016 20:20:00 19.6 C 82 % 16.44 C
1110 28-06-2016 20:25:00 19.3 C 83 % 16.34 C
1111 28-06-2016 20:30:00 19.2 C 84 % 16.43 C
1112 28-06-2016 20:35:00 19.1 C 85 % 16.52 C
1113 28-06-2016 20:40:00 18.9 C 85 % 16.32 C
1114 28-06-2016 20:45:00 18.8 C 85 % 16.23 C
1115 28-06-2016 20:50:00 18.8 C 85 % 16.23 C
1116 28-06-2016 20:55:00 18.7 C 86 % 16.31 C
1117 28-06-2016 21:00:00 18.6 C 86 % 16.21 C
1118 28-06-2016 21:05:00 18.6 C 86 % 16.21 C
1119 28-06-2016 21:10:00 18.4 C 87 % 16.2 C
1120 28-06-2016 21:15:00 18.4 C 87 % 16.2 C
1121 28-06-2016 21:20:00 18.3 C 87 % 16.1 C
1122 28-06-2016 21:25:00 18.2 C 87 % 16 C
1123 28-06-2016 21:30:00 18.1 C 87 % 15.9 C
1124 28-06-2016 21:35:00 18 C 87 % 15.8 C
1125 28-06-2016 21:40:00 17.9 C 88 % 15.88 C
Sensor: Nr:Datum:Temp:Feuchte:Taupunkt:
Aussen-T/F 1126 28-06-2016 21:45:00 17.8 C 88 % 15.79 C
1127 28-06-2016 21:50:00 17.7 C 88 % 15.69 C
1128 28-06-2016 21:55:00 17.6 C 88 % 15.59 C
1129 28-06-2016 22:00:00 17.5 C 88 % 15.49 C
1130 28-06-2016 22:05:00 17.4 C 89 % 15.57 C
1131 28-06-2016 22:10:00 17.3 C 89 % 15.47 C
1132 28-06-2016 22:15:00 17.3 C 89 % 15.47 C
1133 28-06-2016 22:20:00 17.3 C 89 % 15.47 C
1134 28-06-2016 22:25:00 17.2 C 89 % 15.37 C
1135 28-06-2016 22:30:00 17.2 C 89 % 15.37 C
1136 28-06-2016 22:35:00 17.2 C 90 % 15.55 C
1137 28-06-2016 22:40:00 17.2 C 90 % 15.55 C
1138 28-06-2016 22:45:00 17.3 C 90 % 15.64 C
1139 28-06-2016 22:50:00 17.3 C 90 % 15.64 C
1140 28-06-2016 22:55:00 17.3 C 90 % 15.64 C
1141 28-06-2016 23:00:00 17.3 C 90 % 15.64 C
1142 28-06-2016 23:05:00 17.3 C 90 % 15.64 C
1143 28-06-2016 23:10:00 17.3 C 90 % 15.64 C
1144 28-06-2016 23:15:00 17.3 C 91 % 15.82 C
1145 28-06-2016 23:20:00 17.3 C 91 % 15.82 C
1146 28-06-2016 23:25:00 17.3 C 91 % 15.82 C
1147 28-06-2016 23:30:00 17.3 C 91 % 15.82 C
1148 28-06-2016 23:35:00 17.3 C 91 % 15.82 C
1149 28-06-2016 23:40:00 17.3 C 91 % 15.82 C
1150 28-06-2016 23:45:00 17.2 C 91 % 15.72 C
Sensor: Nr:Datum:Temp:Feuchte:Taupunkt:
Aussen-T/F 1151 28-06-2016 23:50:00 17.2 C 91 % 15.72 C
1152 28-06-2016 23:55:00 17.2 C 91 % 15.72 C
1153 29-06-2016 00:00:00 17.1 C 92 % 15.79 C
1154 29-06-2016 00:05:00 17.1 C 91 % 15.62 C
1155 29-06-2016 00:10:00 17.1 C 91 % 15.62 C
1156 29-06-2016 00:15:00 17 C 92 % 15.69 C
1157 29-06-2016 00:20:00 17 C 91 % 15.52 C
1158 29-06-2016 00:25:00 16.9 C 91 % 15.42 C
1159 29-06-2016 00:30:00 16.9 C 91 % 15.42 C
1160 29-06-2016 00:35:00 17 C 91 % 15.52 C
1161 29-06-2016 00:40:00 17 C 91 % 15.52 C
1162 29-06-2016 00:45:00 17.1 C 91 % 15.62 C
1163 29-06-2016 00:50:00 17.1 C 91 % 15.62 C
1164 29-06-2016 00:55:00 17.1 C 91 % 15.62 C
1165 29-06-2016 01:00:00 17.1 C 91 % 15.62 C
1166 29-06-2016 01:05:00 17.1 C 91 % 15.62 C
1167 29-06-2016 01:10:00 17.1 C 91 % 15.62 C
1168 29-06-2016 01:15:00 17 C 91 % 15.52 C
1169 29-06-2016 01:20:00 17 C 91 % 15.52 C
1170 29-06-2016 01:25:00 17 C 90 % 15.35 C
1171 29-06-2016 01:30:00 17 C 90 % 15.35 C
1172 29-06-2016 01:35:00 17.1 C 90 % 15.45 C
1173 29-06-2016 01:40:00 17.1 C 91 % 15.62 C
1174 29-06-2016 01:45:00 17.2 C 91 % 15.72 C
1175 29-06-2016 01:50:00 17.2 C 91 % 15.72 C
Sensor: Nr:Datum:Temp:Feuchte:Taupunkt:
Aussen-T/F 1176 29-06-2016 01:55:00 17.1 C 91 % 15.62 C
1177 29-06-2016 02:00:00 17.1 C 91 % 15.62 C
1178 29-06-2016 02:05:00 17.1 C 91 % 15.62 C
1179 29-06-2016 02:10:00 17 C 91 % 15.52 C
1180 29-06-2016 02:15:00 16.9 C 91 % 15.42 C
1181 29-06-2016 02:20:00 16.9 C 91 % 15.42 C
1182 29-06-2016 02:25:00 16.9 C 91 % 15.42 C
1183 29-06-2016 02:30:00 16.8 C 92 % 15.49 C
1184 29-06-2016 02:35:00 16.8 C 92 % 15.49 C
1185 29-06-2016 02:40:00 16.8 C 92 % 15.49 C
1186 29-06-2016 02:45:00 16.7 C 91 % 15.22 C
1187 29-06-2016 02:50:00 16.7 C 92 % 15.39 C
1188 29-06-2016 02:55:00 16.7 C 92 % 15.39 C
1189 29-06-2016 03:00:00 16.7 C 92 % 15.39 C
1190 29-06-2016 03:05:00 16.7 C 92 % 15.39 C
1191 29-06-2016 03:10:00 16.7 C 92 % 15.39 C
1192 29-06-2016 03:15:00 16.7 C 92 % 15.39 C
1193 29-06-2016 03:20:00 16.6 C 92 % 15.3 C
1194 29-06-2016 03:25:00 16.6 C 92 % 15.3 C
1195 29-06-2016 03:30:00 16.7 C 92 % 15.39 C
1196 29-06-2016 03:35:00 16.7 C 92 % 15.39 C
1197 29-06-2016 03:40:00 16.7 C 92 % 15.39 C
1198 29-06-2016 03:45:00 16.8 C 92 % 15.49 C
1199 29-06-2016 03:50:00 16.8 C 91 % 15.32 C
1200 29-06-2016 03:55:00 16.8 C 91 % 15.32 C
Sensor: Nr:Datum:Temp:Feuchte:Taupunkt:
Aussen-T/F 1201 29-06-2016 04:00:00 16.9 C 91 % 15.42 C
1202 29-06-2016 04:05:00 16.9 C 91 % 15.42 C
1203 29-06-2016 04:10:00 16.9 C 91 % 15.42 C
1204 29-06-2016 04:15:00 16.9 C 90 % 15.25 C
1205 29-06-2016 04:20:00 16.8 C 90 % 15.15 C
1206 29-06-2016 04:25:00 16.8 C 91 % 15.32 C
1207 29-06-2016 04:30:00 16.8 C 91 % 15.32 C
1208 29-06-2016 04:35:00 16.8 C 91 % 15.32 C
1209 29-06-2016 04:40:00 16.8 C 91 % 15.32 C
1210 29-06-2016 04:45:00 16.8 C 91 % 15.32 C
1211 29-06-2016 04:50:00 16.8 C 91 % 15.32 C
1212 29-06-2016 04:55:00 16.9 C 91 % 15.42 C
1213 29-06-2016 05:00:00 16.9 C 91 % 15.42 C
1214 29-06-2016 05:05:00 17 C 90 % 15.35 C
1215 29-06-2016 05:10:00 17.1 C 90 % 15.45 C
1216 29-06-2016 05:15:00 17.1 C 90 % 15.45 C
1217 29-06-2016 05:20:00 17.1 C 90 % 15.45 C
1218 29-06-2016 05:25:00 17.1 C 90 % 15.45 C
1219 29-06-2016 05:30:00 17.1 C 89 % 15.27 C
1220 29-06-2016 05:35:00 17.2 C 89 % 15.37 C
1221 29-06-2016 05:40:00 17.1 C 88 % 15.1 C
1222 29-06-2016 05:45:00 17.1 C 88 % 15.1 C
1223 29-06-2016 05:50:00 17.1 C 88 % 15.1 C
1224 29-06-2016 05:55:00 17.1 C 88 % 15.1 C
1225 29-06-2016 06:00:00 17.2 C 88 % 15.2 C
Sensor: Nr:Datum:Temp:Feuchte:Taupunkt:
Aussen-T/F 1226 29-06-2016 06:05:00 17.2 C 88 % 15.2 C
1227 29-06-2016 06:10:00 17.4 C 87 % 15.21 C
1228 29-06-2016 06:15:00 17.4 C 86 % 15.03 C
1229 29-06-2016 06:20:00 17.5 C 86 % 15.13 C
1230 29-06-2016 06:25:00 17.5 C 85 % 14.95 C
1231 29-06-2016 06:30:00 17.5 C 84 % 14.77 C
1232 29-06-2016 06:35:00 17.6 C 84 % 14.87 C
1233 29-06-2016 06:40:00 17.6 C 85 % 15.05 C
1234 29-06-2016 06:45:00 17.7 C 85 % 15.15 C
1235 29-06-2016 06:50:00 17.7 C 84 % 14.96 C
1236 29-06-2016 06:55:00 17.7 C 84 % 14.96 C
1237 29-06-2016 07:00:00 17.7 C 83 % 14.78 C
1238 29-06-2016 07:05:00 17.7 C 84 % 14.96 C
1239 29-06-2016 07:10:00 17.7 C 84 % 14.96 C
1240 29-06-2016 07:15:00 17.8 C 84 % 15.06 C
1241 29-06-2016 07:20:00 17.8 C 84 % 15.06 C
1242 29-06-2016 07:25:00 17.8 C 84 % 15.06 C
1243 29-06-2016 07:30:00 17.8 C 84 % 15.06 C
1244 29-06-2016 07:35:00 17.9 C 83 % 14.97 C
1245 29-06-2016 07:40:00 17.9 C 83 % 14.97 C
1246 29-06-2016 07:45:00 18.1 C 84 % 15.35 C
1247 29-06-2016 07:50:00 18.1 C 83 % 15.17 C
1248 29-06-2016 07:55:00 17.9 C 83 % 14.97 C
1249 29-06-2016 08:00:00 17.9 C 83 % 14.97 C
1250 29-06-2016 08:05:00 17.9 C 83 % 14.97 C
Sensor: Nr:Datum:Temp:Feuchte:Taupunkt:
Aussen-T/F 1251 29-06-2016 08:10:00 17.9 C 83 % 14.97 C
1252 29-06-2016 08:15:00 18.1 C 84 % 15.35 C
1253 29-06-2016 08:20:00 18.1 C 84 % 15.35 C
1254 29-06-2016 08:25:00 18.2 C 83 % 15.27 C
1255 29-06-2016 08:30:00 18.4 C 80 % 14.89 C
1256 29-06-2016 08:35:00 18.6 C 81 % 15.28 C
1257 29-06-2016 08:40:00 18.6 C 80 % 15.08 C
1258 29-06-2016 08:45:00 18.7 C 78 % 14.79 C
1259 29-06-2016 08:50:00 18.8 C 79 % 15.08 C
1260 29-06-2016 08:55:00 18.7 C 75 % 14.18 C
1261 29-06-2016 09:00:00 18.6 C 75 % 14.08 C
1262 29-06-2016 09:05:00 18.6 C 75 % 14.08 C
1263 29-06-2016 09:10:00 18.8 C 74 % 14.07 C
1264 29-06-2016 09:15:00 18.8 C 73 % 13.86 C
1265 29-06-2016 09:20:00 18.8 C 72 % 13.65 C
1266 29-06-2016 09:25:00 19 C 74 % 14.26 C
1267 29-06-2016 09:30:00 19.2 C 74 % 14.46 C
1268 29-06-2016 09:35:00 19.4 C 74 % 14.65 C
1269 29-06-2016 09:40:00 19.6 C 72 % 14.42 C
1270 29-06-2016 09:45:00 19.5 C 69 % 13.66 C
1271 29-06-2016 09:50:00 19.4 C 68 % 13.34 C
1272 29-06-2016 09:55:00 19.3 C 68 % 13.25 C
1273 29-06-2016 10:00:00 19.2 C 70 % 13.6 C
1274 29-06-2016 10:05:00 19.2 C 69 % 13.38 C
1275 29-06-2016 10:10:00 19.2 C 70 % 13.6 C
Sensor: Nr:Datum:Temp:Feuchte:Taupunkt:
Aussen-T/F 1276 29-06-2016 10:15:00 19.2 C 65 % 12.47 C
1277 29-06-2016 10:20:00 19.3 C 67 % 13.02 C
1278 29-06-2016 10:25:00 19.6 C 65 % 12.84 C
1279 29-06-2016 10:30:00 19.8 C 67 % 13.5 C
1280 29-06-2016 10:35:00 19.9 C 67 % 13.59 C
1281 29-06-2016 10:40:00 19.8 C 69 % 13.95 C
1282 29-06-2016 10:45:00 19.8 C 69 % 13.95 C
1283 29-06-2016 10:50:00 19.9 C 72 % 14.7 C
1284 29-06-2016 10:55:00 20 C 68 % 13.92 C
1285 29-06-2016 11:00:00 20.1 C 68 % 14.01 C
1286 29-06-2016 11:05:00 20.1 C 67 % 13.78 C
1287 29-06-2016 11:10:00 20.1 C 65 % 13.32 C
1288 29-06-2016 11:15:00 20.1 C 65 % 13.32 C
1289 29-06-2016 11:20:00 20.1 C 63 % 12.84 C
1290 29-06-2016 11:25:00 20.2 C 64 % 13.18 C
1291 29-06-2016 11:30:00 20.3 C 61 % 12.54 C
1292 29-06-2016 11:35:00 20.2 C 56 % 11.15 C
1293 29-06-2016 11:40:00 20.2 C 54 % 10.6 C
1294 29-06-2016 11:45:00 20.2 C 60 % 12.19 C
1295 29-06-2016 11:50:00 20.2 C 63 % 12.94 C
1296 29-06-2016 11:55:00 20.2 C 60 % 12.19 C
1297 29-06-2016 12:00:00 20.1 C 62 % 12.6 C
1298 29-06-2016 12:05:00 20.1 C 65 % 13.32 C
1299 29-06-2016 12:10:00 20.1 C 59 % 11.84 C
1300 29-06-2016 12:15:00 20.1 C 60 % 12.1 C
Sensor: Nr:Datum:Temp:Feuchte:Taupunkt:
Aussen-T/F 1301 29-06-2016 12:20:00 20.1 C 58 % 11.58 C
1302 29-06-2016 12:25:00 20.1 C 58 % 11.58 C
1303 29-06-2016 12:30:00 20.2 C 59 % 11.94 C
1304 29-06-2016 12:35:00 20.2 C 60 % 12.19 C
1305 29-06-2016 12:40:00 20.4 C 61 % 12.63 C
1306 29-06-2016 12:45:00 20.5 C 60 % 12.47 C
1307 29-06-2016 12:50:00 20.7 C 65 % 13.89 C
1308 29-06-2016 12:55:00 20.7 C 58 % 12.15 C
1309 29-06-2016 13:00:00 20.7 C 59 % 12.41 C
1310 29-06-2016 13:05:00 20.6 C 58 % 12.05 C
1311 29-06-2016 13:10:00 20.6 C 58 % 12.05 C
1312 29-06-2016 13:15:00 20.6 C 58 % 12.05 C
1313 29-06-2016 13:20:00 20.7 C 56 % 11.61 C
1314 29-06-2016 13:25:00 20.7 C 56 % 11.61 C
1315 29-06-2016 13:30:00 20.6 C 54 % 10.97 C
1316 29-06-2016 13:35:00 20.6 C 51 % 10.12 C
1317 29-06-2016 13:40:00 20.7 C 56 % 11.61 C
1318 29-06-2016 13:45:00 20.8 C 54 % 11.16 C
1319 29-06-2016 13:50:00 20.9 C 49 % 9.79 C
1320 29-06-2016 13:55:00 21.2 C 53 % 11.25 C
1321 29-06-2016 14:00:00 21.3 C 53 % 11.34 C
1322 29-06-2016 14:05:00 21.4 C 59 % 13.06 C
1323 29-06-2016 14:10:00 21.4 C 55 % 11.99 C
1324 29-06-2016 14:15:00 21.4 C 61 % 13.57 C
1325 29-06-2016 14:20:00 21.3 C 58 % 12.71 C
Sensor: Nr:Datum:Temp:Feuchte:Taupunkt:
Aussen-T/F 1326 29-06-2016 14:25:00 21.3 C 57 % 12.44 C
1327 29-06-2016 14:30:00 21.3 C 57 % 12.44 C
1328 29-06-2016 14:35:00 21.3 C 59 % 12.97 C
1329 29-06-2016 14:40:00 21.6 C 58 % 12.99 C
1330 29-06-2016 14:45:00 21.8 C 54 % 12.08 C
1331 29-06-2016 14:50:00 22.1 C 55 % 12.64 C
1332 29-06-2016 14:55:00 22.3 C 51 % 11.68 C
1333 29-06-2016 15:00:00 22.4 C 50 % 11.47 C
1334 29-06-2016 15:05:00 22.7 C 52 % 12.34 C
1335 29-06-2016 15:10:00 22.8 C 53 % 12.73 C
1336 29-06-2016 15:15:00 22.9 C 54 % 13.1 C
1337 29-06-2016 15:20:00 22.9 C 50 % 11.93 C
1338 29-06-2016 15:25:00 22.9 C 54 % 13.1 C
1339 29-06-2016 15:30:00 23.1 C 51 % 12.42 C
1340 29-06-2016 15:35:00 23.3 C 55 % 13.76 C
1341 29-06-2016 15:40:00 23.4 C 48 % 11.77 C
1342 29-06-2016 15:45:00 23.4 C 49 % 12.08 C
1343 29-06-2016 15:50:00 23.3 C 49 % 11.99 C
1344 29-06-2016 15:55:00 22.9 C 54 % 13.1 C
1345 29-06-2016 16:00:00 22.7 C 50 % 11.75 C
1346 29-06-2016 16:05:00 22.5 C 52 % 12.16 C
1347 29-06-2016 16:10:00 22.4 C 52 % 12.07 C
1348 29-06-2016 16:15:00 22.3 C 56 % 13.1 C
1349 29-06-2016 16:20:00 22.3 C 52 % 11.97 C
1350 29-06-2016 16:25:00 22.3 C 52 % 11.97 C
Sensor: Nr:Datum:Temp:Feuchte:Taupunkt:
Aussen-T/F 1351 29-06-2016 16:30:00 22.6 C 51 % 11.96 C
1352 29-06-2016 16:35:00 22.9 C 53 % 12.82 C
1353 29-06-2016 16:40:00 23.2 C 44 % 10.28 C
1354 29-06-2016 16:45:00 23.3 C 45 % 10.71 C
1355 29-06-2016 16:50:00 23.2 C 55 % 13.66 C
1356 29-06-2016 16:55:00 23.2 C 51 % 12.51 C
1357 29-06-2016 17:00:00 23.2 C 52 % 12.8 C
1358 29-06-2016 17:05:00 23.2 C 55 % 13.66 C
1359 29-06-2016 17:10:00 23.1 C 53 % 13 C
1360 29-06-2016 17:15:00 22.8 C 48 % 11.22 C
1361 29-06-2016 17:20:00 22.8 C 56 % 13.57 C
1362 29-06-2016 17:25:00 22.9 C 53 % 12.82 C
1363 29-06-2016 17:30:00 23.2 C 54 % 13.38 C
1364 29-06-2016 17:35:00 23.6 C 49 % 12.27 C
1365 29-06-2016 17:40:00 24.1 C 48 % 12.41 C
1366 29-06-2016 17:45:00 24.1 C 57 % 15.05 C
1367 29-06-2016 17:50:00 24.3 C 49 % 12.91 C
1368 29-06-2016 17:55:00 24.3 C 48 % 12.59 C
1369 29-06-2016 18:00:00 24.1 C 48 % 12.41 C
1370 29-06-2016 18:05:00 24.1 C 57 % 15.05 C
1371 29-06-2016 18:10:00 23.8 C 53 % 13.65 C
1372 29-06-2016 18:15:00 23.6 C 61 % 15.64 C
1373 29-06-2016 18:20:00 23.4 C 62 % 15.71 C
1374 29-06-2016 18:25:00 23.2 C 61 % 15.26 C
1375 29-06-2016 18:30:00 23 C 60 % 14.82 C
Sensor: Nr:Datum:Temp:Feuchte:Taupunkt:
Aussen-T/F 1376 29-06-2016 18:35:00 22.8 C 66 % 16.12 C
1377 29-06-2016 18:40:00 22.5 C 67 % 16.07 C
1378 29-06-2016 18:45:00 22.2 C 67 % 15.78 C
1379 29-06-2016 18:50:00 21.9 C 68 % 15.73 C
1380 29-06-2016 18:55:00 21.6 C 69 % 15.67 C
1381 29-06-2016 19:00:00 21.3 C 70 % 15.61 C
1382 29-06-2016 19:05:00 21.1 C 71 % 15.64 C
1383 29-06-2016 19:10:00 20.8 C 71 % 15.35 C
1384 29-06-2016 19:15:00 20.6 C 72 % 15.38 C
1385 29-06-2016 19:20:00 20.3 C 72 % 15.09 C
1386 29-06-2016 19:25:00 20.1 C 72 % 14.9 C
1387 29-06-2016 19:30:00 19.9 C 74 % 15.13 C
1388 29-06-2016 19:35:00 19.8 C 74 % 15.03 C
1389 29-06-2016 19:40:00 19.6 C 75 % 15.05 C
1390 29-06-2016 19:45:00 19.4 C 76 % 15.06 C
1391 29-06-2016 19:50:00 19.3 C 76 % 14.97 C
1392 29-06-2016 19:55:00 19.1 C 76 % 14.77 C
1393 29-06-2016 20:00:00 19 C 76 % 14.68 C
1394 29-06-2016 20:05:00 18.9 C 78 % 14.98 C
1395 29-06-2016 20:10:00 18.8 C 77 % 14.68 C
1396 29-06-2016 20:15:00 18.7 C 78 % 14.79 C
1397 29-06-2016 20:20:00 18.7 C 78 % 14.79 C
1398 29-06-2016 20:25:00 18.6 C 79 % 14.89 C
1399 29-06-2016 20:30:00 18.4 C 79 % 14.69 C
1400 29-06-2016 20:35:00 18.3 C 79 % 14.6 C
Sensor: Nr:Datum:Temp:Feuchte:Taupunkt:
Aussen-T/F 1401 29-06-2016 20:40:00 18.2 C 80 % 14.69 C
1402 29-06-2016 20:45:00 18.1 C 79 % 14.4 C
1403 29-06-2016 20:50:00 18 C 80 % 14.5 C
1404 29-06-2016 20:55:00 17.9 C 80 % 14.4 C
1405 29-06-2016 21:00:00 17.8 C 81 % 14.5 C
1406 29-06-2016 21:05:00 17.7 C 81 % 14.4 C
1407 29-06-2016 21:10:00 17.6 C 81 % 14.3 C
1408 29-06-2016 21:15:00 17.6 C 81 % 14.3 C
1409 29-06-2016 21:20:00 17.4 C 81 % 14.11 C
1410 29-06-2016 21:25:00 17.3 C 82 % 14.2 C
1411 29-06-2016 21:30:00 17.2 C 81 % 13.91 C
1412 29-06-2016 21:35:00 17.1 C 80 % 13.62 C
1413 29-06-2016 21:40:00 17 C 80 % 13.53 C
1414 29-06-2016 21:45:00 16.9 C 81 % 13.62 C
1415 29-06-2016 21:50:00 16.9 C 82 % 13.81 C
1416 29-06-2016 21:55:00 16.9 C 83 % 14 C
1417 29-06-2016 22:00:00 16.8 C 82 % 13.71 C
1418 29-06-2016 22:05:00 16.8 C 83 % 13.9 C
1419 29-06-2016 22:10:00 16.8 C 83 % 13.9 C
1420 29-06-2016 22:15:00 16.7 C 83 % 13.8 C
1421 29-06-2016 22:20:00 16.6 C 84 % 13.89 C
1422 29-06-2016 22:25:00 16.6 C 85 % 14.07 C
1423 29-06-2016 22:30:00 16.4 C 84 % 13.69 C
1424 29-06-2016 22:35:00 16.4 C 85 % 13.87 C
1425 29-06-2016 22:40:00 16.3 C 85 % 13.77 C
Sensor: Nr:Datum:Temp:Feuchte:Taupunkt:
Aussen-T/F 1426 29-06-2016 22:45:00 16.2 C 85 % 13.68 C
1427 29-06-2016 22:50:00 16.1 C 85 % 13.58 C
1428 29-06-2016 22:55:00 16.1 C 85 % 13.58 C
1429 29-06-2016 23:00:00 16 C 85 % 13.48 C
1430 29-06-2016 23:05:00 15.9 C 85 % 13.38 C
1431 29-06-2016 23:10:00 15.9 C 86 % 13.56 C
1432 29-06-2016 23:15:00 15.9 C 86 % 13.56 C
1433 29-06-2016 23:20:00 15.8 C 85 % 13.28 C
1434 29-06-2016 23:25:00 15.8 C 86 % 13.46 C
1435 29-06-2016 23:30:00 15.8 C 86 % 13.46 C
1436 29-06-2016 23:35:00 15.8 C 86 % 13.46 C
1437 29-06-2016 23:40:00 15.8 C 87 % 13.64 C
1438 29-06-2016 23:45:00 15.8 C 87 % 13.64 C
1439 29-06-2016 23:50:00 15.8 C 86 % 13.46 C
1440 29-06-2016 23:55:00 15.8 C 87 % 13.64 C
1441 30-06-2016 00:00:00 15.8 C 87 % 13.64 C
1442 30-06-2016 00:05:00 15.8 C 87 % 13.64 C
1443 30-06-2016 00:10:00 15.8 C 87 % 13.64 C
1444 30-06-2016 00:15:00 15.7 C 87 % 13.54 C
1445 30-06-2016 00:20:00 15.7 C 87 % 13.54 C
1446 30-06-2016 00:25:00 15.7 C 87 % 13.54 C
1447 30-06-2016 00:30:00 15.7 C 87 % 13.54 C
1448 30-06-2016 00:35:00 15.6 C 87 % 13.45 C
1449 30-06-2016 00:40:00 15.6 C 87 % 13.45 C
1450 30-06-2016 00:45:00 15.6 C 88 % 13.62 C
Sensor: Nr:Datum:Temp:Feuchte:Taupunkt:
Aussen-T/F 1451 30-06-2016 00:50:00 15.6 C 88 % 13.62 C
1452 30-06-2016 00:55:00 15.6 C 88 % 13.62 C
1453 30-06-2016 01:00:00 15.6 C 88 % 13.62 C
1454 30-06-2016 01:05:00 15.5 C 88 % 13.52 C
1455 30-06-2016 01:10:00 15.5 C 88 % 13.52 C
1456 30-06-2016 01:15:00 15.5 C 88 % 13.52 C
1457 30-06-2016 01:20:00 15.6 C 88 % 13.62 C
1458 30-06-2016 01:25:00 15.6 C 89 % 13.79 C
1459 30-06-2016 01:30:00 15.6 C 88 % 13.62 C
1460 30-06-2016 01:35:00 15.6 C 88 % 13.62 C
1461 30-06-2016 01:40:00 15.6 C 89 % 13.79 C
1462 30-06-2016 01:45:00 15.6 C 89 % 13.79 C
1463 30-06-2016 01:50:00 15.6 C 88 % 13.62 C
1464 30-06-2016 01:55:00 15.6 C 88 % 13.62 C
1465 30-06-2016 02:00:00 15.7 C 89 % 13.89 C
1466 30-06-2016 02:05:00 15.7 C 89 % 13.89 C
1467 30-06-2016 02:10:00 15.7 C 89 % 13.89 C
1468 30-06-2016 02:15:00 15.7 C 89 % 13.89 C
1469 30-06-2016 02:20:00 15.7 C 88 % 13.72 C
1470 30-06-2016 02:25:00 15.7 C 88 % 13.72 C
1471 30-06-2016 02:30:00 15.7 C 88 % 13.72 C
1472 30-06-2016 02:35:00 15.8 C 88 % 13.82 C
1473 30-06-2016 02:40:00 15.7 C 88 % 13.72 C
1474 30-06-2016 02:45:00 15.7 C 87 % 13.54 C
1475 30-06-2016 02:50:00 15.8 C 87 % 13.64 C
Sensor: Nr:Datum:Temp:Feuchte:Taupunkt:
Aussen-T/F 1476 30-06-2016 02:55:00 15.8 C 87 % 13.64 C
1477 30-06-2016 03:00:00 15.8 C 87 % 13.64 C
1478 30-06-2016 03:05:00 15.8 C 88 % 13.82 C
1479 30-06-2016 03:10:00 15.9 C 88 % 13.92 C
1480 30-06-2016 03:15:00 15.8 C 87 % 13.64 C
1481 30-06-2016 03:20:00 15.9 C 88 % 13.92 C
1482 30-06-2016 03:25:00 15.9 C 88 % 13.92 C
1483 30-06-2016 03:30:00 15.9 C 88 % 13.92 C
1484 30-06-2016 03:35:00 15.9 C 88 % 13.92 C
1485 30-06-2016 03:40:00 15.9 C 88 % 13.92 C
1486 30-06-2016 03:45:00 15.9 C 88 % 13.92 C
1487 30-06-2016 03:50:00 15.9 C 88 % 13.92 C
1488 30-06-2016 03:55:00 15.9 C 88 % 13.92 C
1489 30-06-2016 04:00:00 15.9 C 87 % 13.74 C
1490 30-06-2016 04:05:00 15.9 C 88 % 13.92 C
1491 30-06-2016 04:10:00 15.9 C 88 % 13.92 C
1492 30-06-2016 04:15:00 15.9 C 88 % 13.92 C
1493 30-06-2016 04:20:00 15.9 C 88 % 13.92 C
1494 30-06-2016 04:25:00 15.9 C 88 % 13.92 C
1495 30-06-2016 04:30:00 15.9 C 88 % 13.92 C
1496 30-06-2016 04:35:00 15.9 C 88 % 13.92 C
1497 30-06-2016 04:40:00 15.9 C 88 % 13.92 C
1498 30-06-2016 04:45:00 15.9 C 88 % 13.92 C
1499 30-06-2016 04:50:00 15.9 C 88 % 13.92 C
1500 30-06-2016 04:55:00 15.9 C 88 % 13.92 C
Sensor: Nr:Datum:Temp:Feuchte:Taupunkt:
Aussen-T/F 1501 30-06-2016 05:00:00 15.9 C 89 % 14.09 C
1502 30-06-2016 05:05:00 15.9 C 89 % 14.09 C
1503 30-06-2016 05:10:00 15.9 C 89 % 14.09 C
1504 30-06-2016 05:15:00 15.9 C 89 % 14.09 C
1505 30-06-2016 05:20:00 15.9 C 89 % 14.09 C
1506 30-06-2016 05:25:00 15.9 C 90 % 14.26 C
1507 30-06-2016 05:30:00 15.8 C 90 % 14.16 C
1508 30-06-2016 05:35:00 15.8 C 90 % 14.16 C
1509 30-06-2016 05:40:00 15.8 C 90 % 14.16 C
1510 30-06-2016 05:45:00 15.8 C 90 % 14.16 C
1511 30-06-2016 05:50:00 15.8 C 90 % 14.16 C
1512 30-06-2016 05:55:00 15.8 C 90 % 14.16 C
1513 30-06-2016 06:00:00 15.8 C 91 % 14.33 C
1514 30-06-2016 06:05:00 15.8 C 91 % 14.33 C
1515 30-06-2016 06:10:00 15.8 C 91 % 14.33 C
1516 30-06-2016 06:15:00 15.9 C 91 % 14.43 C
1517 30-06-2016 06:20:00 15.9 C 91 % 14.43 C
1518 30-06-2016 06:25:00 15.9 C 91 % 14.43 C
1519 30-06-2016 06:30:00 15.9 C 91 % 14.43 C
1520 30-06-2016 06:35:00 15.9 C 91 % 14.43 C
1521 30-06-2016 06:40:00 15.9 C 91 % 14.43 C
1522 30-06-2016 06:45:00 15.9 C 91 % 14.43 C
1523 30-06-2016 06:50:00 15.9 C 92 % 14.6 C
1524 30-06-2016 06:55:00 16 C 92 % 14.7 C
1525 30-06-2016 07:00:00 16 C 92 % 14.7 C
Sensor: Nr:Datum:Temp:Feuchte:Taupunkt:
Aussen-T/F 1526 30-06-2016 07:05:00 16.1 C 92 % 14.8 C
1527 30-06-2016 07:10:00 16.1 C 92 % 14.8 C
1528 30-06-2016 07:15:00 16.2 C 93 % 15.07 C
1529 30-06-2016 07:20:00 16.2 C 93 % 15.07 C
1530 30-06-2016 07:25:00 16.3 C 93 % 15.17 C
1531 30-06-2016 07:30:00 16.3 C 93 % 15.17 C
1532 30-06-2016 07:35:00 16.4 C 93 % 15.27 C
1533 30-06-2016 07:40:00 16.5 C 93 % 15.36 C
1534 30-06-2016 07:45:00 16.6 C 93 % 15.46 C
1535 30-06-2016 07:50:00 16.7 C 92 % 15.39 C
1536 30-06-2016 07:55:00 16.7 C 92 % 15.39 C
1537 30-06-2016 08:00:00 16.8 C 92 % 15.49 C
1538 30-06-2016 08:05:00 16.9 C 92 % 15.59 C
1539 30-06-2016 08:10:00 17 C 92 % 15.69 C
1540 30-06-2016 08:15:00 17.1 C 92 % 15.79 C
1541 30-06-2016 08:20:00 17.2 C 91 % 15.72 C
1542 30-06-2016 08:25:00 17.3 C 91 % 15.82 C
1543 30-06-2016 08:30:00 17.3 C 89 % 15.47 C
1544 30-06-2016 08:35:00 17.4 C 89 % 15.57 C
1545 30-06-2016 08:40:00 17.6 C 88 % 15.59 C
1546 30-06-2016 08:45:00 17.7 C 88 % 15.69 C
1547 30-06-2016 08:50:00 17.7 C 86 % 15.33 C
1548 30-06-2016 08:55:00 17.7 C 86 % 15.33 C
1549 30-06-2016 09:00:00 17.8 C 85 % 15.25 C
1550 30-06-2016 09:05:00 17.9 C 84 % 15.16 C
Sensor: Nr:Datum:Temp:Feuchte:Taupunkt:
Aussen-T/F 1551 30-06-2016 09:10:00 18 C 84 % 15.26 C
1552 30-06-2016 09:15:00 18.2 C 83 % 15.27 C
1553 30-06-2016 09:20:00 18.3 C 82 % 15.17 C
1554 30-06-2016 09:25:00 18.4 C 80 % 14.89 C
1555 30-06-2016 09:30:00 18.5 C 81 % 15.18 C
1556 30-06-2016 09:35:00 18.6 C 80 % 15.08 C
1557 30-06-2016 09:40:00 18.7 C 79 % 14.99 C
1558 30-06-2016 09:45:00 18.7 C 78 % 14.79 C
1559 30-06-2016 09:50:00 18.8 C 79 % 15.08 C
1560 30-06-2016 09:55:00 18.9 C 78 % 14.98 C
1561 30-06-2016 10:00:00 19 C 75 % 14.47 C
1562 30-06-2016 10:05:00 19 C 75 % 14.47 C
1563 30-06-2016 10:10:00 19.1 C 75 % 14.57 C
1564 30-06-2016 10:15:00 19.2 C 76 % 14.87 C
1565 30-06-2016 10:20:00 19.3 C 76 % 14.97 C
1566 30-06-2016 10:25:00 19.4 C 74 % 14.65 C
1567 30-06-2016 10:30:00 19.6 C 75 % 15.05 C
1568 30-06-2016 10:35:00 19.6 C 75 % 15.05 C
1569 30-06-2016 10:40:00 19.6 C 74 % 14.84 C
1570 30-06-2016 10:45:00 19.7 C 75 % 15.15 C
1571 30-06-2016 10:50:00 19.9 C 73 % 14.92 C
1572 30-06-2016 10:55:00 20 C 73 % 15.01 C
1573 30-06-2016 11:00:00 20.1 C 72 % 14.9 C
1574 30-06-2016 11:05:00 20.3 C 74 % 15.51 C
1575 30-06-2016 11:10:00 20.4 C 72 % 15.18 C
Sensor: Nr:Datum:Temp:Feuchte:Taupunkt:
Aussen-T/F 1576 30-06-2016 11:15:00 20.4 C 71 % 14.97 C
1577 30-06-2016 11:20:00 20.4 C 70 % 14.75 C
1578 30-06-2016 11:25:00 20.3 C 73 % 15.3 C
1579 30-06-2016 11:30:00 20.4 C 70 % 14.75 C
1580 30-06-2016 11:35:00 20.5 C 70 % 14.84 C
1581 30-06-2016 11:40:00 20.7 C 70 % 15.03 C
1582 30-06-2016 11:45:00 20.7 C 68 % 14.58 C
1583 30-06-2016 11:50:00 20.6 C 70 % 14.94 C
1584 30-06-2016 11:55:00 20.7 C 70 % 15.03 C
1585 30-06-2016 12:00:00 20.7 C 73 % 15.69 C
1586 30-06-2016 12:05:00 20.8 C 73 % 15.78 C
1587 30-06-2016 12:10:00 21.1 C 74 % 16.29 C
1588 30-06-2016 12:15:00 21.1 C 70 % 15.42 C
1589 30-06-2016 12:20:00 21.1 C 70 % 15.42 C
1590 30-06-2016 12:25:00 21.1 C 71 % 15.64 C
1591 30-06-2016 12:30:00 21.1 C 72 % 15.86 C
1592 30-06-2016 12:35:00 21.1 C 69 % 15.19 C
1593 30-06-2016 12:40:00 21.3 C 72 % 16.05 C
1594 30-06-2016 12:45:00 21.5 C 68 % 15.35 C
1595 30-06-2016 12:50:00 21.6 C 69 % 15.67 C
1596 30-06-2016 12:55:00 21.6 C 68 % 15.44 C
1597 30-06-2016 13:00:00 21.4 C 69 % 15.48 C
1598 30-06-2016 13:05:00 21.3 C 72 % 16.05 C
1599 30-06-2016 13:10:00 21.3 C 69 % 15.38 C
1600 30-06-2016 13:15:00 21.4 C 69 % 15.48 C
Sensor: Nr:Datum:Temp:Feuchte:Taupunkt:
Aussen-T/F 1601 30-06-2016 13:20:00 21.5 C 69 % 15.57 C
1602 30-06-2016 13:25:00 21.5 C 69 % 15.57 C
1603 30-06-2016 13:30:00 21.6 C 69 % 15.67 C
1604 30-06-2016 13:35:00 21.6 C 69 % 15.67 C
1605 30-06-2016 13:40:00 21.4 C 68 % 15.25 C
1606 30-06-2016 13:45:00 21.1 C 69 % 15.19 C
1607 30-06-2016 13:50:00 20.8 C 71 % 15.35 C
1608 30-06-2016 13:55:00 20.8 C 72 % 15.57 C
1609 30-06-2016 14:00:00 20.7 C 72 % 15.47 C
1610 30-06-2016 14:05:00 20.7 C 73 % 15.69 C
1611 30-06-2016 14:10:00 20.7 C 77 % 16.52 C
1612 30-06-2016 14:15:00 20.7 C 74 % 15.9 C
1613 30-06-2016 14:20:00 20.9 C 74 % 16.09 C
1614 30-06-2016 14:25:00 21.2 C 72 % 15.95 C
1615 30-06-2016 14:30:00 21.5 C 73 % 16.46 C
1616 30-06-2016 14:35:00 21.6 C 73 % 16.55 C
1617 30-06-2016 14:40:00 21.6 C 69 % 15.67 C
1618 30-06-2016 14:45:00 21.7 C 70 % 15.99 C
1619 30-06-2016 14:50:00 21.9 C 71 % 16.4 C
1620 30-06-2016 14:55:00 22 C 72 % 16.72 C
1621 30-06-2016 15:00:00 21.9 C 71 % 16.4 C
1622 30-06-2016 15:05:00 22 C 69 % 16.05 C
1623 30-06-2016 15:10:00 22.2 C 69 % 16.24 C
1624 30-06-2016 15:15:00 22.3 C 67 % 15.88 C
1625 30-06-2016 15:20:00 22.3 C 65 % 15.4 C
Sensor: Nr:Datum:Temp:Feuchte:Taupunkt:
Aussen-T/F 1626 30-06-2016 15:25:00 22.2 C 71 % 16.69 C
1627 30-06-2016 15:30:00 22 C 69 % 16.05 C
1628 30-06-2016 15:35:00 21.9 C 70 % 16.18 C
1629 30-06-2016 15:40:00 21.8 C 68 % 15.63 C
1630 30-06-2016 15:45:00 21.8 C 71 % 16.31 C
1631 30-06-2016 15:50:00 21.9 C 68 % 15.73 C
1632 30-06-2016 15:55:00 21.8 C 69 % 15.86 C
1633 30-06-2016 16:00:00 21.8 C 74 % 16.96 C
1634 30-06-2016 16:05:00 21.7 C 70 % 15.99 C
1635 30-06-2016 16:10:00 21.6 C 74 % 16.77 C
1636 30-06-2016 16:15:00 21.7 C 72 % 16.43 C
1637 30-06-2016 16:20:00 21.7 C 70 % 15.99 C
1638 30-06-2016 16:25:00 21.8 C 72 % 16.53 C
1639 30-06-2016 16:30:00 21.7 C 72 % 16.43 C
1640 30-06-2016 16:35:00 21.6 C 73 % 16.55 C
1641 30-06-2016 16:40:00 21.6 C 72 % 16.34 C
1642 30-06-2016 16:45:00 21.6 C 71 % 16.12 C
1643 30-06-2016 16:50:00 21.6 C 70 % 15.89 C
1644 30-06-2016 16:55:00 21.6 C 70 % 15.89 C
1645 30-06-2016 17:00:00 21.6 C 73 % 16.55 C
1646 30-06-2016 17:05:00 21.5 C 72 % 16.24 C
1647 30-06-2016 17:10:00 21.7 C 72 % 16.43 C
1648 30-06-2016 17:15:00 22.1 C 71 % 16.6 C
1649 30-06-2016 17:20:00 22.4 C 69 % 16.43 C
1650 30-06-2016 17:25:00 22.9 C 69 % 16.91 C
Sensor: Nr:Datum:Temp:Feuchte:Taupunkt:
Aussen-T/F 1651 30-06-2016 17:30:00 23.4 C 66 % 16.69 C
1652 30-06-2016 17:35:00 23.4 C 67 % 16.92 C
1653 30-06-2016 17:40:00 23.2 C 67 % 16.73 C
1654 30-06-2016 17:45:00 22.8 C 67 % 16.35 C
1655 30-06-2016 17:50:00 22.5 C 68 % 16.3 C
1656 30-06-2016 17:55:00 22.2 C 69 % 16.24 C
1657 30-06-2016 18:00:00 22.1 C 71 % 16.6 C
1658 30-06-2016 18:05:00 22.1 C 72 % 16.82 C
1659 30-06-2016 18:10:00 22.1 C 71 % 16.6 C
1660 30-06-2016 18:15:00 22.1 C 69 % 16.15 C
1661 30-06-2016 18:20:00 22 C 68 % 15.82 C
1662 30-06-2016 18:25:00 21.9 C 68 % 15.73 C
1663 30-06-2016 18:30:00 21.8 C 68 % 15.63 C
1664 30-06-2016 18:35:00 21.7 C 71 % 16.21 C
1665 30-06-2016 18:40:00 21.8 C 73 % 16.75 C
1666 30-06-2016 18:45:00 21.9 C 72 % 16.62 C
1667 30-06-2016 18:50:00 22.1 C 71 % 16.6 C
1668 30-06-2016 18:55:00 22.1 C 72 % 16.82 C
1669 30-06-2016 19:00:00 22.1 C 69 % 16.15 C
1670 30-06-2016 19:05:00 22 C 75 % 17.36 C
1671 30-06-2016 19:10:00 21.9 C 75 % 17.27 C
1672 30-06-2016 19:15:00 21.8 C 76 % 17.38 C
1673 30-06-2016 19:20:00 21.7 C 77 % 17.49 C
1674 30-06-2016 19:25:00 21.7 C 79 % 17.9 C
1675 30-06-2016 19:30:00 21.6 C 77 % 17.39 C
Sensor: Nr:Datum:Temp:Feuchte:Taupunkt:
Aussen-T/F 1676 30-06-2016 19:35:00 21.6 C 78 % 17.6 C
1677 30-06-2016 19:40:00 21.5 C 79 % 17.7 C
1678 30-06-2016 19:45:00 21.3 C 79 % 17.51 C
1679 30-06-2016 19:50:00 21.1 C 78 % 17.11 C
1680 30-06-2016 19:55:00 20.9 C 79 % 17.12 C
1681 30-06-2016 20:00:00 20.7 C 80 % 17.13 C
1682 30-06-2016 20:05:00 20.6 C 80 % 17.03 C
1683 30-06-2016 20:10:00 20.6 C 80 % 17.03 C
1684 30-06-2016 20:15:00 20.4 C 78 % 16.44 C
1685 30-06-2016 20:20:00 20.4 C 80 % 16.83 C
1686 30-06-2016 20:25:00 20.3 C 80 % 16.74 C
1687 30-06-2016 20:30:00 20.3 C 80 % 16.74 C
1688 30-06-2016 20:35:00 20.4 C 80 % 16.83 C
1689 30-06-2016 20:40:00 20.4 C 81 % 17.03 C
1690 30-06-2016 20:45:00 20.3 C 80 % 16.74 C
1691 30-06-2016 20:50:00 20.3 C 80 % 16.74 C
1692 30-06-2016 20:55:00 20.2 C 80 % 16.64 C
1693 30-06-2016 21:00:00 20 C 82 % 16.83 C
1694 30-06-2016 21:05:00 19.8 C 82 % 16.64 C
1695 30-06-2016 21:10:00 19.6 C 82 % 16.44 C
1696 30-06-2016 21:15:00 19.4 C 82 % 16.25 C
1697 30-06-2016 21:20:00 19.2 C 83 % 16.24 C
1698 30-06-2016 21:25:00 19.1 C 84 % 16.33 C
1699 30-06-2016 21:30:00 18.9 C 84 % 16.14 C
1700 30-06-2016 21:35:00 18.8 C 85 % 16.23 C
Sensor: Nr:Datum:Temp:Feuchte:Taupunkt:
Aussen-T/F 1701 30-06-2016 21:40:00 18.8 C 85 % 16.23 C
1702 30-06-2016 21:45:00 18.7 C 85 % 16.13 C
1703 30-06-2016 21:50:00 18.7 C 85 % 16.13 C
1704 30-06-2016 21:55:00 18.6 C 86 % 16.21 C
1705 30-06-2016 22:00:00 18.6 C 86 % 16.21 C
1706 30-06-2016 22:05:00 18.4 C 86 % 16.02 C
1707 30-06-2016 22:10:00 18.3 C 86 % 15.92 C
1708 30-06-2016 22:15:00 18.2 C 86 % 15.82 C
1709 30-06-2016 22:20:00 18.1 C 86 % 15.72 C
1710 30-06-2016 22:25:00 17.9 C 87 % 15.71 C
1711 30-06-2016 22:30:00 17.8 C 87 % 15.61 C
1712 30-06-2016 22:35:00 17.6 C 88 % 15.59 C
1713 30-06-2016 22:40:00 17.5 C 88 % 15.49 C
1714 30-06-2016 22:45:00 17.3 C 88 % 15.29 C
1715 30-06-2016 22:50:00 17.2 C 89 % 15.37 C
1716 30-06-2016 22:55:00 17.2 C 89 % 15.37 C
1717 30-06-2016 23:00:00 17.1 C 89 % 15.27 C
1718 30-06-2016 23:05:00 16.9 C 89 % 15.08 C
1719 30-06-2016 23:10:00 16.9 C 89 % 15.08 C
1720 30-06-2016 23:15:00 16.9 C 90 % 15.25 C
1721 30-06-2016 23:20:00 16.8 C 90 % 15.15 C
1722 30-06-2016 23:25:00 16.8 C 90 % 15.15 C
1723 30-06-2016 23:30:00 16.8 C 91 % 15.32 C
1724 30-06-2016 23:35:00 16.8 C 91 % 15.32 C
1725 30-06-2016 23:40:00 16.8 C 91 % 15.32 C
Sensor: Nr:Datum:Temp:Feuchte:Taupunkt:
Aussen-T/F 1726 30-06-2016 23:45:00 16.8 C 91 % 15.32 C
1727 30-06-2016 23:50:00 16.8 C 91 % 15.32 C
1728 30-06-2016 23:55:00 16.8 C 91 % 15.32 C
1729 01-07-2016 00:00:00 16.8 C 91 % 15.32 C
1730 01-07-2016 00:05:00 16.8 C 91 % 15.32 C
1731 01-07-2016 00:10:00 16.8 C 92 % 15.49 C
1732 01-07-2016 00:15:00 16.9 C 92 % 15.59 C
1733 01-07-2016 00:20:00 16.9 C 92 % 15.59 C
1734 01-07-2016 00:25:00 16.9 C 92 % 15.59 C
1735 01-07-2016 00:30:00 16.9 C 92 % 15.59 C
1736 01-07-2016 00:35:00 16.9 C 92 % 15.59 C
1737 01-07-2016 00:40:00 16.8 C 92 % 15.49 C
1738 01-07-2016 00:45:00 16.8 C 92 % 15.49 C
1739 01-07-2016 00:50:00 16.7 C 91 % 15.22 C
1740 01-07-2016 00:55:00 16.7 C 92 % 15.39 C
1741 01-07-2016 01:00:00 16.8 C 92 % 15.49 C
1742 01-07-2016 01:05:00 16.8 C 92 % 15.49 C
1743 01-07-2016 01:10:00 16.8 C 92 % 15.49 C
1744 01-07-2016 01:15:00 16.8 C 92 % 15.49 C
1745 01-07-2016 01:20:00 16.9 C 92 % 15.59 C
1746 01-07-2016 01:25:00 16.9 C 92 % 15.59 C
1747 01-07-2016 01:30:00 16.9 C 92 % 15.59 C
1748 01-07-2016 01:35:00 16.9 C 92 % 15.59 C
1749 01-07-2016 01:40:00 16.9 C 92 % 15.59 C
1750 01-07-2016 01:45:00 16.9 C 92 % 15.59 C
Sensor: Nr:Datum:Temp:Feuchte:Taupunkt:
Aussen-T/F 1751 01-07-2016 01:50:00 16.9 C 92 % 15.59 C
1752 01-07-2016 01:55:00 16.9 C 92 % 15.59 C
1753 01-07-2016 02:00:00 16.9 C 92 % 15.59 C
1754 01-07-2016 02:05:00 16.9 C 92 % 15.59 C
1755 01-07-2016 02:10:00 16.9 C 92 % 15.59 C
1756 01-07-2016 02:15:00 17 C 92 % 15.69 C
1757 01-07-2016 02:20:00 17 C 92 % 15.69 C
1758 01-07-2016 02:25:00 17 C 92 % 15.69 C
1759 01-07-2016 02:30:00 17.1 C 92 % 15.79 C
1760 01-07-2016 02:35:00 17.1 C 92 % 15.79 C
1761 01-07-2016 02:40:00 17 C 92 % 15.69 C
1762 01-07-2016 02:45:00 17 C 92 % 15.69 C
1763 01-07-2016 02:50:00 17 C 92 % 15.69 C
1764 01-07-2016 02:55:00 16.9 C 92 % 15.59 C
1765 01-07-2016 03:00:00 16.9 C 92 % 15.59 C
1766 01-07-2016 03:05:00 16.9 C 92 % 15.59 C
1767 01-07-2016 03:10:00 16.8 C 92 % 15.49 C
1768 01-07-2016 03:15:00 16.8 C 92 % 15.49 C
1769 01-07-2016 03:20:00 16.7 C 92 % 15.39 C
1770 01-07-2016 03:25:00 16.6 C 92 % 15.3 C
1771 01-07-2016 03:30:00 16.6 C 92 % 15.3 C
1772 01-07-2016 03:35:00 16.5 C 92 % 15.2 C
1773 01-07-2016 03:40:00 16.5 C 93 % 15.36 C
1774 01-07-2016 03:45:00 16.5 C 93 % 15.36 C
1775 01-07-2016 03:50:00 16.5 C 93 % 15.36 C
Sensor: Nr:Datum:Temp:Feuchte:Taupunkt:
Aussen-T/F 1776 01-07-2016 03:55:00 16.6 C 93 % 15.46 C
1777 01-07-2016 04:00:00 16.6 C 93 % 15.46 C
1778 01-07-2016 04:05:00 16.6 C 93 % 15.46 C
1779 01-07-2016 04:10:00 16.6 C 93 % 15.46 C
1780 01-07-2016 04:15:00 16.6 C 93 % 15.46 C
1781 01-07-2016 04:20:00 16.5 C 93 % 15.36 C
1782 01-07-2016 04:25:00 16.5 C 93 % 15.36 C
1783 01-07-2016 04:30:00 16.5 C 93 % 15.36 C
1784 01-07-2016 04:35:00 16.6 C 93 % 15.46 C
1785 01-07-2016 04:40:00 16.6 C 93 % 15.46 C
1786 01-07-2016 04:45:00 16.5 C 93 % 15.36 C
1787 01-07-2016 04:50:00 16.5 C 93 % 15.36 C
1788 01-07-2016 04:55:00 16.5 C 94 % 15.53 C
1789 01-07-2016 05:00:00 16.6 C 94 % 15.63 C
1790 01-07-2016 05:05:00 16.6 C 94 % 15.63 C
1791 01-07-2016 05:10:00 16.7 C 94 % 15.73 C
1792 01-07-2016 05:15:00 16.7 C 94 % 15.73 C
1793 01-07-2016 05:20:00 16.8 C 94 % 15.83 C
1794 01-07-2016 05:25:00 16.8 C 93 % 15.66 C
1795 01-07-2016 05:30:00 16.8 C 93 % 15.66 C
1796 01-07-2016 05:35:00 16.9 C 93 % 15.76 C
1797 01-07-2016 05:40:00 16.9 C 92 % 15.59 C
1798 01-07-2016 05:45:00 17 C 92 % 15.69 C
1799 01-07-2016 05:50:00 17 C 92 % 15.69 C
1800 01-07-2016 05:55:00 17 C 92 % 15.69 C
Sensor: Nr:Datum:Temp:Feuchte:Taupunkt:
Aussen-T/F 1801 01-07-2016 06:00:00 17.1 C 92 % 15.79 C
1802 01-07-2016 06:05:00 17.2 C 92 % 15.89 C
1803 01-07-2016 06:10:00 17.4 C 91 % 15.92 C
1804 01-07-2016 06:15:00 17.6 C 91 % 16.11 C
1805 01-07-2016 06:20:00 17.7 C 90 % 16.04 C
1806 01-07-2016 06:25:00 17.8 C 90 % 16.14 C
1807 01-07-2016 06:30:00 17.8 C 89 % 15.96 C
1808 01-07-2016 06:35:00 17.9 C 88 % 15.88 C
1809 01-07-2016 06:40:00 18.1 C 89 % 16.26 C
1810 01-07-2016 06:45:00 18.1 C 88 % 16.08 C
1811 01-07-2016 06:50:00 18.2 C 88 % 16.18 C
1812 01-07-2016 06:55:00 18.2 C 88 % 16.18 C
1813 01-07-2016 07:00:00 18.3 C 88 % 16.28 C
1814 01-07-2016 07:05:00 18.3 C 88 % 16.28 C
1815 01-07-2016 07:10:00 18.3 C 88 % 16.28 C
1816 01-07-2016 07:15:00 18.4 C 88 % 16.38 C
1817 01-07-2016 07:20:00 18.4 C 88 % 16.38 C
1818 01-07-2016 07:25:00 18.3 C 87 % 16.1 C
1819 01-07-2016 07:30:00 18.4 C 88 % 16.38 C
1820 01-07-2016 07:35:00 18.5 C 88 % 16.48 C
1821 01-07-2016 07:40:00 18.6 C 87 % 16.39 C
1822 01-07-2016 07:45:00 18.6 C 86 % 16.21 C
1823 01-07-2016 07:50:00 18.7 C 87 % 16.49 C
1824 01-07-2016 07:55:00 18.7 C 86 % 16.31 C
1825 01-07-2016 08:00:00 18.7 C 87 % 16.49 C
Sensor: Nr:Datum:Temp:Feuchte:Taupunkt:
Aussen-T/F 1826 01-07-2016 08:05:00 18.8 C 87 % 16.59 C
1827 01-07-2016 08:10:00 18.8 C 87 % 16.59 C
1828 01-07-2016 08:15:00 18.9 C 86 % 16.51 C
1829 01-07-2016 08:20:00 19.1 C 86 % 16.7 C
1830 01-07-2016 08:25:00 19.3 C 86 % 16.9 C
1831 01-07-2016 08:30:00 19.4 C 85 % 16.81 C
1832 01-07-2016 08:35:00 19.6 C 86 % 17.19 C
1833 01-07-2016 08:40:00 19.6 C 84 % 16.82 C
1834 01-07-2016 08:45:00 19.6 C 85 % 17.01 C
1835 01-07-2016 08:50:00 19.6 C 86 % 17.19 C
1836 01-07-2016 08:55:00 19.6 C 87 % 17.38 C
1837 01-07-2016 09:00:00 19.5 C 87 % 17.28 C
1838 01-07-2016 09:05:00 19.5 C 86 % 17.1 C
1839 01-07-2016 09:10:00 19.6 C 88 % 17.56 C
1840 01-07-2016 09:15:00 19.6 C 85 % 17.01 C
1841 01-07-2016 09:20:00 19.7 C 86 % 17.29 C
1842 01-07-2016 09:25:00 19.7 C 84 % 16.92 C
1843 01-07-2016 09:30:00 19.8 C 84 % 17.02 C
1844 01-07-2016 09:35:00 20.1 C 83 % 17.12 C
1845 01-07-2016 09:40:00 20.2 C 83 % 17.22 C
1846 01-07-2016 09:45:00 20.4 C 83 % 17.42 C
1847 01-07-2016 09:50:00 20.6 C 84 % 17.8 C
1848 01-07-2016 09:55:00 20.7 C 84 % 17.9 C
1849 01-07-2016 10:00:00 20.8 C 80 % 17.22 C
1850 01-07-2016 10:05:00 20.8 C 79 % 17.02 C
Sensor: Nr:Datum:Temp:Feuchte:Taupunkt:
Aussen-T/F 1851 01-07-2016 10:10:00 20.9 C 80 % 17.32 C
1852 01-07-2016 10:15:00 20.9 C 79 % 17.12 C
1853 01-07-2016 10:20:00 21.1 C 79 % 17.32 C
1854 01-07-2016 10:25:00 21.2 C 80 % 17.61 C
1855 01-07-2016 10:30:00 21.3 C 79 % 17.51 C
1856 01-07-2016 10:35:00 21.3 C 78 % 17.31 C
1857 01-07-2016 10:40:00 21.2 C 77 % 17.01 C
1858 01-07-2016 10:45:00 21.3 C 78 % 17.31 C
1859 01-07-2016 10:50:00 21.4 C 78 % 17.4 C
1860 01-07-2016 10:55:00 21.6 C 78 % 17.6 C
1861 01-07-2016 11:00:00 21.7 C 76 % 17.28 C
1862 01-07-2016 11:05:00 21.8 C 75 % 17.17 C
1863 01-07-2016 11:10:00 21.9 C 74 % 17.06 C
1864 01-07-2016 11:15:00 22.1 C 73 % 17.03 C
1865 01-07-2016 11:20:00 22.3 C 72 % 17.01 C
1866 01-07-2016 11:25:00 22.3 C 72 % 17.01 C
1867 01-07-2016 11:30:00 22.4 C 72 % 17.1 C
1868 01-07-2016 11:35:00 22.3 C 73 % 17.23 C
1869 01-07-2016 11:40:00 22.4 C 74 % 17.54 C
1870 01-07-2016 11:45:00 22.2 C 70 % 16.47 C
1871 01-07-2016 11:50:00 22.1 C 74 % 17.25 C
1872 01-07-2016 11:55:00 22.1 C 74 % 17.25 C
1873 01-07-2016 12:00:00 22 C 75 % 17.36 C
1874 01-07-2016 12:05:00 22.1 C 73 % 17.03 C
1875 01-07-2016 12:10:00 22.1 C 72 % 16.82 C
Sensor: Nr:Datum:Temp:Feuchte:Taupunkt:
Aussen-T/F 1876 01-07-2016 12:15:00 22.1 C 70 % 16.37 C
1877 01-07-2016 12:20:00 22.1 C 70 % 16.37 C
1878 01-07-2016 12:25:00 22.1 C 71 % 16.6 C
1879 01-07-2016 12:30:00 22.2 C 70 % 16.47 C
1880 01-07-2016 12:35:00 22.2 C 69 % 16.24 C
1881 01-07-2016 12:40:00 22.1 C 69 % 16.15 C
1882 01-07-2016 12:45:00 22.1 C 68 % 15.92 C
1883 01-07-2016 12:50:00 22 C 69 % 16.05 C
1884 01-07-2016 12:55:00 21.8 C 70 % 16.09 C
1885 01-07-2016 13:00:00 21.8 C 71 % 16.31 C
1886 01-07-2016 13:05:00 21.8 C 73 % 16.75 C
1887 01-07-2016 13:10:00 21.8 C 73 % 16.75 C
1888 01-07-2016 13:15:00 21.9 C 70 % 16.18 C
1889 01-07-2016 13:20:00 22.1 C 69 % 16.15 C
1890 01-07-2016 13:25:00 22.2 C 70 % 16.47 C
1891 01-07-2016 13:30:00 22.2 C 71 % 16.69 C
1892 01-07-2016 13:35:00 22.2 C 72 % 16.91 C
1893 01-07-2016 13:40:00 22.3 C 70 % 16.56 C
1894 01-07-2016 13:45:00 22.4 C 72 % 17.1 C
1895 01-07-2016 13:50:00 22.5 C 70 % 16.76 C
1896 01-07-2016 13:55:00 22.3 C 70 % 16.56 C
1897 01-07-2016 14:00:00 22.2 C 71 % 16.69 C
1898 01-07-2016 14:05:00 22.2 C 73 % 17.13 C
1899 01-07-2016 14:10:00 22.3 C 70 % 16.56 C
1900 01-07-2016 14:15:00 22.4 C 73 % 17.32 C
Sensor: Nr:Datum:Temp:Feuchte:Taupunkt:
Aussen-T/F 1901 01-07-2016 14:20:00 22.5 C 69 % 16.53 C
1902 01-07-2016 14:25:00 22.7 C 68 % 16.49 C
1903 01-07-2016 14:30:00 22.7 C 68 % 16.49 C
1904 01-07-2016 14:35:00 22.6 C 67 % 16.16 C
1905 01-07-2016 14:40:00 22.7 C 67 % 16.26 C
1906 01-07-2016 14:45:00 22.8 C 69 % 16.82 C
1907 01-07-2016 14:50:00 22.8 C 68 % 16.59 C
1908 01-07-2016 14:55:00 22.8 C 67 % 16.35 C
1909 01-07-2016 15:00:00 22.8 C 67 % 16.35 C
1910 01-07-2016 15:05:00 22.8 C 65 % 15.88 C
1911 01-07-2016 15:10:00 22.7 C 68 % 16.49 C
1912 01-07-2016 15:15:00 22.7 C 68 % 16.49 C
1913 01-07-2016 15:20:00 22.6 C 67 % 16.16 C
1914 01-07-2016 15:25:00 22.4 C 68 % 16.2 C
1915 01-07-2016 15:30:00 22.4 C 68 % 16.2 C
1916 01-07-2016 15:35:00 22.4 C 69 % 16.43 C
1917 01-07-2016 15:40:00 22.5 C 68 % 16.3 C
1918 01-07-2016 15:45:00 22.6 C 68 % 16.39 C
1919 01-07-2016 15:50:00 22.7 C 67 % 16.26 C
1920 01-07-2016 15:55:00 22.9 C 67 % 16.45 C
1921 01-07-2016 16:00:00 23.2 C 67 % 16.73 C
1922 01-07-2016 16:05:00 23.9 C 67 % 17.4 C
1923 01-07-2016 16:10:00 24.3 C 65 % 17.3 C
1924 01-07-2016 16:15:00 24.3 C 64 % 17.05 C
1925 01-07-2016 16:20:00 24.1 C 63 % 16.62 C
Sensor: Nr:Datum:Temp:Feuchte:Taupunkt:
Aussen-T/F 1926 01-07-2016 16:25:00 23.9 C 64 % 16.68 C
1927 01-07-2016 16:30:00 23.8 C 64 % 16.58 C
1928 01-07-2016 16:35:00 23.9 C 66 % 17.16 C
1929 01-07-2016 16:40:00 23.9 C 64 % 16.68 C
1930 01-07-2016 16:45:00 24 C 65 % 17.01 C
1931 01-07-2016 16:50:00 24.2 C 64 % 16.96 C
1932 01-07-2016 16:55:00 24.1 C 64 % 16.86 C
1933 01-07-2016 17:00:00 23.8 C 65 % 16.83 C
1934 01-07-2016 17:05:00 23.4 C 65 % 16.45 C
1935 01-07-2016 17:10:00 23.1 C 68 % 16.87 C
1936 01-07-2016 17:15:00 22.9 C 67 % 16.45 C
1937 01-07-2016 17:20:00 22.8 C 68 % 16.59 C
1938 01-07-2016 17:25:00 22.8 C 70 % 17.04 C
1939 01-07-2016 17:30:00 22.7 C 70 % 16.95 C
1940 01-07-2016 17:35:00 22.5 C 69 % 16.53 C
1941 01-07-2016 17:40:00 22.4 C 71 % 16.88 C
1942 01-07-2016 17:45:00 22.3 C 70 % 16.56 C
1943 01-07-2016 17:50:00 22.2 C 69 % 16.24 C
1944 01-07-2016 17:55:00 22.1 C 70 % 16.37 C
1945 01-07-2016 18:00:00 21.8 C 71 % 16.31 C
1946 01-07-2016 18:05:00 21.7 C 72 % 16.43 C
1947 01-07-2016 18:10:00 21.5 C 73 % 16.46 C
1948 01-07-2016 18:15:00 21.4 C 74 % 16.57 C
1949 01-07-2016 18:20:00 21.5 C 73 % 16.46 C
1950 01-07-2016 18:25:00 21.6 C 76 % 17.19 C
Sensor: Nr:Datum:Temp:Feuchte:Taupunkt:
Aussen-T/F 1951 01-07-2016 18:30:00 21.5 C 77 % 17.3 C
1952 01-07-2016 18:35:00 21.7 C 74 % 16.86 C
1953 01-07-2016 18:40:00 22.2 C 73 % 17.13 C
1954 01-07-2016 18:45:00 22.4 C 73 % 17.32 C
1955 01-07-2016 18:50:00 22.8 C 70 % 17.04 C
1956 01-07-2016 18:55:00 23.1 C 70 % 17.33 C
1957 01-07-2016 19:00:00 23.1 C 71 % 17.55 C
1958 01-07-2016 19:05:00 23.1 C 73 % 17.99 C
1959 01-07-2016 19:10:00 22.9 C 69 % 16.91 C
1960 01-07-2016 19:15:00 22.7 C 72 % 17.39 C
1961 01-07-2016 19:20:00 22.6 C 73 % 17.51 C
1962 01-07-2016 19:25:00 22.4 C 73 % 17.32 C
1963 01-07-2016 19:30:00 22.6 C 70 % 16.85 C
1964 01-07-2016 19:35:00 22.9 C 70 % 17.14 C
1965 01-07-2016 19:40:00 22.9 C 70 % 17.14 C
1966 01-07-2016 19:45:00 22.8 C 71 % 17.27 C
1967 01-07-2016 19:50:00 22.6 C 70 % 16.85 C
1968 01-07-2016 19:55:00 22.4 C 70 % 16.66 C
1969 01-07-2016 20:00:00 22.3 C 73 % 17.23 C
1970 01-07-2016 20:05:00 22.3 C 71 % 16.79 C
1971 01-07-2016 20:10:00 22.3 C 72 % 17.01 C
1972 01-07-2016 20:15:00 22.3 C 75 % 17.65 C
1973 01-07-2016 20:20:00 22.1 C 76 % 17.67 C
1974 01-07-2016 20:25:00 21.9 C 73 % 16.84 C
1975 01-07-2016 20:30:00 21.8 C 75 % 17.17 C
Sensor: Nr:Datum:Temp:Feuchte:Taupunkt:
Aussen-T/F 1976 01-07-2016 20:35:00 21.7 C 78 % 17.7 C
1977 01-07-2016 20:40:00 21.7 C 76 % 17.28 C
1978 01-07-2016 20:45:00 21.8 C 77 % 17.59 C
1979 01-07-2016 20:50:00 21.6 C 76 % 17.19 C
1980 01-07-2016 20:55:00 21.4 C 78 % 17.4 C
1981 01-07-2016 21:00:00 21.1 C 78 % 17.11 C
1982 01-07-2016 21:05:00 20.7 C 80 % 17.13 C
1983 01-07-2016 21:10:00 20.3 C 80 % 16.74 C
1984 01-07-2016 21:15:00 19.9 C 81 % 16.54 C
1985 01-07-2016 21:20:00 19.6 C 83 % 16.63 C
1986 01-07-2016 21:25:00 19.3 C 83 % 16.34 C
1987 01-07-2016 21:30:00 19.1 C 83 % 16.15 C
1988 01-07-2016 21:35:00 18.8 C 84 % 16.04 C
1989 01-07-2016 21:40:00 18.7 C 85 % 16.13 C
1990 01-07-2016 21:45:00 18.6 C 85 % 16.03 C
1991 01-07-2016 21:50:00 18.4 C 85 % 15.83 C
1992 01-07-2016 21:55:00 18.4 C 86 % 16.02 C
1993 01-07-2016 22:00:00 18.3 C 87 % 16.1 C
1994 01-07-2016 22:05:00 18.2 C 87 % 16 C
1995 01-07-2016 22:10:00 18.2 C 87 % 16 C
1996 01-07-2016 22:15:00 18.1 C 87 % 15.9 C
1997 01-07-2016 22:20:00 18.1 C 87 % 15.9 C
1998 01-07-2016 22:25:00 18 C 88 % 15.98 C
1999 01-07-2016 22:30:00 17.9 C 88 % 15.88 C
2000 01-07-2016 22:35:00 17.9 C 88 % 15.88 C
Sensor: Nr:Datum:Temp:Feuchte:Taupunkt:
Aussen-T/F 2001 01-07-2016 22:40:00 17.9 C 88 % 15.88 C
2002 01-07-2016 22:45:00 17.8 C 88 % 15.79 C
2003 01-07-2016 22:50:00 17.8 C 89 % 15.96 C
2004 01-07-2016 22:55:00 17.7 C 89 % 15.86 C
2005 01-07-2016 23:00:00 17.6 C 89 % 15.77 C
2006 01-07-2016 23:05:00 17.6 C 90 % 15.94 C
2007 01-07-2016 23:10:00 17.6 C 90 % 15.94 C
2008 01-07-2016 23:15:00 17.6 C 90 % 15.94 C
2009 01-07-2016 23:20:00 17.6 C 90 % 15.94 C
2010 01-07-2016 23:25:00 17.6 C 90 % 15.94 C
2011 01-07-2016 23:30:00 17.6 C 91 % 16.11 C
2012 01-07-2016 23:35:00 17.6 C 91 % 16.11 C
2013 01-07-2016 23:40:00 17.7 C 91 % 16.21 C
2014 01-07-2016 23:45:00 17.7 C 91 % 16.21 C
2015 01-07-2016 23:50:00 17.8 C 91 % 16.31 C
2016 01-07-2016 23:55:00 17.8 C 91 % 16.31 C
2017 02-07-2016 00:00:00 17.9 C 91 % 16.41 C
2018 02-07-2016 00:05:00 17.9 C 91 % 16.41 C
2019 02-07-2016 00:10:00 17.9 C 91 % 16.41 C
2020 02-07-2016 00:15:00 17.9 C 91 % 16.41 C
2021 02-07-2016 00:20:00 17.9 C 91 % 16.41 C
2022 02-07-2016 00:25:00 17.9 C 91 % 16.41 C
2023 02-07-2016 00:30:00 17.8 C 91 % 16.31 C
2024 02-07-2016 00:35:00 17.9 C 91 % 16.41 C
2025 02-07-2016 00:40:00 17.9 C 91 % 16.41 C
Sensor: Nr:Datum:Temp:Feuchte:Taupunkt:
Aussen-T/F 2026 02-07-2016 00:45:00 17.9 C 91 % 16.41 C
2027 02-07-2016 00:50:00 17.9 C 91 % 16.41 C
2028 02-07-2016 00:55:00 17.8 C 91 % 16.31 C
2029 02-07-2016 01:00:00 17.8 C 90 % 16.14 C
2030 02-07-2016 01:05:00 17.7 C 91 % 16.21 C
2031 02-07-2016 01:10:00 17.6 C 91 % 16.11 C
2032 02-07-2016 01:15:00 17.6 C 91 % 16.11 C
2033 02-07-2016 01:20:00 17.5 C 91 % 16.01 C
2034 02-07-2016 01:25:00 17.5 C 91 % 16.01 C
2035 02-07-2016 01:30:00 17.5 C 91 % 16.01 C
2036 02-07-2016 01:35:00 17.5 C 92 % 16.19 C
2037 02-07-2016 01:40:00 17.4 C 92 % 16.09 C
2038 02-07-2016 01:45:00 17.4 C 91 % 15.92 C
2039 02-07-2016 01:50:00 17.3 C 91 % 15.82 C
2040 02-07-2016 01:55:00 17.3 C 92 % 15.99 C
2041 02-07-2016 02:00:00 17.3 C 92 % 15.99 C
2042 02-07-2016 02:05:00 17.4 C 92 % 16.09 C
2043 02-07-2016 02:10:00 17.5 C 92 % 16.19 C
2044 02-07-2016 02:15:00 17.6 C 92 % 16.28 C
2045 02-07-2016 02:20:00 17.7 C 92 % 16.38 C
2046 02-07-2016 02:25:00 17.7 C 92 % 16.38 C
2047 02-07-2016 02:30:00 17.8 C 91 % 16.31 C
2048 02-07-2016 02:35:00 17.9 C 90 % 16.24 C
2049 02-07-2016 02:40:00 18.2 C 89 % 16.36 C
2050 02-07-2016 02:45:00 18.3 C 88 % 16.28 C
Sensor: Nr:Datum:Temp:Feuchte:Taupunkt:
Aussen-T/F 2051 02-07-2016 02:50:00 18.4 C 88 % 16.38 C
2052 02-07-2016 02:55:00 18.6 C 87 % 16.39 C
2053 02-07-2016 03:00:00 18.8 C 86 % 16.41 C
2054 02-07-2016 03:05:00 18.8 C 86 % 16.41 C
2055 02-07-2016 03:10:00 18.9 C 85 % 16.32 C
2056 02-07-2016 03:15:00 18.8 C 85 % 16.23 C
2057 02-07-2016 03:20:00 18.8 C 85 % 16.23 C
2058 02-07-2016 03:25:00 18.8 C 85 % 16.23 C
2059 02-07-2016 03:30:00 18.7 C 85 % 16.13 C
2060 02-07-2016 03:35:00 18.6 C 86 % 16.21 C
2061 02-07-2016 03:40:00 18.5 C 86 % 16.11 C
2062 02-07-2016 03:45:00 18.4 C 86 % 16.02 C
2063 02-07-2016 03:50:00 18.4 C 87 % 16.2 C
2064 02-07-2016 03:55:00 18.4 C 87 % 16.2 C
2065 02-07-2016 04:00:00 18.4 C 87 % 16.2 C
2066 02-07-2016 04:05:00 18.4 C 87 % 16.2 C
2067 02-07-2016 04:10:00 18.3 C 87 % 16.1 C
2068 02-07-2016 04:15:00 18.3 C 87 % 16.1 C
2069 02-07-2016 04:20:00 18.3 C 87 % 16.1 C
2070 02-07-2016 04:25:00 18.3 C 87 % 16.1 C
2071 02-07-2016 04:30:00 18.3 C 87 % 16.1 C
2072 02-07-2016 04:35:00 18.3 C 87 % 16.1 C
2073 02-07-2016 04:40:00 18.4 C 86 % 16.02 C
2074 02-07-2016 04:45:00 18.5 C 86 % 16.11 C
2075 02-07-2016 04:50:00 18.6 C 85 % 16.03 C
Sensor: Nr:Datum:Temp:Feuchte:Taupunkt:
Aussen-T/F 2076 02-07-2016 04:55:00 18.6 C 85 % 16.03 C
2077 02-07-2016 05:00:00 18.6 C 84 % 15.84 C
2078 02-07-2016 05:05:00 18.6 C 85 % 16.03 C
2079 02-07-2016 05:10:00 18.6 C 84 % 15.84 C
2080 02-07-2016 05:15:00 18.6 C 83 % 15.66 C
2081 02-07-2016 05:20:00 18.7 C 83 % 15.75 C
2082 02-07-2016 05:25:00 18.7 C 83 % 15.75 C
2083 02-07-2016 05:30:00 18.7 C 82 % 15.57 C
2084 02-07-2016 05:35:00 18.2 C 82 % 15.08 C
2085 02-07-2016 05:40:00 17.7 C 85 % 15.15 C
2086 02-07-2016 05:45:00 17.2 C 86 % 14.84 C
2087 02-07-2016 05:50:00 16.8 C 88 % 14.8 C
2088 02-07-2016 05:55:00 16.4 C 88 % 14.41 C
2089 02-07-2016 06:00:00 16.2 C 89 % 14.39 C
2090 02-07-2016 06:05:00 16.1 C 89 % 14.29 C
2091 02-07-2016 06:10:00 15.9 C 90 % 14.26 C
2092 02-07-2016 06:15:00 15.8 C 90 % 14.16 C
2093 02-07-2016 06:20:00 15.7 C 90 % 14.06 C
2094 02-07-2016 06:25:00 15.6 C 91 % 14.14 C
2095 02-07-2016 06:30:00 15.5 C 91 % 14.04 C
2096 02-07-2016 06:35:00 15.4 C 91 % 13.94 C
2097 02-07-2016 06:40:00 15.4 C 92 % 14.11 C
2098 02-07-2016 06:45:00 15.4 C 92 % 14.11 C
2099 02-07-2016 06:50:00 15.4 C 92 % 14.11 C
2100 02-07-2016 06:55:00 15.4 C 93 % 14.27 C
Sensor: Nr:Datum:Temp:Feuchte:Taupunkt:
Aussen-T/F 2101 02-07-2016 07:00:00 15.3 C 92 % 14.01 C
2102 02-07-2016 07:05:00 15.1 C 91 % 13.64 C
2103 02-07-2016 07:10:00 15 C 91 % 13.54 C
2104 02-07-2016 07:15:00 14.9 C 92 % 13.61 C
2105 02-07-2016 07:20:00 14.8 C 92 % 13.51 C
2106 02-07-2016 07:25:00 14.8 C 91 % 13.35 C
2107 02-07-2016 07:30:00 14.7 C 91 % 13.25 C
2108 02-07-2016 07:35:00 14.6 C 91 % 13.15 C
2109 02-07-2016 07:40:00 14.6 C 91 % 13.15 C
2110 02-07-2016 07:45:00 14.5 C 91 % 13.05 C
2111 02-07-2016 07:50:00 14.4 C 89 % 12.61 C
2112 02-07-2016 07:55:00 14.3 C 86 % 11.99 C
2113 02-07-2016 08:00:00 14.3 C 85 % 11.81 C
2114 02-07-2016 08:05:00 14.3 C 83 % 11.45 C
2115 02-07-2016 08:10:00 14.4 C 87 % 12.27 C
2116 02-07-2016 08:15:00 14.3 C 88 % 12.34 C
2117 02-07-2016 08:20:00 14.3 C 88 % 12.34 C
2118 02-07-2016 08:25:00 14.2 C 88 % 12.24 C
2119 02-07-2016 08:30:00 14.1 C 89 % 12.32 C
2120 02-07-2016 08:35:00 14.1 C 89 % 12.32 C
2121 02-07-2016 08:40:00 14.1 C 91 % 12.65 C
2122 02-07-2016 08:45:00 14.1 C 91 % 12.65 C
2123 02-07-2016 08:50:00 14.3 C 92 % 13.02 C
2124 02-07-2016 08:55:00 14.4 C 92 % 13.12 C
2125 02-07-2016 09:00:00 14.4 C 91 % 12.95 C
Sensor: Nr:Datum:Temp:Feuchte:Taupunkt:
Aussen-T/F 2126 02-07-2016 09:05:00 14.4 C 91 % 12.95 C
2127 02-07-2016 09:10:00 14.3 C 90 % 12.68 C
2128 02-07-2016 09:15:00 14.3 C 90 % 12.68 C
2129 02-07-2016 09:20:00 14.3 C 89 % 12.51 C
2130 02-07-2016 09:25:00 14.3 C 90 % 12.68 C
2131 02-07-2016 09:30:00 14.3 C 89 % 12.51 C
2132 02-07-2016 09:35:00 14.3 C 89 % 12.51 C
2133 02-07-2016 09:40:00 14.3 C 88 % 12.34 C
2134 02-07-2016 09:45:00 14.3 C 89 % 12.51 C
2135 02-07-2016 09:50:00 14.3 C 88 % 12.34 C
2136 02-07-2016 09:55:00 14.3 C 89 % 12.51 C
2137 02-07-2016 10:00:00 14.3 C 88 % 12.34 C
2138 02-07-2016 10:05:00 14.3 C 88 % 12.34 C
2139 02-07-2016 10:10:00 14.3 C 89 % 12.51 C
2140 02-07-2016 10:15:00 14.4 C 89 % 12.61 C
2141 02-07-2016 10:20:00 14.4 C 89 % 12.61 C
2142 02-07-2016 10:25:00 14.6 C 90 % 12.98 C
2143 02-07-2016 10:30:00 14.7 C 90 % 13.08 C
2144 02-07-2016 10:35:00 14.7 C 87 % 12.56 C
2145 02-07-2016 10:40:00 14.8 C 88 % 12.83 C
2146 02-07-2016 10:45:00 15 C 87 % 12.86 C
2147 02-07-2016 10:50:00 15.1 C 87 % 12.95 C
2148 02-07-2016 10:55:00 15.2 C 83 % 12.33 C
2149 02-07-2016 11:00:00 15.3 C 83 % 12.43 C
2150 02-07-2016 11:05:00 15.4 C 85 % 12.89 C
Sensor: Nr:Datum:Temp:Feuchte:Taupunkt:
Aussen-T/F 2151 02-07-2016 11:10:00 15.4 C 85 % 12.89 C
2152 02-07-2016 11:15:00 15.5 C 86 % 13.17 C
2153 02-07-2016 11:20:00 15.6 C 85 % 13.09 C
2154 02-07-2016 11:25:00 15.7 C 85 % 13.19 C
2155 02-07-2016 11:30:00 15.7 C 84 % 13.01 C
2156 02-07-2016 11:35:00 15.6 C 81 % 12.35 C
2157 02-07-2016 11:40:00 15.7 C 83 % 12.82 C
2158 02-07-2016 11:45:00 15.7 C 83 % 12.82 C
2159 02-07-2016 11:50:00 15.8 C 81 % 12.55 C
2160 02-07-2016 11:55:00 15.9 C 82 % 12.83 C
2161 02-07-2016 12:00:00 16.1 C 81 % 12.84 C
2162 02-07-2016 12:05:00 16.2 C 79 % 12.56 C
2163 02-07-2016 12:10:00 16.2 C 78 % 12.36 C
2164 02-07-2016 12:15:00 16.2 C 81 % 12.94 C
2165 02-07-2016 12:20:00 16.2 C 82 % 13.13 C
2166 02-07-2016 12:25:00 16.3 C 80 % 12.85 C
2167 02-07-2016 12:30:00 16.5 C 81 % 13.23 C
2168 02-07-2016 12:35:00 16.7 C 80 % 13.23 C
2169 02-07-2016 12:40:00 16.9 C 78 % 13.04 C
2170 02-07-2016 12:45:00 16.9 C 78 % 13.04 C
2171 02-07-2016 12:50:00 16.9 C 75 % 12.44 C
2172 02-07-2016 12:55:00 16.9 C 77 % 12.84 C
2173 02-07-2016 13:00:00 17.1 C 75 % 12.64 C
2174 02-07-2016 13:05:00 17.4 C 75 % 12.93 C
2175 02-07-2016 13:10:00 17.7 C 73 % 12.8 C
Sensor: Nr:Datum:Temp:Feuchte:Taupunkt:
Aussen-T/F 2176 02-07-2016 13:15:00 17.9 C 70 % 12.35 C
2177 02-07-2016 13:20:00 18.1 C 70 % 12.55 C
2178 02-07-2016 13:25:00 18 C 71 % 12.67 C
2179 02-07-2016 13:30:00 17.9 C 69 % 12.14 C
2180 02-07-2016 13:35:00 17.9 C 71 % 12.57 C
2181 02-07-2016 13:40:00 18 C 71 % 12.67 C
2182 02-07-2016 13:45:00 18 C 73 % 13.09 C
2183 02-07-2016 13:50:00 18.1 C 73 % 13.19 C
2184 02-07-2016 13:55:00 18.3 C 71 % 12.95 C
2185 02-07-2016 14:00:00 18.4 C 69 % 12.61 C
2186 02-07-2016 14:05:00 18.4 C 70 % 12.83 C
2187 02-07-2016 14:10:00 18.5 C 73 % 13.57 C
2188 02-07-2016 14:15:00 18.6 C 70 % 13.02 C
2189 02-07-2016 14:20:00 18.6 C 73 % 13.67 C
2190 02-07-2016 14:25:00 18.6 C 71 % 13.24 C
2191 02-07-2016 14:30:00 18.6 C 72 % 13.46 C
2192 02-07-2016 14:35:00 18.6 C 73 % 13.67 C
2193 02-07-2016 14:40:00 18.8 C 70 % 13.22 C
2194 02-07-2016 14:45:00 18.8 C 68 % 12.77 C
2195 02-07-2016 14:50:00 18.9 C 68 % 12.87 C
2196 02-07-2016 14:55:00 19.1 C 65 % 12.37 C
2197 02-07-2016 15:00:00 19.2 C 69 % 13.38 C
2198 02-07-2016 15:05:00 19.1 C 68 % 13.06 C
2199 02-07-2016 15:10:00 19 C 66 % 12.51 C
2200 02-07-2016 15:15:00 19.1 C 67 % 12.83 C
Sensor: Nr:Datum:Temp:Feuchte:Taupunkt:
Aussen-T/F 2201 02-07-2016 15:20:00 19.4 C 68 % 13.34 C
2202 02-07-2016 15:25:00 19.7 C 65 % 12.94 C
2203 02-07-2016 15:30:00 19.9 C 63 % 12.65 C
2204 02-07-2016 15:35:00 20.4 C 60 % 12.38 C
2205 02-07-2016 15:40:00 21 C 57 % 12.16 C
2206 02-07-2016 15:45:00 21.4 C 54 % 11.71 C
2207 02-07-2016 15:50:00 21.7 C 53 % 11.71 C
2208 02-07-2016 15:55:00 22 C 45 % 9.53 C
2209 02-07-2016 16:00:00 22.3 C 45 % 9.8 C
2210 02-07-2016 16:05:00 22.5 C 44 % 9.65 C
2211 02-07-2016 16:10:00 22.1 C 42 % 8.6 C
2212 02-07-2016 16:15:00 21.7 C 45 % 9.26 C
2213 02-07-2016 16:20:00 21.6 C 46 % 9.49 C
2214 02-07-2016 16:25:00 21.3 C 47 % 9.54 C
2215 02-07-2016 16:30:00 21 C 44 % 8.29 C
2216 02-07-2016 16:35:00 20.7 C 46 % 8.67 C
2217 02-07-2016 16:40:00 20.3 C 48 % 8.94 C
2218 02-07-2016 16:45:00 20 C 49 % 8.97 C
2219 02-07-2016 16:50:00 19.8 C 49 % 8.79 C
2220 02-07-2016 16:55:00 19.7 C 52 % 9.58 C
2221 02-07-2016 17:00:00 19.4 C 51 % 9.01 C
2222 02-07-2016 17:05:00 19.3 C 56 % 10.31 C
2223 02-07-2016 17:10:00 19.4 C 57 % 10.67 C
2224 02-07-2016 17:15:00 19.3 C 58 % 10.84 C
2225 02-07-2016 17:20:00 19.3 C 59 % 11.09 C
Sensor: Nr:Datum:Temp:Feuchte:Taupunkt:
Aussen-T/F 2226 02-07-2016 17:25:00 19.4 C 56 % 10.4 C
2227 02-07-2016 17:30:00 19.2 C 59 % 11 C
2228 02-07-2016 17:35:00 19.2 C 56 % 10.22 C
2229 02-07-2016 17:40:00 19.1 C 58 % 10.65 C
2230 02-07-2016 17:45:00 19.1 C 59 % 10.91 C
2231 02-07-2016 17:50:00 19.3 C 60 % 11.35 C
2232 02-07-2016 17:55:00 19.7 C 56 % 10.68 C
2233 02-07-2016 18:00:00 19.7 C 57 % 10.95 C
2234 02-07-2016 18:05:00 20 C 54 % 10.42 C
2235 02-07-2016 18:10:00 20.2 C 52 % 10.04 C
2236 02-07-2016 18:15:00 19.9 C 55 % 10.6 C
2237 02-07-2016 18:20:00 19.4 C 56 % 10.4 C
2238 02-07-2016 18:25:00 19.1 C 54 % 9.58 C
2239 02-07-2016 18:30:00 18.8 C 57 % 10.11 C
2240 02-07-2016 18:35:00 18.4 C 56 % 9.47 C
2241 02-07-2016 18:40:00 18.2 C 58 % 9.81 C
2242 02-07-2016 18:45:00 18 C 60 % 10.13 C
2243 02-07-2016 18:50:00 17.8 C 60 % 9.94 C
2244 02-07-2016 18:55:00 17.6 C 63 % 10.48 C
2245 02-07-2016 19:00:00 17.4 C 63 % 10.29 C
2246 02-07-2016 19:05:00 17.3 C 62 % 9.96 C
2247 02-07-2016 19:10:00 17.3 C 62 % 9.96 C
2248 02-07-2016 19:15:00 17.4 C 64 % 10.53 C
2249 02-07-2016 19:20:00 18.1 C 62 % 10.71 C
2250 02-07-2016 19:25:00 18.5 C 60 % 10.6 C
Sensor: Nr:Datum:Temp:Feuchte:Taupunkt:
Aussen-T/F 2251 02-07-2016 19:30:00 18.4 C 63 % 11.23 C
2252 02-07-2016 19:35:00 18.4 C 62 % 10.99 C
2253 02-07-2016 19:40:00 18.3 C 64 % 11.38 C
2254 02-07-2016 19:45:00 17.9 C 65 % 11.23 C
2255 02-07-2016 19:50:00 17.7 C 67 % 11.5 C
2256 02-07-2016 19:55:00 17.3 C 69 % 11.56 C
2257 02-07-2016 20:00:00 17 C 69 % 11.28 C
2258 02-07-2016 20:05:00 16.8 C 66 % 10.42 C
2259 02-07-2016 20:10:00 16.8 C 66 % 10.42 C
2260 02-07-2016 20:15:00 16.8 C 67 % 10.64 C
2261 02-07-2016 20:20:00 16.7 C 68 % 10.77 C
2262 02-07-2016 20:25:00 16.6 C 69 % 10.89 C
2263 02-07-2016 20:30:00 16.5 C 69 % 10.8 C
2264 02-07-2016 20:35:00 16.4 C 73 % 11.55 C
2265 02-07-2016 20:40:00 16.4 C 74 % 11.76 C
2266 02-07-2016 20:45:00 16.4 C 74 % 11.76 C
2267 02-07-2016 20:50:00 16.6 C 76 % 12.36 C
2268 02-07-2016 20:55:00 16.6 C 76 % 12.36 C
2269 02-07-2016 21:00:00 16.5 C 76 % 12.26 C
2270 02-07-2016 21:05:00 16.3 C 76 % 12.07 C
2271 02-07-2016 21:10:00 16.1 C 78 % 12.27 C
2272 02-07-2016 21:15:00 15.8 C 77 % 11.78 C
2273 02-07-2016 21:20:00 15.5 C 79 % 11.88 C
2274 02-07-2016 21:25:00 15.2 C 79 % 11.59 C
2275 02-07-2016 21:30:00 14.9 C 80 % 11.48 C
Sensor: Nr:Datum:Temp:Feuchte:Taupunkt:
Aussen-T/F 2276 02-07-2016 21:35:00 14.7 C 81 % 11.48 C
2277 02-07-2016 21:40:00 14.4 C 81 % 11.18 C
2278 02-07-2016 21:45:00 14.2 C 82 % 11.17 C
2279 02-07-2016 21:50:00 14.1 C 82 % 11.08 C
2280 02-07-2016 21:55:00 13.8 C 82 % 10.78 C
2281 02-07-2016 22:00:00 13.7 C 83 % 10.87 C
2282 02-07-2016 22:05:00 13.6 C 83 % 10.77 C
2283 02-07-2016 22:10:00 13.4 C 84 % 10.75 C
2284 02-07-2016 22:15:00 13.3 C 84 % 10.66 C
2285 02-07-2016 22:20:00 13.2 C 84 % 10.56 C
2286 02-07-2016 22:25:00 13.2 C 84 % 10.56 C
2287 02-07-2016 22:30:00 13.1 C 85 % 10.64 C
2288 02-07-2016 22:35:00 13 C 85 % 10.54 C
2289 02-07-2016 22:40:00 12.9 C 85 % 10.44 C
2290 02-07-2016 22:45:00 13 C 87 % 10.89 C
2291 02-07-2016 22:50:00 13.1 C 87 % 10.99 C
2292 02-07-2016 22:55:00 13.1 C 87 % 10.99 C
2293 02-07-2016 23:00:00 13.2 C 87 % 11.09 C
2294 02-07-2016 23:05:00 13.2 C 86 % 10.91 C
2295 02-07-2016 23:10:00 13.1 C 86 % 10.81 C
2296 02-07-2016 23:15:00 13.1 C 86 % 10.81 C
2297 02-07-2016 23:20:00 13 C 86 % 10.72 C
2298 02-07-2016 23:25:00 12.9 C 87 % 10.79 C
2299 02-07-2016 23:30:00 12.8 C 87 % 10.69 C
2300 02-07-2016 23:35:00 12.8 C 87 % 10.69 C
Sensor: Nr:Datum:Temp:Feuchte:Taupunkt:
Aussen-T/F 2301 02-07-2016 23:40:00 12.7 C 88 % 10.77 C
2302 02-07-2016 23:45:00 12.7 C 88 % 10.77 C
2303 02-07-2016 23:50:00 12.7 C 88 % 10.77 C
2304 02-07-2016 23:55:00 12.7 C 88 % 10.77 C
2305 03-07-2016 00:00:00 12.7 C 89 % 10.94 C
2306 03-07-2016 00:05:00 12.7 C 89 % 10.94 C
2307 03-07-2016 00:10:00 12.7 C 89 % 10.94 C
2308 03-07-2016 00:15:00 12.6 C 89 % 10.84 C
2309 03-07-2016 00:20:00 12.6 C 88 % 10.67 C
2310 03-07-2016 00:25:00 12.5 C 88 % 10.57 C
2311 03-07-2016 00:30:00 12.4 C 88 % 10.47 C
2312 03-07-2016 00:35:00 12.4 C 89 % 10.64 C
2313 03-07-2016 00:40:00 12.3 C 89 % 10.54 C
2314 03-07-2016 00:45:00 12.3 C 89 % 10.54 C
2315 03-07-2016 00:50:00 12.2 C 89 % 10.44 C
2316 03-07-2016 00:55:00 12.2 C 89 % 10.44 C
2317 03-07-2016 01:00:00 11.6 C 91 % 10.18 C
2318 03-07-2016 01:05:00 11.6 C 91 % 10.18 C
2319 03-07-2016 01:10:00 11.6 C 91 % 10.18 C
2320 03-07-2016 01:15:00 11.6 C 92 % 10.35 C
2321 03-07-2016 01:20:00 11.7 C 92 % 10.44 C
2322 03-07-2016 01:25:00 11.8 C 92 % 10.54 C
2323 03-07-2016 01:30:00 11.8 C 91 % 10.38 C
2324 03-07-2016 01:35:00 11.8 C 91 % 10.38 C
2325 03-07-2016 01:40:00 11.8 C 91 % 10.38 C
Sensor: Nr:Datum:Temp:Feuchte:Taupunkt:
Aussen-T/F 2326 03-07-2016 01:45:00 11.9 C 91 % 10.48 C
2327 03-07-2016 01:50:00 11.9 C 90 % 10.31 C
2328 03-07-2016 01:55:00 12.1 C 90 % 10.51 C
2329 03-07-2016 02:00:00 12.2 C 89 % 10.44 C
2330 03-07-2016 02:05:00 12.2 C 89 % 10.44 C
2331 03-07-2016 02:10:00 12.2 C 89 % 10.44 C
2332 03-07-2016 02:15:00 12.3 C 89 % 10.54 C
2333 03-07-2016 02:20:00 12.3 C 88 % 10.37 C
2334 03-07-2016 02:25:00 12.3 C 88 % 10.37 C
2335 03-07-2016 02:30:00 12.3 C 88 % 10.37 C
2336 03-07-2016 02:35:00 12.3 C 88 % 10.37 C
2337 03-07-2016 02:40:00 12.3 C 88 % 10.37 C
2338 03-07-2016 02:45:00 12.2 C 88 % 10.27 C
2339 03-07-2016 02:50:00 12.2 C 88 % 10.27 C
2340 03-07-2016 02:55:00 12.1 C 88 % 10.17 C
2341 03-07-2016 03:00:00 12 C 89 % 10.25 C
2342 03-07-2016 03:05:00 11.9 C 89 % 10.15 C
2343 03-07-2016 03:10:00 11.9 C 89 % 10.15 C
2344 03-07-2016 03:15:00 11.9 C 89 % 10.15 C
2345 03-07-2016 03:20:00 11.9 C 89 % 10.15 C
2346 03-07-2016 03:25:00 11.9 C 89 % 10.15 C
2347 03-07-2016 03:30:00 11.9 C 89 % 10.15 C
2348 03-07-2016 03:35:00 11.9 C 89 % 10.15 C
2349 03-07-2016 03:40:00 11.9 C 90 % 10.31 C
2350 03-07-2016 04:25:00 11.9 C 90 % 10.31 C
Sensor: Nr:Datum:Temp:Feuchte:Taupunkt:
Aussen-T/F 2351 03-07-2016 04:30:00 11.9 C 90 % 10.31 C
2352 03-07-2016 04:35:00 11.9 C 90 % 10.31 C
2353 03-07-2016 04:40:00 11.9 C 90 % 10.31 C
2354 03-07-2016 04:45:00 11.9 C 90 % 10.31 C
2355 03-07-2016 04:50:00 11.9 C 89 % 10.15 C
2356 03-07-2016 04:55:00 11.9 C 90 % 10.31 C
2357 03-07-2016 05:00:00 11.9 C 90 % 10.31 C
2358 03-07-2016 05:05:00 11.8 C 90 % 10.21 C
2359 03-07-2016 05:10:00 11.8 C 91 % 10.38 C
2360 03-07-2016 05:15:00 11.8 C 91 % 10.38 C
2361 03-07-2016 05:20:00 11.8 C 91 % 10.38 C
2362 03-07-2016 05:25:00 11.7 C 91 % 10.28 C
2363 03-07-2016 05:30:00 11.7 C 91 % 10.28 C
2364 03-07-2016 05:35:00 11.7 C 91 % 10.28 C
2365 03-07-2016 05:40:00 11.6 C 91 % 10.18 C
2366 03-07-2016 05:45:00 11.6 C 91 % 10.18 C
2367 03-07-2016 05:50:00 11.6 C 91 % 10.18 C
2368 03-07-2016 05:55:00 11.6 C 91 % 10.18 C
2369 03-07-2016 06:00:00 11.6 C 92 % 10.35 C
2370 03-07-2016 06:05:00 11.6 C 92 % 10.35 C
2371 03-07-2016 06:10:00 11.6 C 92 % 10.35 C
2372 03-07-2016 06:15:00 11.6 C 92 % 10.35 C
2373 03-07-2016 06:20:00 11.7 C 92 % 10.44 C
2374 03-07-2016 06:25:00 11.7 C 92 % 10.44 C
2375 03-07-2016 06:30:00 11.8 C 92 % 10.54 C
Sensor: Nr:Datum:Temp:Feuchte:Taupunkt:
Aussen-T/F 2376 03-07-2016 06:35:00 11.8 C 92 % 10.54 C
2377 03-07-2016 06:40:00 11.8 C 92 % 10.54 C
2378 03-07-2016 06:45:00 11.9 C 92 % 10.64 C
2379 03-07-2016 06:50:00 11.9 C 92 % 10.64 C
2380 03-07-2016 06:55:00 12.1 C 92 % 10.84 C
2381 03-07-2016 07:00:00 12.1 C 92 % 10.84 C
2382 03-07-2016 07:05:00 12.2 C 91 % 10.78 C
2383 03-07-2016 07:10:00 12.3 C 92 % 11.04 C
2384 03-07-2016 07:15:00 12.4 C 92 % 11.14 C
2385 03-07-2016 07:20:00 12.5 C 91 % 11.07 C
2386 03-07-2016 07:25:00 12.6 C 91 % 11.17 C
2387 03-07-2016 07:30:00 12.7 C 90 % 11.1 C
2388 03-07-2016 07:35:00 12.7 C 90 % 11.1 C
2389 03-07-2016 07:40:00 12.8 C 90 % 11.2 C
2390 03-07-2016 07:45:00 12.9 C 89 % 11.13 C
2391 03-07-2016 07:50:00 12.9 C 89 % 11.13 C
2392 03-07-2016 07:55:00 13.1 C 88 % 11.16 C
2393 03-07-2016 08:00:00 13.1 C 88 % 11.16 C
2394 03-07-2016 08:05:00 13.2 C 88 % 11.26 C
2395 03-07-2016 08:10:00 13.3 C 88 % 11.36 C
2396 03-07-2016 08:15:00 13.4 C 87 % 11.28 C
2397 03-07-2016 08:20:00 13.5 C 87 % 11.38 C
2398 03-07-2016 08:25:00 13.7 C 87 % 11.58 C
2399 03-07-2016 08:30:00 13.8 C 86 % 11.5 C
2400 03-07-2016 08:35:00 13.8 C 86 % 11.5 C
Sensor: Nr:Datum:Temp:Feuchte:Taupunkt:
Aussen-T/F 2401 03-07-2016 08:40:00 13.9 C 86 % 11.6 C
2402 03-07-2016 08:45:00 14.1 C 86 % 11.8 C
2403 03-07-2016 08:50:00 14.3 C 85 % 11.81 C
2404 03-07-2016 08:55:00 14.5 C 84 % 11.83 C
2405 03-07-2016 09:00:00 14.6 C 83 % 11.75 C
2406 03-07-2016 09:05:00 14.5 C 83 % 11.65 C
2407 03-07-2016 09:10:00 14.6 C 84 % 11.93 C
2408 03-07-2016 09:25:00 14.7 C 84 % 12.03 C
2409 03-07-2016 09:30:00 14.8 C 85 % 12.3 C
2410 03-07-2016 09:35:00 18.1 C 74 % 13.4 C
2411 03-07-2016 09:40:00 18.2 C 74 % 13.49 C
2412 03-07-2016 09:45:00 18.1 C 71 % 12.76 C
2413 03-07-2016 09:50:00 17.9 C 69 % 12.14 C
2414 03-07-2016 09:55:00 17.8 C 73 % 12.9 C
2415 03-07-2016 10:00:00 17.7 C 72 % 12.59 C
2416 03-07-2016 10:05:00 17.7 C 72 % 12.59 C
2417 03-07-2016 10:10:00 17.8 C 73 % 12.9 C
2418 03-07-2016 10:15:00 17.8 C 73 % 12.9 C
2419 03-07-2016 10:20:00 17.8 C 74 % 13.11 C
2420 03-07-2016 10:25:00 17.6 C 71 % 12.28 C
2421 03-07-2016 10:30:00 17.4 C 72 % 12.3 C
2422 03-07-2016 10:35:00 17.2 C 77 % 13.14 C
2423 03-07-2016 10:40:00 17 C 78 % 13.14 C
2424 03-07-2016 10:45:00 16.8 C 81 % 13.52 C
2425 03-07-2016 12:05:00 16.7 C 81 % 13.43 C
Sensor: Nr:Datum:Temp:Feuchte:Taupunkt:
Aussen-T/F 2426 03-07-2016 12:10:00 16.4 C 83 % 13.51 C
2427 03-07-2016 12:15:00 16.2 C 85 % 13.68 C
2428 03-07-2016 12:20:00 16 C 86 % 13.66 C
2429 03-07-2016 12:25:00 15.8 C 87 % 13.64 C
2430 03-07-2016 12:30:00 15.6 C 88 % 13.62 C
2431 03-07-2016 12:35:00 15.5 C 89 % 13.7 C
2432 03-07-2016 12:40:00 15.4 C 90 % 13.77 C
2433 03-07-2016 12:45:00 15.5 C 91 % 14.04 C
2434 03-07-2016 12:50:00 15.4 C 89 % 13.6 C
2435 03-07-2016 12:55:00 15.4 C 89 % 13.6 C
2436 03-07-2016 13:00:00 15.4 C 88 % 13.42 C
2437 03-07-2016 13:05:00 15.7 C 89 % 13.89 C
2438 03-07-2016 13:10:00 15.9 C 89 % 14.09 C
2439 03-07-2016 13:15:00 16.2 C 84 % 13.5 C
2440 03-07-2016 13:20:00 16.4 C 84 % 13.69 C
2441 03-07-2016 13:25:00 16.7 C 84 % 13.98 C
2442 03-07-2016 13:30:00 17 C 79 % 13.33 C
2443 03-07-2016 13:35:00 17.2 C 79 % 13.53 C
2444 03-07-2016 13:40:00 17.2 C 80 % 13.72 C
2445 03-07-2016 13:45:00 17.3 C 81 % 14.01 C
2446 03-07-2016 13:50:00 17.4 C 79 % 13.72 C
2447 03-07-2016 13:55:00 17.6 C 77 % 13.52 C
2448 03-07-2016 14:00:00 17.7 C 76 % 13.42 C
2449 03-07-2016 14:05:00 17.5 C 75 % 13.02 C
2450 03-07-2016 14:10:00 17.1 C 69 % 11.37 C
Sensor: Nr:Datum:Temp:Feuchte:Taupunkt:
Aussen-T/F 2451 03-07-2016 14:15:00 16.2 C 71 % 10.94 C
2452 03-07-2016 14:20:00 15.4 C 79 % 11.78 C
2453 03-07-2016 14:25:00 14.8 C 82 % 11.76 C
2454 03-07-2016 14:30:00 14.3 C 85 % 11.81 C
2455 03-07-2016 14:35:00 14.1 C 87 % 11.97 C
2456 03-07-2016 14:40:00 14.1 C 89 % 12.32 C
2457 03-07-2016 14:45:00 14.1 C 90 % 12.49 C
2458 03-07-2016 14:50:00 14.2 C 91 % 12.75 C
2459 03-07-2016 14:55:00 14.6 C 92 % 13.32 C
2460 03-07-2016 15:00:00 14.8 C 92 % 13.51 C
2461 03-07-2016 15:05:00 14.9 C 91 % 13.44 C
2462 03-07-2016 15:10:00 15.2 C 91 % 13.74 C
2463 03-07-2016 15:15:00 15.4 C 91 % 13.94 C
2464 03-07-2016 15:20:00 15.6 C 90 % 13.97 C
2465 03-07-2016 15:25:00 15.8 C 91 % 14.33 C
2466 03-07-2016 15:30:00 16.2 C 92 % 14.9 C
2467 03-07-2016 15:35:00 16.5 C 90 % 14.85 C
2468 03-07-2016 15:40:00 16.9 C 90 % 15.25 C
2469 03-07-2016 15:45:00 17.2 C 88 % 15.2 C
2470 03-07-2016 15:50:00 17.8 C 84 % 15.06 C
2471 03-07-2016 15:55:00 18.4 C 82 % 15.27 C
2472 03-07-2016 16:00:00 18.9 C 82 % 15.76 C
2473 03-07-2016 16:05:00 19.3 C 80 % 15.76 C
2474 03-07-2016 16:10:00 19.7 C 75 % 15.15 C
2475 03-07-2016 16:15:00 19.9 C 74 % 15.13 C
Sensor: Nr:Datum:Temp:Feuchte:Taupunkt:
Aussen-T/F 2476 03-07-2016 16:20:00 19.9 C 74 % 15.13 C
2477 03-07-2016 16:25:00 20.2 C 74 % 15.42 C
2478 03-07-2016 16:30:00 20.4 C 71 % 14.97 C
2479 03-07-2016 16:35:00 20.7 C 70 % 15.03 C
2480 03-07-2016 16:40:00 20.7 C 70 % 15.03 C
2481 03-07-2016 16:45:00 20.7 C 70 % 15.03 C
2482 03-07-2016 16:50:00 21 C 71 % 15.54 C
2483 03-07-2016 16:55:00 21.2 C 68 % 15.06 C
2484 03-07-2016 17:00:00 21.3 C 64 % 14.22 C
2485 03-07-2016 17:05:00 21.4 C 64 % 14.31 C
2486 03-07-2016 17:10:00 21.2 C 60 % 13.13 C
2487 03-07-2016 17:15:00 20.2 C 63 % 12.94 C
2488 03-07-2016 17:20:00 19.2 C 66 % 12.7 C
2489 03-07-2016 17:25:00 18.6 C 71 % 13.24 C
2490 03-07-2016 17:30:00 18.2 C 76 % 13.9 C
2491 03-07-2016 17:35:00 18 C 77 % 13.91 C
2492 03-07-2016 17:40:00 17.9 C 78 % 14.01 C
2493 03-07-2016 17:45:00 18.2 C 72 % 13.07 C
2494 03-07-2016 17:50:00 18.7 C 70 % 13.12 C
2495 03-07-2016 17:55:00 18.9 C 68 % 12.87 C
2496 03-07-2016 18:00:00 18.9 C 71 % 13.53 C
2497 03-07-2016 18:05:00 18.9 C 73 % 13.96 C
2498 03-07-2016 18:10:00 18.9 C 69 % 13.09 C
2499 03-07-2016 18:15:00 19 C 74 % 14.26 C
2500 03-07-2016 18:20:00 18.9 C 70 % 13.31 C
Sensor: Nr:Datum:Temp:Feuchte:Taupunkt:
Aussen-T/F 2501 03-07-2016 18:25:00 18.8 C 74 % 14.07 C
2502 03-07-2016 18:30:00 18.7 C 76 % 14.39 C
2503 03-07-2016 18:35:00 18.6 C 77 % 14.49 C
2504 03-07-2016 18:40:00 18.8 C 77 % 14.68 C
2505 03-07-2016 18:45:00 19.4 C 73 % 14.44 C
2506 03-07-2016 18:50:00 20.1 C 67 % 13.78 C
2507 03-07-2016 18:55:00 20 C 65 % 13.22 C
2508 03-07-2016 19:00:00 19.8 C 67 % 13.5 C
2509 03-07-2016 19:05:00 20.1 C 67 % 13.78 C
2510 03-07-2016 19:10:00 20.1 C 66 % 13.55 C
2511 03-07-2016 19:15:00 19.9 C 68 % 13.82 C
2512 03-07-2016 19:20:00 19.7 C 72 % 14.51 C
2513 03-07-2016 19:25:00 19.4 C 73 % 14.44 C
2514 03-07-2016 19:30:00 19.1 C 75 % 14.57 C
2515 03-07-2016 19:35:00 18.8 C 78 % 14.88 C
2516 03-07-2016 19:40:00 18.4 C 79 % 14.69 C
2517 03-07-2016 19:45:00 18.1 C 79 % 14.4 C
2518 03-07-2016 19:50:00 17.8 C 78 % 13.91 C
2519 03-07-2016 19:55:00 17.7 C 79 % 14.01 C
2520 03-07-2016 20:00:00 17.8 C 79 % 14.11 C
2521 03-07-2016 20:05:00 18.1 C 81 % 14.79 C
2522 03-07-2016 20:10:00 18.2 C 80 % 14.69 C
2523 03-07-2016 20:15:00 18.1 C 80 % 14.6 C
2524 03-07-2016 20:20:00 17.8 C 80 % 14.31 C
2525 03-07-2016 20:25:00 17.5 C 80 % 14.01 C
Sensor: Nr:Datum:Temp:Feuchte:Taupunkt:
Aussen-T/F 2526 03-07-2016 20:30:00 17.3 C 80 % 13.82 C
2527 03-07-2016 20:35:00 17 C 81 % 13.72 C
2528 03-07-2016 20:40:00 16.8 C 81 % 13.52 C
2529 03-07-2016 20:45:00 16.7 C 81 % 13.43 C
2530 03-07-2016 20:50:00 16.6 C 81 % 13.33 C
2531 03-07-2016 20:55:00 16.4 C 82 % 13.32 C
2532 03-07-2016 21:00:00 16.3 C 82 % 13.22 C
2533 03-07-2016 21:05:00 16.2 C 82 % 13.13 C
2534 03-07-2016 21:10:00 16 C 82 % 12.93 C
2535 03-07-2016 21:15:00 15.8 C 81 % 12.55 C
2536 03-07-2016 21:20:00 15.7 C 81 % 12.45 C
2537 03-07-2016 21:25:00 15.7 C 82 % 12.64 C
2538 03-07-2016 21:30:00 15.7 C 82 % 12.64 C
2539 03-07-2016 21:35:00 15.6 C 81 % 12.35 C
2540 03-07-2016 21:40:00 15.6 C 82 % 12.54 C
2541 03-07-2016 21:45:00 15.5 C 83 % 12.63 C
2542 03-07-2016 21:50:00 15.5 C 83 % 12.63 C
2543 03-07-2016 21:55:00 15.4 C 83 % 12.53 C
2544 03-07-2016 22:00:00 15.4 C 83 % 12.53 C
2545 03-07-2016 22:05:00 15.3 C 83 % 12.43 C
2546 03-07-2016 22:10:00 15.3 C 83 % 12.43 C
2547 03-07-2016 22:15:00 15.2 C 83 % 12.33 C
2548 03-07-2016 22:20:00 15.2 C 85 % 12.7 C
2549 03-07-2016 22:25:00 15.2 C 85 % 12.7 C
2550 03-07-2016 22:30:00 15.1 C 85 % 12.6 C
Sensor: Nr:Datum:Temp:Feuchte:Taupunkt:
Aussen-T/F 2551 03-07-2016 22:35:00 15.1 C 86 % 12.78 C
2552 03-07-2016 22:40:00 15.1 C 86 % 12.78 C
2553 03-07-2016 22:45:00 15.1 C 86 % 12.78 C
2554 03-07-2016 22:50:00 15 C 87 % 12.86 C
2555 03-07-2016 22:55:00 15 C 87 % 12.86 C
2556 03-07-2016 23:00:00 15 C 87 % 12.86 C
2557 03-07-2016 23:05:00 15 C 88 % 13.03 C
2558 03-07-2016 23:10:00 14.9 C 88 % 12.93 C
2559 03-07-2016 23:15:00 14.8 C 87 % 12.66 C
2560 03-07-2016 23:20:00 14.6 C 87 % 12.46 C
2561 03-07-2016 23:25:00 14.5 C 87 % 12.36 C
2562 03-07-2016 23:30:00 14.4 C 88 % 12.44 C
2563 03-07-2016 23:35:00 14.3 C 88 % 12.34 C
2564 03-07-2016 23:40:00 14.2 C 87 % 12.07 C
2565 03-07-2016 23:45:00 14.1 C 87 % 11.97 C
2566 03-07-2016 23:50:00 13.9 C 88 % 11.95 C
2567 03-07-2016 23:55:00 13.9 C 88 % 11.95 C
2568 04-07-2016 00:00:00 13.8 C 88 % 11.85 C
2569 04-07-2016 00:05:00 13.7 C 88 % 11.75 C
2570 04-07-2016 00:10:00 13.6 C 88 % 11.65 C
2571 04-07-2016 00:15:00 13.4 C 88 % 11.45 C
2572 04-07-2016 00:20:00 13.3 C 89 % 11.53 C
2573 04-07-2016 00:25:00 13.1 C 89 % 11.33 C
2574 04-07-2016 00:30:00 13 C 89 % 11.23 C
2575 04-07-2016 00:35:00 12.8 C 90 % 11.2 C
Sensor: Nr:Datum:Temp:Feuchte:Taupunkt:
Aussen-T/F 2576 04-07-2016 00:40:00 12.7 C 90 % 11.1 C
2577 04-07-2016 00:45:00 12.6 C 90 % 11 C
2578 04-07-2016 00:50:00 12.5 C 90 % 10.91 C
2579 04-07-2016 00:55:00 12.3 C 91 % 10.87 C
2580 04-07-2016 01:00:00 12.2 C 91 % 10.78 C
2581 04-07-2016 01:05:00 12.2 C 91 % 10.78 C
2582 04-07-2016 01:10:00 12.1 C 91 % 10.68 C
2583 04-07-2016 01:15:00 12 C 92 % 10.74 C
2584 04-07-2016 01:20:00 11.9 C 92 % 10.64 C
2585 04-07-2016 01:25:00 11.8 C 92 % 10.54 C
2586 04-07-2016 01:30:00 11.8 C 92 % 10.54 C
2587 04-07-2016 01:35:00 11.7 C 92 % 10.44 C
2588 04-07-2016 01:40:00 11.7 C 93 % 10.61 C
2589 04-07-2016 01:45:00 11.6 C 93 % 10.51 C
2590 04-07-2016 01:50:00 11.6 C 93 % 10.51 C
2591 04-07-2016 01:55:00 11.6 C 93 % 10.51 C
2592 04-07-2016 02:00:00 11.6 C 93 % 10.51 C
2593 04-07-2016 02:05:00 11.6 C 93 % 10.51 C
2594 04-07-2016 02:10:00 11.5 C 93 % 10.41 C
2595 04-07-2016 02:15:00 11.4 C 93 % 10.31 C
2596 04-07-2016 02:20:00 11.5 C 94 % 10.57 C
2597 04-07-2016 02:25:00 11.6 C 94 % 10.67 C
2598 04-07-2016 02:30:00 11.7 C 94 % 10.77 C
2599 04-07-2016 02:35:00 11.8 C 94 % 10.87 C
2600 04-07-2016 02:40:00 11.8 C 94 % 10.87 C
Sensor: Nr:Datum:Temp:Feuchte:Taupunkt:
Aussen-T/F 2601 04-07-2016 02:45:00 11.9 C 94 % 10.97 C
2602 04-07-2016 02:50:00 12 C 94 % 11.07 C
2603 04-07-2016 02:55:00 12.1 C 94 % 11.16 C
2604 04-07-2016 03:00:00 12.1 C 94 % 11.16 C
2605 04-07-2016 03:05:00 12.2 C 93 % 11.1 C
2606 04-07-2016 03:10:00 12.2 C 93 % 11.1 C
2607 04-07-2016 03:15:00 12.2 C 93 % 11.1 C
2608 04-07-2016 03:20:00 12.2 C 93 % 11.1 C
2609 04-07-2016 03:25:00 12.2 C 93 % 11.1 C
2610 04-07-2016 03:30:00 12.2 C 93 % 11.1 C
2611 04-07-2016 03:35:00 12.2 C 93 % 11.1 C
2612 04-07-2016 03:40:00 12.2 C 93 % 11.1 C
2613 04-07-2016 03:45:00 12.2 C 93 % 11.1 C
2614 04-07-2016 03:50:00 12.2 C 93 % 11.1 C
2615 04-07-2016 03:55:00 12.2 C 93 % 11.1 C
2616 04-07-2016 04:00:00 12.1 C 93 % 11 C
2617 04-07-2016 04:05:00 12.1 C 93 % 11 C
2618 04-07-2016 04:10:00 12.1 C 93 % 11 C
2619 04-07-2016 04:15:00 12.1 C 93 % 11 C
2620 04-07-2016 04:20:00 12.1 C 93 % 11 C
2621 04-07-2016 04:25:00 12.1 C 93 % 11 C
2622 04-07-2016 04:30:00 12 C 94 % 11.07 C
2623 04-07-2016 04:35:00 12 C 94 % 11.07 C
2624 04-07-2016 04:40:00 12 C 94 % 11.07 C
2625 04-07-2016 04:45:00 12 C 94 % 11.07 C
Sensor: Nr:Datum:Temp:Feuchte:Taupunkt:
Aussen-T/F 2626 04-07-2016 04:50:00 12.1 C 94 % 11.16 C
2627 04-07-2016 04:55:00 12.1 C 94 % 11.16 C
2628 04-07-2016 05:00:00 12.1 C 94 % 11.16 C
2629 04-07-2016 05:05:00 12.1 C 94 % 11.16 C
2630 04-07-2016 05:10:00 12.2 C 94 % 11.26 C
2631 04-07-2016 05:15:00 12.2 C 94 % 11.26 C
2632 04-07-2016 05:20:00 12.2 C 94 % 11.26 C
2633 04-07-2016 05:25:00 12.2 C 94 % 11.26 C
2634 04-07-2016 05:30:00 12.2 C 94 % 11.26 C
2635 04-07-2016 05:35:00 12.2 C 94 % 11.26 C
2636 04-07-2016 05:40:00 12.3 C 94 % 11.36 C
2637 04-07-2016 05:45:00 12.3 C 94 % 11.36 C
2638 04-07-2016 05:50:00 12.3 C 94 % 11.36 C
2639 04-07-2016 05:55:00 12.3 C 94 % 11.36 C
2640 04-07-2016 06:00:00 12.3 C 94 % 11.36 C
2641 04-07-2016 06:05:00 12.3 C 94 % 11.36 C
2642 04-07-2016 06:10:00 12.4 C 94 % 11.46 C
2643 04-07-2016 06:15:00 12.4 C 94 % 11.46 C
2644 04-07-2016 06:20:00 12.4 C 94 % 11.46 C
2645 04-07-2016 06:25:00 12.5 C 94 % 11.56 C
2646 04-07-2016 06:30:00 12.5 C 94 % 11.56 C
2647 04-07-2016 06:35:00 12.6 C 94 % 11.66 C
2648 04-07-2016 06:40:00 12.6 C 94 % 11.66 C
2649 04-07-2016 06:45:00 12.6 C 94 % 11.66 C
2650 04-07-2016 06:50:00 12.7 C 94 % 11.76 C
Sensor: Nr:Datum:Temp:Feuchte:Taupunkt:
Aussen-T/F 2651 04-07-2016 06:55:00 12.7 C 94 % 11.76 C
2652 04-07-2016 07:00:00 12.8 C 93 % 11.7 C
2653 04-07-2016 07:05:00 12.9 C 93 % 11.8 C
2654 04-07-2016 07:10:00 13 C 93 % 11.9 C
2655 04-07-2016 07:15:00 13.1 C 93 % 11.99 C
2656 04-07-2016 07:20:00 13.2 C 93 % 12.09 C
2657 04-07-2016 07:25:00 13.3 C 93 % 12.19 C
2658 04-07-2016 07:30:00 13.4 C 92 % 12.13 C
2659 04-07-2016 07:35:00 13.6 C 93 % 12.49 C
2660 04-07-2016 07:40:00 13.7 C 92 % 12.42 C
2661 04-07-2016 07:45:00 13.8 C 92 % 12.52 C
2662 04-07-2016 07:50:00 13.8 C 91 % 12.36 C
2663 04-07-2016 07:55:00 13.9 C 91 % 12.46 C
2664 04-07-2016 08:00:00 14.1 C 91 % 12.65 C
2665 04-07-2016 08:05:00 14.2 C 90 % 12.58 C
2666 04-07-2016 08:10:00 14.3 C 90 % 12.68 C
2667 04-07-2016 08:15:00 14.4 C 89 % 12.61 C
2668 04-07-2016 08:20:00 14.6 C 90 % 12.98 C
2669 04-07-2016 08:25:00 14.7 C 90 % 13.08 C
2670 04-07-2016 08:30:00 14.8 C 89 % 13.01 C
2671 04-07-2016 08:35:00 14.9 C 89 % 13.1 C
2672 04-07-2016 08:40:00 15 C 89 % 13.2 C
2673 04-07-2016 08:45:00 15.2 C 88 % 13.23 C
2674 04-07-2016 08:50:00 15.3 C 88 % 13.33 C
2675 04-07-2016 08:55:00 15.4 C 88 % 13.42 C
Sensor: Nr:Datum:Temp:Feuchte:Taupunkt:
Aussen-T/F 2676 04-07-2016 09:00:00 15.4 C 88 % 13.42 C
2677 04-07-2016 09:05:00 15.5 C 88 % 13.52 C
2678 04-07-2016 09:10:00 15.7 C 88 % 13.72 C
2679 04-07-2016 09:15:00 15.8 C 88 % 13.82 C
2680 04-07-2016 09:20:00 16.1 C 87 % 13.94 C
2681 04-07-2016 09:25:00 16.3 C 87 % 14.13 C
2682 04-07-2016 09:30:00 16.6 C 87 % 14.43 C
2683 04-07-2016 09:35:00 16.9 C 86 % 14.54 C
2684 04-07-2016 09:40:00 17.1 C 83 % 14.19 C
2685 04-07-2016 09:45:00 17.3 C 81 % 14.01 C
2686 04-07-2016 09:50:00 17.5 C 80 % 14.01 C
2687 04-07-2016 09:55:00 17.7 C 81 % 14.4 C
2688 04-07-2016 10:00:00 17.8 C 79 % 14.11 C
2689 04-07-2016 10:05:00 17.9 C 78 % 14.01 C
2690 04-07-2016 10:10:00 17.9 C 77 % 13.81 C
2691 04-07-2016 10:15:00 18.1 C 80 % 14.6 C
2692 04-07-2016 10:20:00 18.2 C 78 % 14.3 C
2693 04-07-2016 10:25:00 18.3 C 78 % 14.4 C
2694 04-07-2016 10:30:00 18.4 C 76 % 14.1 C
2695 04-07-2016 10:35:00 18.5 C 78 % 14.59 C
2696 04-07-2016 10:40:00 18.6 C 77 % 14.49 C
2697 04-07-2016 10:45:00 18.7 C 76 % 14.39 C
2698 04-07-2016 10:50:00 18.8 C 76 % 14.48 C
2699 04-07-2016 10:55:00 18.9 C 76 % 14.58 C
2700 04-07-2016 11:00:00 18.9 C 79 % 15.18 C
Sensor: Nr:Datum:Temp:Feuchte:Taupunkt:
Aussen-T/F 2701 04-07-2016 11:05:00 18.9 C 76 % 14.58 C
2702 04-07-2016 11:10:00 18.9 C 77 % 14.78 C
2703 04-07-2016 11:15:00 18.9 C 77 % 14.78 C
2704 04-07-2016 11:20:00 19.1 C 77 % 14.97 C
2705 04-07-2016 11:25:00 19.3 C 78 % 15.37 C
2706 04-07-2016 11:30:00 19.3 C 75 % 14.76 C
2707 04-07-2016 11:35:00 19.3 C 76 % 14.97 C
2708 04-07-2016 11:40:00 19.3 C 74 % 14.55 C
2709 04-07-2016 11:45:00 19.2 C 79 % 15.47 C
2710 04-07-2016 11:50:00 19.1 C 81 % 15.76 C
2711 04-07-2016 11:55:00 19 C 80 % 15.47 C
2712 04-07-2016 12:00:00 18.8 C 79 % 15.08 C
2713 04-07-2016 12:05:00 18.6 C 81 % 15.28 C
2714 04-07-2016 12:10:00 18.3 C 82 % 15.17 C
2715 04-07-2016 12:15:00 18 C 84 % 15.26 C
2716 04-07-2016 12:20:00 17.8 C 86 % 15.43 C
2717 04-07-2016 12:25:00 17.8 C 87 % 15.61 C
2718 04-07-2016 12:30:00 17.9 C 85 % 15.34 C
2719 04-07-2016 12:35:00 18.1 C 85 % 15.54 C
2720 04-07-2016 12:40:00 18.2 C 86 % 15.82 C
2721 04-07-2016 12:45:00 18.4 C 84 % 15.65 C
2722 04-07-2016 12:50:00 18.7 C 84 % 15.94 C
2723 04-07-2016 12:55:00 18.8 C 82 % 15.66 C
2724 04-07-2016 13:00:00 18.9 C 82 % 15.76 C
2725 04-07-2016 13:05:00 18.9 C 82 % 15.76 C
Sensor: Nr:Datum:Temp:Feuchte:Taupunkt:
Aussen-T/F 2726 04-07-2016 13:10:00 18.9 C 82 % 15.76 C
2727 04-07-2016 13:15:00 18.9 C 81 % 15.57 C
2728 04-07-2016 13:20:00 19 C 85 % 16.42 C
2729 04-07-2016 13:25:00 19.1 C 83 % 16.15 C
2730 04-07-2016 13:30:00 19 C 81 % 15.67 C
2731 04-07-2016 13:35:00 19.1 C 80 % 15.57 C
2732 04-07-2016 13:40:00 19.1 C 80 % 15.57 C
2733 04-07-2016 13:45:00 19.1 C 81 % 15.76 C
2734 04-07-2016 13:50:00 19.2 C 82 % 16.05 C
2735 04-07-2016 13:55:00 19.4 C 80 % 15.86 C
2736 04-07-2016 14:00:00 19.5 C 78 % 15.56 C
2737 04-07-2016 14:05:00 19.7 C 79 % 15.96 C
2738 04-07-2016 14:10:00 19.9 C 78 % 15.95 C
2739 04-07-2016 14:15:00 20.1 C 76 % 15.74 C
2740 04-07-2016 14:20:00 20.1 C 76 % 15.74 C
2741 04-07-2016 14:25:00 20.1 C 79 % 16.34 C
2742 04-07-2016 14:30:00 20.2 C 76 % 15.83 C
2743 04-07-2016 14:35:00 20.3 C 78 % 16.34 C
2744 04-07-2016 14:40:00 20.3 C 76 % 15.93 C
2745 04-07-2016 14:45:00 20.2 C 75 % 15.63 C
2746 04-07-2016 14:50:00 20.1 C 77 % 15.94 C
2747 04-07-2016 14:55:00 20.1 C 78 % 16.14 C
2748 04-07-2016 15:00:00 20.2 C 77 % 16.04 C
2749 04-07-2016 15:05:00 20.3 C 76 % 15.93 C
2750 04-07-2016 15:10:00 20.5 C 76 % 16.12 C
Sensor: Nr:Datum:Temp:Feuchte:Taupunkt:
Aussen-T/F 2751 04-07-2016 15:15:00 20.8 C 77 % 16.62 C
2752 04-07-2016 15:20:00 20.9 C 75 % 16.3 C
2753 04-07-2016 15:25:00 20.9 C 74 % 16.09 C
2754 04-07-2016 15:30:00 21 C 75 % 16.4 C
2755 04-07-2016 15:35:00 21 C 74 % 16.19 C
2756 04-07-2016 15:40:00 21.1 C 74 % 16.29 C
2757 04-07-2016 15:45:00 21.1 C 73 % 16.07 C
2758 04-07-2016 15:50:00 21 C 74 % 16.19 C
2759 04-07-2016 15:55:00 20.9 C 74 % 16.09 C
2760 04-07-2016 16:00:00 20.8 C 75 % 16.21 C
2761 04-07-2016 16:05:00 20.7 C 77 % 16.52 C
2762 04-07-2016 16:10:00 20.8 C 76 % 16.41 C
2763 04-07-2016 16:15:00 20.9 C 74 % 16.09 C
2764 04-07-2016 16:20:00 20.9 C 75 % 16.3 C
2765 04-07-2016 16:25:00 21 C 76 % 16.61 C
2766 04-07-2016 16:30:00 21.1 C 77 % 16.91 C
2767 04-07-2016 16:35:00 21.2 C 78 % 17.21 C
2768 04-07-2016 16:40:00 21.4 C 76 % 16.99 C
2769 04-07-2016 16:45:00 21.7 C 76 % 17.28 C
2770 04-07-2016 16:50:00 22.1 C 73 % 17.03 C
2771 04-07-2016 16:55:00 22.4 C 73 % 17.32 C
2772 04-07-2016 17:00:00 22.3 C 73 % 17.23 C
2773 04-07-2016 17:05:00 22.4 C 73 % 17.32 C
2774 04-07-2016 17:10:00 22.8 C 71 % 17.27 C
2775 04-07-2016 17:15:00 22.9 C 69 % 16.91 C
Sensor: Nr:Datum:Temp:Feuchte:Taupunkt:
Aussen-T/F 2776 04-07-2016 17:20:00 23.1 C 67 % 16.64 C
2777 04-07-2016 17:25:00 23.3 C 69 % 17.29 C
2778 04-07-2016 17:30:00 23.5 C 69 % 17.48 C
2779 04-07-2016 17:35:00 23.6 C 63 % 16.14 C
2780 04-07-2016 17:40:00 23.6 C 65 % 16.64 C
2781 04-07-2016 17:45:00 23.7 C 67 % 17.21 C
2782 04-07-2016 17:50:00 23.8 C 64 % 16.58 C
2783 04-07-2016 17:55:00 24.1 C 63 % 16.62 C
2784 04-07-2016 18:00:00 24.4 C 63 % 16.9 C
2785 04-07-2016 18:05:00 24.6 C 62 % 16.84 C
2786 04-07-2016 18:10:00 24.5 C 62 % 16.74 C
2787 04-07-2016 18:15:00 24.6 C 62 % 16.84 C
2788 04-07-2016 18:20:00 24.6 C 62 % 16.84 C
2789 04-07-2016 18:25:00 24.7 C 64 % 17.43 C
2790 04-07-2016 18:30:00 24.5 C 63 % 16.99 C
2791 04-07-2016 18:35:00 24.4 C 64 % 17.15 C
2792 04-07-2016 18:40:00 24.8 C 64 % 17.53 C
2793 04-07-2016 18:45:00 25.1 C 62 % 17.31 C
2794 04-07-2016 18:50:00 25.2 C 63 % 17.65 C
2795 04-07-2016 18:55:00 25.4 C 62 % 17.59 C
2796 04-07-2016 19:00:00 25.3 C 62 % 17.5 C
2797 04-07-2016 19:05:00 24.9 C 63 % 17.37 C
2798 04-07-2016 19:10:00 24.5 C 65 % 17.49 C
2799 04-07-2016 19:15:00 24.2 C 66 % 17.45 C
2800 04-07-2016 19:20:00 23.9 C 65 % 16.92 C
Sensor: Nr:Datum:Temp:Feuchte:Taupunkt:
Aussen-T/F 2801 04-07-2016 19:25:00 23.8 C 68 % 17.54 C
2802 04-07-2016 19:30:00 23.7 C 66 % 16.97 C
2803 04-07-2016 19:35:00 23.5 C 68 % 17.25 C
2804 04-07-2016 19:40:00 23.4 C 68 % 17.16 C
2805 04-07-2016 19:45:00 23.3 C 69 % 17.29 C
2806 04-07-2016 19:50:00 23.1 C 67 % 16.64 C
2807 04-07-2016 19:55:00 22.9 C 69 % 16.91 C
2808 04-07-2016 20:00:00 22.8 C 71 % 17.27 C
2809 04-07-2016 20:05:00 22.7 C 74 % 17.83 C
2810 04-07-2016 20:10:00 22.7 C 72 % 17.39 C
2811 04-07-2016 20:15:00 22.7 C 73 % 17.61 C
2812 04-07-2016 20:20:00 22.8 C 73 % 17.71 C
2813 04-07-2016 20:25:00 22.8 C 74 % 17.92 C
2814 04-07-2016 20:30:00 22.7 C 74 % 17.83 C
2815 04-07-2016 20:35:00 22.5 C 74 % 17.63 C
2816 04-07-2016 20:40:00 22.2 C 75 % 17.56 C
2817 04-07-2016 20:45:00 21.9 C 76 % 17.48 C
2818 04-07-2016 20:50:00 21.7 C 76 % 17.28 C
2819 04-07-2016 20:55:00 21.4 C 77 % 17.2 C
2820 04-07-2016 21:00:00 21.1 C 77 % 16.91 C
2821 04-07-2016 21:05:00 20.8 C 78 % 16.82 C
2822 04-07-2016 21:10:00 20.6 C 78 % 16.63 C
2823 04-07-2016 21:15:00 20.4 C 79 % 16.64 C
2824 04-07-2016 21:20:00 20.3 C 80 % 16.74 C
2825 04-07-2016 21:25:00 20.2 C 80 % 16.64 C
Sensor: Nr:Datum:Temp:Feuchte:Taupunkt:
Aussen-T/F 2826 04-07-2016 21:30:00 20.1 C 81 % 16.74 C
2827 04-07-2016 21:35:00 19.9 C 81 % 16.54 C
2828 04-07-2016 21:40:00 19.8 C 82 % 16.64 C
2829 04-07-2016 21:45:00 19.6 C 82 % 16.44 C
2830 04-07-2016 21:50:00 19.4 C 83 % 16.44 C
2831 04-07-2016 21:55:00 19.2 C 84 % 16.43 C
2832 04-07-2016 22:00:00 19.1 C 84 % 16.33 C
2833 04-07-2016 22:05:00 19 C 85 % 16.42 C
2834 04-07-2016 22:10:00 18.9 C 85 % 16.32 C
2835 04-07-2016 22:15:00 18.8 C 85 % 16.23 C
2836 04-07-2016 22:20:00 18.8 C 86 % 16.41 C
2837 04-07-2016 22:25:00 18.7 C 86 % 16.31 C
2838 04-07-2016 22:30:00 18.7 C 86 % 16.31 C
2839 04-07-2016 22:35:00 18.6 C 87 % 16.39 C
2840 04-07-2016 22:40:00 18.5 C 87 % 16.3 C
2841 04-07-2016 22:45:00 18.4 C 87 % 16.2 C
2842 04-07-2016 22:50:00 18.4 C 88 % 16.38 C
2843 04-07-2016 22:55:00 18.4 C 88 % 16.38 C
2844 04-07-2016 23:00:00 18.3 C 88 % 16.28 C
2845 04-07-2016 23:05:00 18.3 C 88 % 16.28 C
2846 04-07-2016 23:10:00 18.3 C 88 % 16.28 C
2847 04-07-2016 23:15:00 18.3 C 88 % 16.28 C
2848 04-07-2016 23:20:00 18.3 C 88 % 16.28 C
2849 04-07-2016 23:25:00 18.3 C 88 % 16.28 C
2850 04-07-2016 23:30:00 18.3 C 88 % 16.28 C
Sensor: Nr:Datum:Temp:Feuchte:Taupunkt:
Aussen-T/F 2851 04-07-2016 23:35:00 18.2 C 88 % 16.18 C
2852 04-07-2016 23:40:00 18.2 C 89 % 16.36 C
2853 04-07-2016 23:45:00 18.1 C 89 % 16.26 C
2854 04-07-2016 23:50:00 18.1 C 89 % 16.26 C
2855 04-07-2016 23:55:00 18 C 89 % 16.16 C
2856 05-07-2016 00:00:00 18 C 89 % 16.16 C
2857 05-07-2016 00:05:00 17.9 C 90 % 16.24 C
2858 05-07-2016 00:10:00 17.9 C 90 % 16.24 C
2859 05-07-2016 00:15:00 17.9 C 90 % 16.24 C
2860 05-07-2016 00:20:00 17.9 C 90 % 16.24 C
2861 05-07-2016 00:25:00 17.8 C 90 % 16.14 C
2862 05-07-2016 00:30:00 17.8 C 90 % 16.14 C
2863 05-07-2016 00:35:00 17.8 C 90 % 16.14 C
2864 05-07-2016 00:40:00 17.8 C 90 % 16.14 C
2865 05-07-2016 00:45:00 17.8 C 90 % 16.14 C
2866 05-07-2016 00:50:00 17.8 C 90 % 16.14 C
2867 05-07-2016 00:55:00 17.8 C 90 % 16.14 C
2868 05-07-2016 01:00:00 17.7 C 90 % 16.04 C
2869 05-07-2016 01:05:00 17.7 C 90 % 16.04 C
2870 05-07-2016 01:10:00 17.7 C 91 % 16.21 C
2871 05-07-2016 01:15:00 17.7 C 91 % 16.21 C
2872 05-07-2016 01:20:00 17.7 C 91 % 16.21 C
2873 05-07-2016 01:25:00 17.7 C 91 % 16.21 C
2874 05-07-2016 01:30:00 17.6 C 91 % 16.11 C
2875 05-07-2016 01:35:00 17.6 C 91 % 16.11 C
Sensor: Nr:Datum:Temp:Feuchte:Taupunkt:
Aussen-T/F 2876 05-07-2016 01:40:00 17.6 C 91 % 16.11 C
2877 05-07-2016 01:45:00 17.6 C 91 % 16.11 C
2878 05-07-2016 01:50:00 17.6 C 91 % 16.11 C
2879 05-07-2016 01:55:00 17.6 C 91 % 16.11 C
2880 05-07-2016 02:00:00 17.6 C 91 % 16.11 C
2881 05-07-2016 02:05:00 17.6 C 91 % 16.11 C
2882 05-07-2016 02:10:00 17.6 C 91 % 16.11 C
2883 05-07-2016 02:15:00 17.6 C 91 % 16.11 C
2884 05-07-2016 02:20:00 17.6 C 91 % 16.11 C
2885 05-07-2016 02:25:00 17.6 C 91 % 16.11 C
2886 05-07-2016 02:30:00 17.6 C 91 % 16.11 C
2887 05-07-2016 02:35:00 17.6 C 91 % 16.11 C
2888 05-07-2016 02:40:00 17.6 C 91 % 16.11 C
2889 05-07-2016 02:45:00 17.6 C 91 % 16.11 C
2890 05-07-2016 02:50:00 17.5 C 91 % 16.01 C
2891 05-07-2016 02:55:00 17.5 C 91 % 16.01 C
2892 05-07-2016 03:00:00 17.4 C 91 % 15.92 C
2893 05-07-2016 03:05:00 17.4 C 91 % 15.92 C
2894 05-07-2016 03:10:00 17.4 C 91 % 15.92 C
2895 05-07-2016 03:15:00 17.4 C 91 % 15.92 C
2896 05-07-2016 03:20:00 17.3 C 91 % 15.82 C
2897 05-07-2016 03:25:00 17.3 C 91 % 15.82 C
2898 05-07-2016 03:30:00 17.3 C 91 % 15.82 C
2899 05-07-2016 03:35:00 17.3 C 91 % 15.82 C
2900 05-07-2016 03:40:00 17.3 C 91 % 15.82 C
Sensor: Nr:Datum:Temp:Feuchte:Taupunkt:
Aussen-T/F 2901 05-07-2016 03:45:00 17.3 C 91 % 15.82 C
2902 05-07-2016 03:50:00 17.3 C 91 % 15.82 C
2903 05-07-2016 03:55:00 17.3 C 91 % 15.82 C
2904 05-07-2016 04:00:00 17.3 C 91 % 15.82 C
2905 05-07-2016 04:05:00 17.3 C 91 % 15.82 C
2906 05-07-2016 04:10:00 17.3 C 91 % 15.82 C
2907 05-07-2016 04:15:00 17.3 C 91 % 15.82 C
2908 05-07-2016 04:20:00 17.3 C 91 % 15.82 C
2909 05-07-2016 04:25:00 17.3 C 91 % 15.82 C
2910 05-07-2016 04:30:00 17.3 C 91 % 15.82 C
2911 05-07-2016 04:35:00 17.3 C 91 % 15.82 C
2912 05-07-2016 04:40:00 17.3 C 91 % 15.82 C
2913 05-07-2016 04:45:00 17.3 C 91 % 15.82 C
2914 05-07-2016 04:50:00 17.2 C 91 % 15.72 C
2915 05-07-2016 04:55:00 17.2 C 91 % 15.72 C
2916 05-07-2016 05:00:00 17.1 C 91 % 15.62 C
2917 05-07-2016 05:05:00 17.1 C 91 % 15.62 C
2918 05-07-2016 05:10:00 17.1 C 91 % 15.62 C
2919 05-07-2016 05:15:00 17 C 91 % 15.52 C
2920 05-07-2016 05:20:00 16.9 C 91 % 15.42 C
2921 05-07-2016 05:25:00 16.9 C 92 % 15.59 C
2922 05-07-2016 05:30:00 16.9 C 92 % 15.59 C
2923 05-07-2016 05:35:00 16.8 C 92 % 15.49 C
2924 05-07-2016 05:40:00 16.8 C 92 % 15.49 C
2925 05-07-2016 05:45:00 16.8 C 92 % 15.49 C
Sensor: Nr:Datum:Temp:Feuchte:Taupunkt:
Aussen-T/F 2926 05-07-2016 05:50:00 16.8 C 92 % 15.49 C
2927 05-07-2016 05:55:00 16.8 C 92 % 15.49 C
2928 05-07-2016 06:00:00 16.8 C 92 % 15.49 C
2929 05-07-2016 06:05:00 16.8 C 92 % 15.49 C
2930 05-07-2016 06:10:00 16.8 C 92 % 15.49 C
2931 05-07-2016 06:15:00 16.8 C 92 % 15.49 C
2932 05-07-2016 06:20:00 16.8 C 93 % 15.66 C
2933 05-07-2016 06:25:00 16.9 C 93 % 15.76 C
2934 05-07-2016 06:30:00 16.9 C 93 % 15.76 C
2935 05-07-2016 06:35:00 16.9 C 93 % 15.76 C
2936 05-07-2016 06:40:00 17 C 93 % 15.86 C
2937 05-07-2016 06:45:00 17 C 93 % 15.86 C
2938 05-07-2016 06:50:00 17.1 C 93 % 15.96 C
2939 05-07-2016 06:55:00 17.1 C 92 % 15.79 C
2940 05-07-2016 07:00:00 17.1 C 92 % 15.79 C
2941 05-07-2016 07:05:00 17.2 C 92 % 15.89 C
2942 05-07-2016 07:10:00 17.3 C 92 % 15.99 C
2943 05-07-2016 07:15:00 17.3 C 92 % 15.99 C
2944 05-07-2016 07:20:00 17.4 C 92 % 16.09 C
2945 05-07-2016 07:25:00 17.5 C 92 % 16.19 C
2946 05-07-2016 07:30:00 17.6 C 91 % 16.11 C
2947 05-07-2016 07:35:00 17.7 C 91 % 16.21 C
2948 05-07-2016 07:40:00 17.8 C 90 % 16.14 C
2949 05-07-2016 07:45:00 17.9 C 90 % 16.24 C
2950 05-07-2016 07:50:00 17.9 C 90 % 16.24 C
Sensor: Nr:Datum:Temp:Feuchte:Taupunkt:
Aussen-T/F 2951 05-07-2016 07:55:00 18.1 C 89 % 16.26 C
2952 05-07-2016 08:00:00 18.2 C 89 % 16.36 C
2953 05-07-2016 08:05:00 18.3 C 88 % 16.28 C
2954 05-07-2016 08:10:00 18.3 C 88 % 16.28 C
2955 05-07-2016 08:15:00 18.4 C 87 % 16.2 C
2956 05-07-2016 08:20:00 18.4 C 86 % 16.02 C
2957 05-07-2016 08:25:00 18.4 C 86 % 16.02 C
2958 05-07-2016 08:30:00 18.5 C 87 % 16.3 C
2959 05-07-2016 08:35:00 18.6 C 86 % 16.21 C
2960 05-07-2016 08:40:00 18.6 C 86 % 16.21 C
2961 05-07-2016 08:45:00 18.7 C 87 % 16.49 C
2962 05-07-2016 08:50:00 18.8 C 85 % 16.23 C
2963 05-07-2016 08:55:00 18.8 C 85 % 16.23 C
2964 05-07-2016 09:00:00 18.9 C 83 % 15.95 C
2965 05-07-2016 09:05:00 19.1 C 84 % 16.33 C
2966 05-07-2016 09:10:00 19.2 C 83 % 16.24 C
2967 05-07-2016 09:15:00 19.3 C 83 % 16.34 C
2968 05-07-2016 09:20:00 19.4 C 82 % 16.25 C
2969 05-07-2016 09:25:00 19.5 C 82 % 16.35 C
2970 05-07-2016 09:30:00 19.6 C 81 % 16.25 C
2971 05-07-2016 09:35:00 19.6 C 80 % 16.06 C
2972 05-07-2016 09:40:00 19.7 C 81 % 16.35 C
2973 05-07-2016 09:45:00 19.7 C 80 % 16.15 C
2974 05-07-2016 09:50:00 19.7 C 80 % 16.15 C
2975 05-07-2016 09:55:00 19.7 C 81 % 16.35 C
Sensor: Nr:Datum:Temp:Feuchte:Taupunkt:
Aussen-T/F 2976 05-07-2016 10:00:00 19.7 C 82 % 16.54 C
2977 05-07-2016 10:05:00 19.8 C 81 % 16.45 C
2978 05-07-2016 10:10:00 19.9 C 79 % 16.15 C
2979 05-07-2016 10:15:00 20.2 C 75 % 15.63 C
2980 05-07-2016 10:20:00 20.4 C 77 % 16.23 C
2981 05-07-2016 10:25:00 20.7 C 73 % 15.69 C
2982 05-07-2016 10:30:00 20.8 C 72 % 15.57 C
2983 05-07-2016 10:35:00 20.8 C 71 % 15.35 C
2984 05-07-2016 10:40:00 20.9 C 75 % 16.3 C
2985 05-07-2016 10:45:00 20.9 C 74 % 16.09 C
2986 05-07-2016 10:50:00 20.9 C 71 % 15.45 C
2987 05-07-2016 10:55:00 20.8 C 70 % 15.13 C
2988 05-07-2016 11:00:00 20.8 C 69 % 14.91 C
2989 05-07-2016 11:05:00 20.8 C 68 % 14.68 C
2990 05-07-2016 11:10:00 20.7 C 70 % 15.03 C
2991 05-07-2016 11:15:00 20.7 C 70 % 15.03 C
2992 05-07-2016 11:20:00 20.7 C 67 % 14.36 C
2993 05-07-2016 11:25:00 20.8 C 70 % 15.13 C
2994 05-07-2016 11:30:00 20.8 C 71 % 15.35 C
2995 05-07-2016 11:35:00 20.7 C 69 % 14.81 C
2996 05-07-2016 11:40:00 20.7 C 69 % 14.81 C
2997 05-07-2016 11:45:00 20.6 C 70 % 14.94 C
2998 05-07-2016 11:50:00 20.6 C 71 % 15.16 C
2999 05-07-2016 11:55:00 20.6 C 68 % 14.49 C
3000 05-07-2016 12:00:00 20.8 C 68 % 14.68 C
Sensor: Nr:Datum:Temp:Feuchte:Taupunkt:
Aussen-T/F 3001 05-07-2016 12:05:00 20.9 C 67 % 14.55 C
3002 05-07-2016 12:10:00 21 C 69 % 15.1 C
3003 05-07-2016 12:15:00 20.9 C 66 % 14.31 C
3004 05-07-2016 12:20:00 20.8 C 67 % 14.45 C
3005 05-07-2016 12:25:00 20.7 C 70 % 15.03 C
3006 05-07-2016 12:30:00 20.7 C 71 % 15.25 C
3007 05-07-2016 12:35:00 20.9 C 72 % 15.66 C
3008 05-07-2016 12:40:00 20.9 C 70 % 15.23 C
3009 05-07-2016 12:45:00 21.1 C 73 % 16.07 C
3010 05-07-2016 12:50:00 21 C 71 % 15.54 C
3011 05-07-2016 12:55:00 20.9 C 70 % 15.23 C
3012 05-07-2016 13:00:00 20.8 C 72 % 15.57 C
3013 05-07-2016 13:05:00 20.8 C 72 % 15.57 C
3014 05-07-2016 13:10:00 21 C 72 % 15.76 C
3015 05-07-2016 13:15:00 21.1 C 70 % 15.42 C
3016 05-07-2016 13:20:00 20.9 C 73 % 15.88 C
3017 05-07-2016 13:25:00 20.9 C 72 % 15.66 C
3018 05-07-2016 13:30:00 21 C 72 % 15.76 C
3019 05-07-2016 13:35:00 21.2 C 73 % 16.17 C
3020 05-07-2016 13:40:00 21.4 C 71 % 15.93 C
3021 05-07-2016 13:45:00 21.5 C 71 % 16.02 C
3022 05-07-2016 13:50:00 21.6 C 70 % 15.89 C
3023 05-07-2016 13:55:00 21.6 C 71 % 16.12 C
3024 05-07-2016 14:00:00 21.7 C 71 % 16.21 C
3025 05-07-2016 14:05:00 21.7 C 71 % 16.21 C
Sensor: Nr:Datum:Temp:Feuchte:Taupunkt:
Aussen-T/F 3026 05-07-2016 14:10:00 21.5 C 72 % 16.24 C
3027 05-07-2016 14:15:00 21.3 C 72 % 16.05 C
3028 05-07-2016 14:20:00 21.1 C 72 % 15.86 C
3029 05-07-2016 14:25:00 20.9 C 73 % 15.88 C
3030 05-07-2016 14:30:00 20.8 C 73 % 15.78 C
3031 05-07-2016 14:35:00 20.8 C 75 % 16.21 C
3032 05-07-2016 14:40:00 20.9 C 73 % 15.88 C
3033 05-07-2016 14:45:00 20.9 C 73 % 15.88 C
3034 05-07-2016 14:50:00 21.2 C 71 % 15.73 C
3035 05-07-2016 14:55:00 21.3 C 70 % 15.61 C
3036 05-07-2016 15:00:00 21.6 C 71 % 16.12 C
3037 05-07-2016 15:05:00 21.8 C 72 % 16.53 C
3038 05-07-2016 15:10:00 22.1 C 69 % 16.15 C
3039 05-07-2016 15:15:00 22.3 C 69 % 16.34 C
3040 05-07-2016 15:20:00 22.6 C 69 % 16.62 C
3041 05-07-2016 15:25:00 22.8 C 68 % 16.59 C
3042 05-07-2016 15:30:00 22.9 C 65 % 15.97 C
3043 05-07-2016 15:35:00 22.9 C 67 % 16.45 C
3044 05-07-2016 15:40:00 22.9 C 66 % 16.21 C
3045 05-07-2016 15:45:00 22.8 C 65 % 15.88 C
3046 05-07-2016 15:50:00 22.4 C 68 % 16.2 C
3047 05-07-2016 15:55:00 22.2 C 71 % 16.69 C
3048 05-07-2016 16:00:00 22 C 70 % 16.28 C
3049 05-07-2016 16:05:00 21.9 C 73 % 16.84 C
3050 05-07-2016 16:10:00 21.8 C 72 % 16.53 C
Sensor: Nr:Datum:Temp:Feuchte:Taupunkt:
Aussen-T/F 3051 05-07-2016 16:15:00 21.6 C 73 % 16.55 C
3052 05-07-2016 16:20:00 21.5 C 74 % 16.67 C
3053 05-07-2016 16:25:00 21.4 C 74 % 16.57 C
3054 05-07-2016 16:30:00 21.4 C 79 % 17.61 C
3055 05-07-2016 16:35:00 21.7 C 76 % 17.28 C
3056 05-07-2016 16:40:00 22 C 74 % 17.15 C
3057 05-07-2016 16:45:00 22.2 C 76 % 17.77 C
3058 05-07-2016 16:50:00 22.1 C 72 % 16.82 C
3059 05-07-2016 16:55:00 22 C 72 % 16.72 C
3060 05-07-2016 17:00:00 22.1 C 70 % 16.37 C
3061 05-07-2016 17:05:00 22.2 C 72 % 16.91 C
3062 05-07-2016 17:10:00 22.2 C 73 % 17.13 C
3063 05-07-2016 17:15:00 22 C 68 % 15.82 C
3064 05-07-2016 17:20:00 21.9 C 69 % 15.96 C
3065 05-07-2016 17:25:00 21.9 C 65 % 15.02 C
3066 05-07-2016 17:30:00 22.1 C 63 % 14.73 C
3067 05-07-2016 17:35:00 22.1 C 63 % 14.73 C
3068 05-07-2016 17:40:00 22.1 C 63 % 14.73 C
3069 05-07-2016 17:45:00 22.2 C 65 % 15.31 C
3070 05-07-2016 17:50:00 22.1 C 64 % 14.97 C
3071 05-07-2016 17:55:00 22.1 C 64 % 14.97 C
3072 05-07-2016 18:00:00 22.1 C 65 % 15.21 C
3073 05-07-2016 18:05:00 22.1 C 64 % 14.97 C
3074 05-07-2016 18:10:00 22 C 64 % 14.88 C
3075 05-07-2016 18:15:00 21.6 C 67 % 15.21 C
Sensor: Nr:Datum:Temp:Feuchte:Taupunkt:
Aussen-T/F 3076 05-07-2016 18:20:00 21 C 69 % 15.1 C
3077 05-07-2016 18:25:00 20.7 C 71 % 15.25 C
3078 05-07-2016 18:30:00 20.5 C 70 % 14.84 C
3079 05-07-2016 18:35:00 20.4 C 69 % 14.52 C
3080 05-07-2016 18:40:00 20.3 C 69 % 14.43 C
3081 05-07-2016 18:45:00 20.3 C 69 % 14.43 C
3082 05-07-2016 18:50:00 20.6 C 69 % 14.71 C
3083 05-07-2016 18:55:00 21.1 C 67 % 14.74 C
3084 05-07-2016 19:00:00 21.1 C 67 % 14.74 C
3085 05-07-2016 19:05:00 21.1 C 68 % 14.97 C
3086 05-07-2016 19:10:00 21 C 69 % 15.1 C
3087 05-07-2016 19:15:00 21.3 C 70 % 15.61 C
3088 05-07-2016 19:20:00 22 C 64 % 14.88 C
3089 05-07-2016 19:25:00 22.5 C 63 % 15.11 C
3090 05-07-2016 19:30:00 22.6 C 62 % 14.95 C
3091 05-07-2016 19:35:00 22.6 C 61 % 14.7 C
3092 05-07-2016 19:40:00 22.6 C 63 % 15.2 C
3093 05-07-2016 19:45:00 22.6 C 63 % 15.2 C
3094 05-07-2016 19:50:00 22.6 C 62 % 14.95 C
3095 05-07-2016 19:55:00 22.6 C 61 % 14.7 C
3096 05-07-2016 20:00:00 22.6 C 59 % 14.18 C
3097 05-07-2016 20:05:00 22.6 C 58 % 13.92 C
3098 05-07-2016 20:10:00 22.6 C 57 % 13.65 C
3099 05-07-2016 20:15:00 22.2 C 56 % 13.01 C
3100 05-07-2016 20:20:00 21.6 C 58 % 12.99 C
Sensor: Nr:Datum:Temp:Feuchte:Taupunkt:
Aussen-T/F 3101 05-07-2016 20:25:00 21.2 C 59 % 12.87 C
3102 05-07-2016 20:30:00 20.8 C 62 % 13.26 C
3103 05-07-2016 20:35:00 20.6 C 63 % 13.31 C
3104 05-07-2016 20:40:00 20.4 C 62 % 12.88 C
3105 05-07-2016 20:45:00 20.3 C 63 % 13.03 C
3106 05-07-2016 20:50:00 20.4 C 63 % 13.12 C
3107 05-07-2016 20:55:00 20.3 C 62 % 12.79 C
3108 05-07-2016 21:00:00 20.3 C 64 % 13.27 C
3109 05-07-2016 21:05:00 20.2 C 63 % 12.94 C
3110 05-07-2016 21:10:00 20 C 64 % 12.99 C
3111 05-07-2016 21:15:00 19.9 C 64 % 12.89 C
3112 05-07-2016 21:20:00 19.8 C 65 % 13.03 C
3113 05-07-2016 21:25:00 19.7 C 70 % 14.08 C
3114 05-07-2016 21:30:00 19.6 C 70 % 13.98 C
3115 05-07-2016 21:35:00 19.3 C 71 % 13.91 C
3116 05-07-2016 21:40:00 19.1 C 74 % 14.36 C
3117 05-07-2016 21:45:00 18.9 C 72 % 13.74 C
3118 05-07-2016 21:50:00 18.8 C 71 % 13.43 C
3119 05-07-2016 21:55:00 18.7 C 72 % 13.55 C
3120 05-07-2016 22:00:00 18.4 C 72 % 13.26 C
3121 05-07-2016 22:05:00 18.2 C 73 % 13.28 C
3122 05-07-2016 22:10:00 17.9 C 74 % 13.2 C
3123 05-07-2016 22:15:00 17.8 C 74 % 13.11 C
3124 05-07-2016 22:20:00 17.7 C 75 % 13.22 C
3125 05-07-2016 22:25:00 17.6 C 75 % 13.12 C
Sensor: Nr:Datum:Temp:Feuchte:Taupunkt:
Aussen-T/F 3126 05-07-2016 22:30:00 17.5 C 75 % 13.02 C
3127 05-07-2016 22:35:00 17.4 C 75 % 12.93 C
3128 05-07-2016 22:40:00 17.4 C 76 % 13.13 C
3129 05-07-2016 22:45:00 17.3 C 76 % 13.03 C
3130 05-07-2016 22:50:00 17.2 C 76 % 12.94 C
3131 05-07-2016 22:55:00 17.1 C 76 % 12.84 C
3132 05-07-2016 23:00:00 17 C 77 % 12.94 C
3133 05-07-2016 23:05:00 16.9 C 77 % 12.84 C
3134 05-07-2016 23:10:00 16.8 C 77 % 12.75 C
3135 05-07-2016 23:15:00 16.7 C 78 % 12.85 C
3136 05-07-2016 23:20:00 16.7 C 78 % 12.85 C
3137 05-07-2016 23:25:00 16.6 C 78 % 12.75 C
3138 05-07-2016 23:30:00 16.4 C 78 % 12.56 C
3139 05-07-2016 23:35:00 16.3 C 78 % 12.46 C
3140 05-07-2016 23:40:00 16.3 C 78 % 12.46 C
3141 05-07-2016 23:45:00 16.2 C 78 % 12.36 C
3142 05-07-2016 23:50:00 16.1 C 78 % 12.27 C
3143 05-07-2016 23:55:00 15.9 C 78 % 12.07 C
3144 06-07-2016 00:00:00 15.9 C 78 % 12.07 C
3145 06-07-2016 00:05:00 15.8 C 78 % 11.97 C
3146 06-07-2016 00:10:00 15.7 C 78 % 11.88 C
3147 06-07-2016 00:15:00 15.6 C 78 % 11.78 C
3148 06-07-2016 00:20:00 15.5 C 78 % 11.68 C
3149 06-07-2016 00:25:00 15.4 C 79 % 11.78 C
3150 06-07-2016 00:30:00 15.3 C 79 % 11.68 C
Sensor: Nr:Datum:Temp:Feuchte:Taupunkt:
Aussen-T/F 3151 06-07-2016 00:35:00 15.3 C 79 % 11.68 C
3152 06-07-2016 00:40:00 15.2 C 79 % 11.59 C
3153 06-07-2016 00:45:00 15.2 C 79 % 11.59 C
3154 06-07-2016 00:50:00 15.2 C 80 % 11.78 C
3155 06-07-2016 00:55:00 15.1 C 80 % 11.68 C
3156 06-07-2016 01:00:00 14.9 C 81 % 11.67 C
3157 06-07-2016 01:05:00 14.7 C 81 % 11.48 C
3158 06-07-2016 01:10:00 14.4 C 82 % 11.37 C
3159 06-07-2016 01:15:00 14.3 C 83 % 11.45 C
3160 06-07-2016 01:20:00 14.1 C 84 % 11.44 C
3161 06-07-2016 01:25:00 13.9 C 84 % 11.24 C
3162 06-07-2016 01:30:00 13.8 C 85 % 11.32 C
3163 06-07-2016 01:35:00 13.6 C 85 % 11.13 C
3164 06-07-2016 01:40:00 13.4 C 86 % 11.11 C
3165 06-07-2016 01:45:00 13.3 C 86 % 11.01 C
3166 06-07-2016 01:50:00 13.2 C 87 % 11.09 C
3167 06-07-2016 01:55:00 13.2 C 87 % 11.09 C
3168 06-07-2016 02:00:00 13.1 C 87 % 10.99 C
3169 06-07-2016 02:05:00 13 C 87 % 10.89 C
3170 06-07-2016 02:10:00 12.9 C 87 % 10.79 C
3171 06-07-2016 02:15:00 12.9 C 87 % 10.79 C
3172 06-07-2016 02:20:00 12.9 C 87 % 10.79 C
3173 06-07-2016 02:25:00 12.9 C 87 % 10.79 C
3174 06-07-2016 02:30:00 12.8 C 87 % 10.69 C
3175 06-07-2016 02:35:00 12.8 C 87 % 10.69 C
Sensor: Nr:Datum:Temp:Feuchte:Taupunkt:
Aussen-T/F 3176 06-07-2016 02:40:00 12.8 C 87 % 10.69 C
3177 06-07-2016 02:45:00 12.7 C 87 % 10.59 C
3178 06-07-2016 02:50:00 12.7 C 87 % 10.59 C
3179 06-07-2016 02:55:00 12.7 C 87 % 10.59 C
3180 06-07-2016 03:00:00 12.6 C 88 % 10.67 C
3181 06-07-2016 03:05:00 12.5 C 88 % 10.57 C
3182 06-07-2016 03:10:00 12.4 C 88 % 10.47 C
3183 06-07-2016 03:15:00 12.3 C 88 % 10.37 C
3184 06-07-2016 03:20:00 12.3 C 89 % 10.54 C
3185 06-07-2016 03:25:00 12.2 C 89 % 10.44 C
3186 06-07-2016 03:30:00 12.1 C 89 % 10.34 C
3187 06-07-2016 03:35:00 11.9 C 89 % 10.15 C
3188 06-07-2016 03:40:00 11.8 C 89 % 10.05 C
3189 06-07-2016 03:45:00 11.7 C 90 % 10.12 C
3190 06-07-2016 03:50:00 11.6 C 90 % 10.02 C
3191 06-07-2016 03:55:00 11.5 C 90 % 9.92 C
3192 06-07-2016 04:00:00 11.4 C 90 % 9.82 C
3193 06-07-2016 04:05:00 11.3 C 91 % 9.89 C
3194 06-07-2016 04:10:00 11.3 C 91 % 9.89 C
3195 06-07-2016 04:15:00 11.2 C 91 % 9.79 C
3196 06-07-2016 04:20:00 11.1 C 91 % 9.69 C
3197 06-07-2016 04:25:00 11.1 C 91 % 9.69 C
3198 06-07-2016 04:30:00 11 C 91 % 9.59 C
3199 06-07-2016 04:35:00 11 C 91 % 9.59 C
3200 06-07-2016 04:40:00 10.9 C 91 % 9.49 C
Sensor: Nr:Datum:Temp:Feuchte:Taupunkt:
Aussen-T/F 3201 06-07-2016 04:45:00 10.9 C 91 % 9.49 C
3202 06-07-2016 04:50:00 10.8 C 92 % 9.55 C
3203 06-07-2016 04:55:00 10.8 C 92 % 9.55 C
3204 06-07-2016 05:00:00 10.8 C 92 % 9.55 C
3205 06-07-2016 05:05:00 10.8 C 92 % 9.55 C
3206 06-07-2016 05:10:00 10.7 C 92 % 9.45 C
3207 06-07-2016 05:15:00 10.7 C 92 % 9.45 C
3208 06-07-2016 05:20:00 10.7 C 92 % 9.45 C
3209 06-07-2016 05:25:00 10.7 C 92 % 9.45 C
3210 06-07-2016 05:30:00 10.7 C 92 % 9.45 C
3211 06-07-2016 05:35:00 10.6 C 92 % 9.36 C
3212 06-07-2016 05:40:00 10.6 C 92 % 9.36 C
3213 06-07-2016 05:45:00 10.6 C 92 % 9.36 C
3214 06-07-2016 05:50:00 10.6 C 92 % 9.36 C
3215 06-07-2016 05:55:00 10.6 C 92 % 9.36 C
3216 06-07-2016 06:00:00 10.6 C 92 % 9.36 C
3217 06-07-2016 06:05:00 10.6 C 92 % 9.36 C
3218 06-07-2016 06:10:00 10.6 C 92 % 9.36 C
3219 06-07-2016 06:15:00 10.6 C 92 % 9.36 C
3220 06-07-2016 06:20:00 10.6 C 92 % 9.36 C
3221 06-07-2016 06:25:00 10.6 C 92 % 9.36 C
3222 06-07-2016 06:30:00 10.6 C 92 % 9.36 C
3223 06-07-2016 06:35:00 10.6 C 93 % 9.52 C
3224 06-07-2016 06:40:00 10.6 C 92 % 9.36 C
3225 06-07-2016 06:45:00 10.6 C 92 % 9.36 C
Sensor: Nr:Datum:Temp:Feuchte:Taupunkt:
Aussen-T/F 3226 06-07-2016 06:50:00 10.6 C 92 % 9.36 C
3227 06-07-2016 06:55:00 10.7 C 93 % 9.62 C
3228 06-07-2016 07:00:00 10.7 C 93 % 9.62 C
3229 06-07-2016 07:05:00 10.7 C 93 % 9.62 C
3230 06-07-2016 07:10:00 10.8 C 93 % 9.71 C
3231 06-07-2016 07:15:00 10.8 C 93 % 9.71 C
3232 06-07-2016 07:20:00 10.9 C 93 % 9.81 C
3233 06-07-2016 07:25:00 11 C 93 % 9.91 C
3234 06-07-2016 07:30:00 11.1 C 93 % 10.01 C
3235 06-07-2016 07:35:00 11.3 C 93 % 10.21 C
3236 06-07-2016 07:40:00 11.4 C 93 % 10.31 C
3237 06-07-2016 07:45:00 11.4 C 92 % 10.15 C
3238 06-07-2016 07:50:00 11.5 C 92 % 10.25 C
3239 06-07-2016 07:55:00 11.7 C 92 % 10.44 C
3240 06-07-2016 08:00:00 11.9 C 91 % 10.48 C
3241 06-07-2016 08:05:00 12.2 C 91 % 10.78 C
3242 06-07-2016 08:10:00 12.3 C 90 % 10.71 C
3243 06-07-2016 08:15:00 12.4 C 90 % 10.81 C
3244 06-07-2016 08:20:00 12.6 C 89 % 10.84 C
3245 06-07-2016 08:25:00 12.9 C 87 % 10.79 C
3246 06-07-2016 08:30:00 13.2 C 85 % 10.74 C
3247 06-07-2016 08:35:00 13.5 C 85 % 11.03 C
3248 06-07-2016 08:40:00 13.7 C 85 % 11.23 C
3249 06-07-2016 08:45:00 13.8 C 83 % 10.97 C
3250 06-07-2016 08:50:00 14.1 C 85 % 11.62 C
Sensor: Nr:Datum:Temp:Feuchte:Taupunkt:
Aussen-T/F 3251 06-07-2016 08:55:00 14.3 C 83 % 11.45 C
3252 06-07-2016 09:00:00 14.4 C 81 % 11.18 C
3253 06-07-2016 09:05:00 14.6 C 81 % 11.38 C
3254 06-07-2016 09:10:00 14.8 C 82 % 11.76 C
3255 06-07-2016 09:15:00 14.9 C 82 % 11.86 C
3256 06-07-2016 09:20:00 15.1 C 80 % 11.68 C
3257 06-07-2016 09:25:00 15.1 C 78 % 11.3 C
3258 06-07-2016 09:30:00 15.2 C 77 % 11.2 C
3259 06-07-2016 09:35:00 15.2 C 77 % 11.2 C
3260 06-07-2016 09:40:00 15.3 C 77 % 11.3 C
3261 06-07-2016 09:45:00 15.4 C 78 % 11.59 C
3262 06-07-2016 09:50:00 15.5 C 76 % 11.29 C
3263 06-07-2016 09:55:00 15.7 C 77 % 11.68 C
3264 06-07-2016 10:00:00 16 C 78 % 12.17 C
3265 06-07-2016 10:05:00 16.2 C 75 % 11.77 C
3266 06-07-2016 10:10:00 16.4 C 78 % 12.56 C
3267 06-07-2016 10:15:00 16.6 C 76 % 12.36 C
3268 06-07-2016 10:20:00 16.8 C 74 % 12.14 C
3269 06-07-2016 10:25:00 17 C 74 % 12.34 C
3270 06-07-2016 10:30:00 17.3 C 73 % 12.42 C
3271 06-07-2016 10:35:00 17.5 C 73 % 12.61 C
3272 06-07-2016 10:40:00 17.8 C 70 % 12.26 C
3273 06-07-2016 10:45:00 17.9 C 70 % 12.35 C
3274 06-07-2016 10:50:00 17.9 C 70 % 12.35 C
3275 06-07-2016 10:55:00 17.9 C 69 % 12.14 C
Sensor: Nr:Datum:Temp:Feuchte:Taupunkt:
Aussen-T/F 3276 06-07-2016 11:00:00 17.9 C 73 % 12.99 C
3277 06-07-2016 11:05:00 17.9 C 72 % 12.78 C
3278 06-07-2016 11:10:00 17.8 C 76 % 13.52 C
3279 06-07-2016 11:15:00 17.7 C 72 % 12.59 C
3280 06-07-2016 11:20:00 17.5 C 71 % 12.19 C
3281 06-07-2016 11:25:00 17.4 C 72 % 12.3 C
3282 06-07-2016 11:30:00 17.4 C 72 % 12.3 C
3283 06-07-2016 11:35:00 17.6 C 71 % 12.28 C
3284 06-07-2016 11:40:00 17.6 C 72 % 12.5 C
3285 06-07-2016 11:45:00 17.7 C 74 % 13.01 C
3286 06-07-2016 11:50:00 17.7 C 75 % 13.22 C
3287 06-07-2016 11:55:00 17.8 C 77 % 13.72 C
3288 06-07-2016 12:00:00 17.7 C 77 % 13.62 C
3289 06-07-2016 12:05:00 17.6 C 74 % 12.91 C
3290 06-07-2016 12:10:00 17.6 C 72 % 12.5 C
3291 06-07-2016 12:15:00 17.8 C 72 % 12.69 C
3292 06-07-2016 12:20:00 18 C 71 % 12.67 C
3293 06-07-2016 12:25:00 18.3 C 71 % 12.95 C
3294 06-07-2016 12:30:00 18.4 C 68 % 12.39 C
3295 06-07-2016 12:35:00 18.6 C 71 % 13.24 C
3296 06-07-2016 12:40:00 18.8 C 72 % 13.65 C
3297 06-07-2016 12:45:00 18.8 C 69 % 13 C
3298 06-07-2016 12:50:00 18.9 C 68 % 12.87 C
3299 06-07-2016 12:55:00 18.9 C 69 % 13.09 C
3300 06-07-2016 13:00:00 18.9 C 68 % 12.87 C
Sensor: Nr:Datum:Temp:Feuchte:Taupunkt:
Aussen-T/F 3301 06-07-2016 13:05:00 18.8 C 68 % 12.77 C
3302 06-07-2016 13:10:00 18.8 C 72 % 13.65 C
3303 06-07-2016 13:15:00 18.9 C 72 % 13.74 C
3304 06-07-2016 13:20:00 19 C 69 % 13.19 C
3305 06-07-2016 13:25:00 19.1 C 67 % 12.83 C
3306 06-07-2016 13:30:00 19.3 C 67 % 13.02 C
3307 06-07-2016 13:35:00 19.7 C 67 % 13.4 C
3308 06-07-2016 13:40:00 19.9 C 67 % 13.59 C
3309 06-07-2016 13:45:00 19.9 C 63 % 12.65 C
3310 06-07-2016 13:50:00 19.9 C 65 % 13.13 C
3311 06-07-2016 13:55:00 19.9 C 67 % 13.59 C
3312 06-07-2016 14:00:00 19.8 C 65 % 13.03 C
3313 06-07-2016 14:05:00 19.8 C 66 % 13.27 C
3314 06-07-2016 14:10:00 19.7 C 65 % 12.94 C
3315 06-07-2016 14:15:00 19.6 C 65 % 12.84 C
3316 06-07-2016 14:20:00 19.6 C 66 % 13.08 C
3317 06-07-2016 14:25:00 19.6 C 72 % 14.42 C
3318 06-07-2016 14:30:00 19.7 C 65 % 12.94 C
3319 06-07-2016 14:35:00 19.8 C 65 % 13.03 C
3320 06-07-2016 14:40:00 19.9 C 64 % 12.89 C
3321 06-07-2016 14:45:00 20 C 68 % 13.92 C
3322 06-07-2016 14:50:00 20 C 66 % 13.46 C
3323 06-07-2016 14:55:00 20.1 C 70 % 14.46 C
3324 06-07-2016 15:00:00 20.2 C 67 % 13.88 C
3325 06-07-2016 15:05:00 20.4 C 65 % 13.6 C
Sensor: Nr:Datum:Temp:Feuchte:Taupunkt:
Aussen-T/F 3326 06-07-2016 15:10:00 20.6 C 64 % 13.55 C
3327 06-07-2016 15:15:00 20.6 C 63 % 13.31 C
3328 06-07-2016 15:20:00 20.7 C 62 % 13.16 C
3329 06-07-2016 15:25:00 20.8 C 61 % 13.01 C
3330 06-07-2016 15:30:00 21.1 C 58 % 12.52 C
3331 06-07-2016 15:35:00 21.1 C 62 % 13.54 C
3332 06-07-2016 15:40:00 20.9 C 64 % 13.84 C
3333 06-07-2016 15:45:00 20.9 C 61 % 13.1 C
3334 06-07-2016 15:50:00 21.2 C 59 % 12.87 C
3335 06-07-2016 15:55:00 21.3 C 57 % 12.44 C
3336 06-07-2016 16:00:00 21.3 C 55 % 11.9 C
3337 06-07-2016 16:05:00 21.4 C 56 % 12.27 C
3338 06-07-2016 16:10:00 21.6 C 59 % 13.25 C
3339 06-07-2016 16:15:00 21.8 C 57 % 12.91 C
3340 06-07-2016 16:20:00 22.3 C 52 % 11.97 C
3341 06-07-2016 16:25:00 22.6 C 49 % 11.35 C
3342 06-07-2016 16:30:00 22.3 C 49 % 11.08 C
3343 06-07-2016 16:35:00 22.2 C 50 % 11.29 C
3344 06-07-2016 16:40:00 22.4 C 50 % 11.47 C
3345 06-07-2016 16:45:00 22.7 C 51 % 12.05 C
3346 06-07-2016 16:50:00 22.9 C 49 % 11.63 C
3347 06-07-2016 16:55:00 22.9 C 49 % 11.63 C
3348 06-07-2016 17:00:00 22.7 C 46 % 10.49 C
3349 06-07-2016 17:05:00 22.3 C 47 % 10.45 C
3350 06-07-2016 17:10:00 22.2 C 50 % 11.29 C
Sensor: Nr:Datum:Temp:Feuchte:Taupunkt:
Aussen-T/F 3351 06-07-2016 17:15:00 22.4 C 47 % 10.54 C
3352 06-07-2016 17:20:00 22.6 C 48 % 11.04 C
3353 06-07-2016 17:25:00 22.9 C 46 % 10.67 C
3354 06-07-2016 17:30:00 23.5 C 44 % 10.55 C
3355 06-07-2016 17:35:00 23.7 C 45 % 11.07 C
3356 06-07-2016 17:40:00 23.6 C 43 % 10.3 C
3357 06-07-2016 17:45:00 23.2 C 48 % 11.59 C
3358 06-07-2016 17:50:00 23.3 C 46 % 11.04 C
3359 06-07-2016 17:55:00 23.3 C 48 % 11.68 C
3360 06-07-2016 18:00:00 23.3 C 46 % 11.04 C
3361 06-07-2016 18:05:00 23.2 C 47 % 11.27 C
3362 06-07-2016 18:10:00 22.8 C 49 % 11.53 C
3363 06-07-2016 18:15:00 22.7 C 48 % 11.13 C
3364 06-07-2016 18:20:00 22.8 C 48 % 11.22 C
3365 06-07-2016 18:25:00 22.8 C 50 % 11.84 C
3366 06-07-2016 18:30:00 23 C 48 % 11.41 C
3367 06-07-2016 18:35:00 23.1 C 48 % 11.5 C
3368 06-07-2016 18:40:00 23.2 C 47 % 11.27 C
3369 06-07-2016 18:45:00 23.2 C 48 % 11.59 C
3370 06-07-2016 18:50:00 23.2 C 49 % 11.9 C
3371 06-07-2016 18:55:00 23.1 C 49 % 11.81 C
3372 06-07-2016 19:00:00 23 C 49 % 11.72 C
3373 06-07-2016 19:05:00 22.8 C 50 % 11.84 C
3374 06-07-2016 19:10:00 22.7 C 51 % 12.05 C
3375 06-07-2016 19:15:00 22.7 C 51 % 12.05 C
Sensor: Nr:Datum:Temp:Feuchte:Taupunkt:
Aussen-T/F 3376 06-07-2016 19:20:00 22.6 C 52 % 12.25 C
3377 06-07-2016 19:25:00 22.3 C 53 % 12.26 C
3378 06-07-2016 19:30:00 22.2 C 53 % 12.17 C
3379 06-07-2016 19:35:00 22.1 C 52 % 11.79 C
3380 06-07-2016 19:40:00 21.9 C 53 % 11.89 C
3381 06-07-2016 19:45:00 21.7 C 55 % 12.27 C
3382 06-07-2016 19:50:00 21.5 C 55 % 12.08 C
3383 06-07-2016 19:55:00 21.3 C 55 % 11.9 C
3384 06-07-2016 20:00:00 21.1 C 56 % 11.99 C
3385 06-07-2016 20:05:00 20.9 C 57 % 12.07 C
3386 06-07-2016 20:10:00 20.8 C 58 % 12.24 C
3387 06-07-2016 20:15:00 20.8 C 58 % 12.24 C
3388 06-07-2016 20:20:00 20.8 C 58 % 12.24 C
3389 06-07-2016 20:25:00 20.9 C 57 % 12.07 C
3390 06-07-2016 20:30:00 20.8 C 57 % 11.97 C
3391 06-07-2016 20:35:00 20.7 C 58 % 12.15 C
3392 06-07-2016 20:40:00 20.6 C 60 % 12.57 C
3393 06-07-2016 20:45:00 20.4 C 60 % 12.38 C
3394 06-07-2016 20:50:00 20.3 C 63 % 13.03 C
3395 06-07-2016 20:55:00 20.2 C 65 % 13.41 C
3396 06-07-2016 21:00:00 19.8 C 62 % 12.31 C
3397 06-07-2016 21:05:00 19.6 C 63 % 12.37 C
3398 06-07-2016 21:10:00 19.3 C 65 % 12.56 C
3399 06-07-2016 21:15:00 18.9 C 67 % 12.64 C
3400 06-07-2016 21:20:00 18.7 C 70 % 13.12 C
Sensor: Nr:Datum:Temp:Feuchte:Taupunkt:
Aussen-T/F 3401 06-07-2016 21:25:00 18.2 C 70 % 12.64 C
3402 06-07-2016 21:30:00 17.8 C 73 % 12.9 C
3403 06-07-2016 21:35:00 17.4 C 74 % 12.72 C
3404 06-07-2016 21:40:00 17.1 C 76 % 12.84 C
3405 06-07-2016 21:45:00 16.8 C 76 % 12.55 C
3406 06-07-2016 21:50:00 16.6 C 77 % 12.55 C
3407 06-07-2016 21:55:00 16.4 C 78 % 12.56 C
3408 06-07-2016 22:00:00 16.3 C 77 % 12.26 C
3409 06-07-2016 22:05:00 16.2 C 78 % 12.36 C
3410 06-07-2016 22:10:00 16.1 C 78 % 12.27 C
3411 06-07-2016 22:15:00 16 C 78 % 12.17 C
3412 06-07-2016 22:20:00 15.9 C 79 % 12.27 C
3413 06-07-2016 22:25:00 15.8 C 78 % 11.97 C
3414 06-07-2016 22:30:00 15.7 C 78 % 11.88 C
3415 06-07-2016 22:35:00 15.7 C 79 % 12.07 C
3416 06-07-2016 22:40:00 15.6 C 79 % 11.97 C
3417 06-07-2016 22:45:00 15.5 C 80 % 12.07 C
3418 06-07-2016 22:50:00 15.4 C 80 % 11.97 C
3419 06-07-2016 22:55:00 15.3 C 80 % 11.87 C
3420 06-07-2016 23:00:00 15.3 C 79 % 11.68 C
3421 06-07-2016 23:05:00 15.3 C 80 % 11.87 C
3422 06-07-2016 23:10:00 15.2 C 81 % 11.96 C
3423 06-07-2016 23:15:00 15.2 C 81 % 11.96 C
3424 06-07-2016 23:20:00 15 C 82 % 11.95 C
3425 06-07-2016 23:25:00 14.9 C 82 % 11.86 C
Sensor: Nr:Datum:Temp:Feuchte:Taupunkt:
Aussen-T/F 3426 06-07-2016 23:30:00 14.8 C 83 % 11.94 C
3427 06-07-2016 23:35:00 14.6 C 83 % 11.75 C
3428 06-07-2016 23:40:00 14.4 C 83 % 11.55 C
3429 06-07-2016 23:45:00 14.3 C 84 % 11.64 C
3430 06-07-2016 23:50:00 14.2 C 84 % 11.54 C
3431 06-07-2016 23:55:00 14 C 85 % 11.52 C
3432 07-07-2016 00:00:00 13.8 C 85 % 11.32 C
3433 07-07-2016 00:05:00 13.7 C 85 % 11.23 C
3434 07-07-2016 00:10:00 13.6 C 85 % 11.13 C
3435 07-07-2016 00:15:00 13.5 C 86 % 11.21 C
3436 07-07-2016 00:20:00 13.4 C 86 % 11.11 C
3437 07-07-2016 00:25:00 13.3 C 86 % 11.01 C
3438 07-07-2016 00:30:00 13.2 C 87 % 11.09 C
3439 07-07-2016 00:35:00 13.1 C 87 % 10.99 C
3440 07-07-2016 00:40:00 13.1 C 87 % 10.99 C
3441 07-07-2016 00:45:00 13 C 87 % 10.89 C
3442 07-07-2016 00:50:00 13 C 88 % 11.06 C
3443 07-07-2016 00:55:00 12.9 C 88 % 10.96 C
3444 07-07-2016 01:00:00 12.9 C 88 % 10.96 C
3445 07-07-2016 01:05:00 12.8 C 88 % 10.86 C
3446 07-07-2016 01:10:00 12.8 C 89 % 11.03 C
3447 07-07-2016 01:15:00 12.7 C 89 % 10.94 C
3448 07-07-2016 01:20:00 12.7 C 89 % 10.94 C
3449 07-07-2016 01:25:00 12.6 C 89 % 10.84 C
3450 07-07-2016 01:30:00 12.5 C 89 % 10.74 C
Sensor: Nr:Datum:Temp:Feuchte:Taupunkt:
Aussen-T/F 3451 07-07-2016 01:35:00 12.4 C 90 % 10.81 C
3452 07-07-2016 01:40:00 12.4 C 90 % 10.81 C
3453 07-07-2016 01:45:00 12.4 C 90 % 10.81 C
3454 07-07-2016 01:50:00 12.3 C 90 % 10.71 C
3455 07-07-2016 01:55:00 12.3 C 90 % 10.71 C
3456 07-07-2016 02:00:00 12.3 C 91 % 10.87 C
3457 07-07-2016 02:05:00 12.2 C 91 % 10.78 C
3458 07-07-2016 02:10:00 12.2 C 91 % 10.78 C
3459 07-07-2016 02:15:00 12.2 C 91 % 10.78 C
3460 07-07-2016 02:20:00 12.2 C 91 % 10.78 C
3461 07-07-2016 02:25:00 12.1 C 91 % 10.68 C
3462 07-07-2016 02:30:00 12.1 C 92 % 10.84 C
3463 07-07-2016 02:35:00 12.1 C 92 % 10.84 C
3464 07-07-2016 02:40:00 11.9 C 92 % 10.64 C
3465 07-07-2016 02:45:00 11.9 C 92 % 10.64 C
3466 07-07-2016 02:50:00 11.8 C 91 % 10.38 C
3467 07-07-2016 02:55:00 11.8 C 92 % 10.54 C
3468 07-07-2016 03:00:00 11.7 C 92 % 10.44 C
3469 07-07-2016 03:05:00 11.7 C 92 % 10.44 C
3470 07-07-2016 03:10:00 11.6 C 92 % 10.35 C
3471 07-07-2016 03:15:00 11.5 C 92 % 10.25 C
3472 07-07-2016 03:20:00 11.4 C 92 % 10.15 C
3473 07-07-2016 03:25:00 11.4 C 92 % 10.15 C
3474 07-07-2016 03:30:00 11.3 C 93 % 10.21 C
3475 07-07-2016 03:35:00 11.3 C 93 % 10.21 C
Sensor: Nr:Datum:Temp:Feuchte:Taupunkt:
Aussen-T/F 3476 07-07-2016 03:40:00 11.3 C 93 % 10.21 C
3477 07-07-2016 03:45:00 11.3 C 93 % 10.21 C
3478 07-07-2016 03:50:00 11.3 C 93 % 10.21 C
3479 07-07-2016 03:55:00 11.3 C 93 % 10.21 C
3480 07-07-2016 04:00:00 11.3 C 93 % 10.21 C
3481 07-07-2016 04:05:00 11.2 C 93 % 10.11 C
3482 07-07-2016 04:10:00 11.2 C 93 % 10.11 C
3483 07-07-2016 04:15:00 11.2 C 93 % 10.11 C
3484 07-07-2016 04:20:00 11.2 C 93 % 10.11 C
3485 07-07-2016 04:25:00 11.1 C 93 % 10.01 C
3486 07-07-2016 04:30:00 11.1 C 93 % 10.01 C
3487 07-07-2016 04:35:00 11 C 93 % 9.91 C
3488 07-07-2016 04:40:00 11.1 C 94 % 10.17 C
3489 07-07-2016 04:45:00 11.1 C 94 % 10.17 C
3490 07-07-2016 04:50:00 11.1 C 94 % 10.17 C
3491 07-07-2016 04:55:00 11 C 94 % 10.07 C
3492 07-07-2016 05:00:00 10.9 C 94 % 9.97 C
3493 07-07-2016 05:05:00 10.9 C 94 % 9.97 C
3494 07-07-2016 05:10:00 10.9 C 94 % 9.97 C
3495 07-07-2016 05:15:00 10.9 C 94 % 9.97 C
3496 07-07-2016 05:20:00 10.8 C 94 % 9.87 C
3497 07-07-2016 05:25:00 10.8 C 94 % 9.87 C
3498 07-07-2016 05:30:00 10.8 C 94 % 9.87 C
3499 07-07-2016 05:35:00 10.7 C 94 % 9.77 C
3500 07-07-2016 05:40:00 10.7 C 94 % 9.77 C
Sensor: Nr:Datum:Temp:Feuchte:Taupunkt:
Aussen-T/F 3501 07-07-2016 05:45:00 10.7 C 94 % 9.77 C
3502 07-07-2016 05:50:00 10.6 C 94 % 9.68 C
3503 07-07-2016 05:55:00 10.6 C 94 % 9.68 C
3504 07-07-2016 06:00:00 10.6 C 94 % 9.68 C
3505 07-07-2016 06:05:00 10.6 C 94 % 9.68 C
3506 07-07-2016 06:10:00 10.7 C 95 % 9.93 C
3507 07-07-2016 06:15:00 10.7 C 94 % 9.77 C
3508 07-07-2016 06:20:00 10.7 C 94 % 9.77 C
3509 07-07-2016 06:25:00 10.7 C 94 % 9.77 C
3510 07-07-2016 06:30:00 10.7 C 95 % 9.93 C
3511 07-07-2016 06:35:00 10.8 C 95 % 10.03 C
3512 07-07-2016 06:40:00 10.8 C 95 % 10.03 C
3513 07-07-2016 06:45:00 10.9 C 95 % 10.13 C
3514 07-07-2016 06:50:00 10.9 C 95 % 10.13 C
3515 07-07-2016 06:55:00 10.9 C 94 % 9.97 C
3516 07-07-2016 07:00:00 10.9 C 94 % 9.97 C
3517 07-07-2016 07:05:00 10.9 C 94 % 9.97 C
3518 07-07-2016 07:10:00 10.9 C 94 % 9.97 C
3519 07-07-2016 07:15:00 10.9 C 95 % 10.13 C
3520 07-07-2016 07:20:00 10.9 C 95 % 10.13 C
3521 07-07-2016 07:25:00 11 C 95 % 10.23 C
3522 07-07-2016 07:30:00 11.1 C 95 % 10.33 C
3523 07-07-2016 07:35:00 11.1 C 95 % 10.33 C
3524 07-07-2016 07:40:00 11.2 C 95 % 10.43 C
3525 07-07-2016 07:45:00 11.2 C 95 % 10.43 C
Sensor: Nr:Datum:Temp:Feuchte:Taupunkt:
Aussen-T/F 3526 07-07-2016 07:50:00 11.3 C 95 % 10.53 C
3527 07-07-2016 07:55:00 11.3 C 95 % 10.53 C
3528 07-07-2016 08:00:00 11.4 C 95 % 10.63 C
3529 07-07-2016 08:05:00 11.6 C 95 % 10.83 C
3530 07-07-2016 08:10:00 11.7 C 95 % 10.93 C
3531 07-07-2016 08:15:00 11.8 C 95 % 11.03 C
3532 07-07-2016 08:20:00 11.9 C 95 % 11.13 C
3533 07-07-2016 08:25:00 12 C 95 % 11.22 C
3534 07-07-2016 08:30:00 12.1 C 95 % 11.32 C
3535 07-07-2016 08:35:00 12.2 C 95 % 11.42 C
3536 07-07-2016 08:40:00 12.3 C 95 % 11.52 C
3537 07-07-2016 08:45:00 12.4 C 95 % 11.62 C
3538 07-07-2016 08:50:00 12.6 C 95 % 11.82 C
3539 07-07-2016 08:55:00 12.7 C 95 % 11.92 C
3540 07-07-2016 09:00:00 12.8 C 95 % 12.02 C
3541 07-07-2016 09:05:00 12.9 C 95 % 12.12 C
3542 07-07-2016 09:10:00 13.1 C 94 % 12.16 C
3543 07-07-2016 09:15:00 13.2 C 95 % 12.42 C
3544 07-07-2016 09:20:00 13.3 C 94 % 12.36 C
3545 07-07-2016 09:25:00 13.4 C 94 % 12.45 C
3546 07-07-2016 09:30:00 13.6 C 94 % 12.65 C
3547 07-07-2016 09:35:00 13.6 C 93 % 12.49 C
3548 07-07-2016 09:40:00 13.8 C 93 % 12.69 C
3549 07-07-2016 09:45:00 13.9 C 92 % 12.62 C
3550 07-07-2016 09:50:00 14.1 C 92 % 12.82 C
Sensor: Nr:Datum:Temp:Feuchte:Taupunkt:
Aussen-T/F 3551 07-07-2016 09:55:00 14.3 C 92 % 13.02 C
3552 07-07-2016 10:00:00 14.4 C 91 % 12.95 C
3553 07-07-2016 10:05:00 14.6 C 90 % 12.98 C
3554 07-07-2016 10:10:00 14.8 C 90 % 13.18 C
3555 07-07-2016 10:15:00 15.1 C 89 % 13.3 C
3556 07-07-2016 10:20:00 15.4 C 88 % 13.42 C
3557 07-07-2016 10:25:00 15.8 C 86 % 13.46 C
3558 07-07-2016 10:30:00 16.3 C 85 % 13.77 C
3559 07-07-2016 10:35:00 16.8 C 85 % 14.26 C
3560 07-07-2016 10:40:00 17.2 C 84 % 14.47 C
3561 07-07-2016 10:45:00 17.6 C 78 % 13.72 C
3562 07-07-2016 10:50:00 18 C 80 % 14.5 C
3563 07-07-2016 10:55:00 18.3 C 79 % 14.6 C
3564 07-07-2016 11:00:00 18.4 C 77 % 14.3 C
3565 07-07-2016 11:05:00 18.6 C 76 % 14.29 C
3566 07-07-2016 11:10:00 18.7 C 80 % 15.18 C
3567 07-07-2016 11:15:00 18.6 C 79 % 14.89 C
3568 07-07-2016 11:20:00 18.4 C 77 % 14.3 C
3569 07-07-2016 11:25:00 18.3 C 76 % 14 C
3570 07-07-2016 11:30:00 18.2 C 74 % 13.49 C
3571 07-07-2016 11:35:00 18.2 C 72 % 13.07 C
3572 07-07-2016 11:40:00 18.3 C 75 % 13.79 C
3573 07-07-2016 11:45:00 18.6 C 71 % 13.24 C
3574 07-07-2016 11:50:00 18.8 C 67 % 12.55 C
3575 07-07-2016 11:55:00 18.9 C 67 % 12.64 C
Sensor: Nr:Datum:Temp:Feuchte:Taupunkt:
Aussen-T/F 3576 07-07-2016 12:00:00 19.2 C 68 % 13.15 C
3577 07-07-2016 12:05:00 19.3 C 65 % 12.56 C
3578 07-07-2016 12:10:00 19.4 C 65 % 12.66 C
3579 07-07-2016 12:15:00 19.4 C 65 % 12.66 C
3580 07-07-2016 12:20:00 19.4 C 64 % 12.42 C
3581 07-07-2016 12:25:00 19.4 C 67 % 13.12 C
3582 07-07-2016 12:30:00 19.6 C 66 % 13.08 C
3583 07-07-2016 12:35:00 19.6 C 58 % 11.12 C
3584 07-07-2016 12:40:00 19.7 C 60 % 11.72 C
3585 07-07-2016 12:45:00 19.8 C 61 % 12.07 C
3586 07-07-2016 12:50:00 19.9 C 65 % 13.13 C
3587 07-07-2016 12:55:00 19.9 C 61 % 12.16 C
3588 07-07-2016 13:00:00 20 C 61 % 12.26 C
3589 07-07-2016 13:05:00 20 C 63 % 12.75 C
3590 07-07-2016 13:10:00 20 C 55 % 10.69 C
3591 07-07-2016 13:15:00 20.2 C 56 % 11.15 C
3592 07-07-2016 13:20:00 20.3 C 51 % 9.84 C
3593 07-07-2016 13:25:00 20.6 C 52 % 10.41 C
3594 07-07-2016 13:30:00 20.7 C 53 % 10.78 C
3595 07-07-2016 13:35:00 20.9 C 50 % 10.1 C
3596 07-07-2016 13:40:00 21.1 C 49 % 9.98 C
3597 07-07-2016 13:45:00 21.3 C 51 % 10.76 C
3598 07-07-2016 13:50:00 21.5 C 49 % 10.34 C
3599 07-07-2016 13:55:00 21.7 C 49 % 10.53 C
3600 07-07-2016 14:00:00 21.7 C 49 % 10.53 C
Sensor: Nr:Datum:Temp:Feuchte:Taupunkt:
Aussen-T/F 3601 07-07-2016 14:05:00 21.7 C 49 % 10.53 C
3602 07-07-2016 14:10:00 21.9 C 51 % 11.31 C
3603 07-07-2016 14:15:00 22.1 C 48 % 10.58 C
3604 07-07-2016 14:20:00 22.3 C 49 % 11.08 C
3605 07-07-2016 14:25:00 22.6 C 49 % 11.35 C
3606 07-07-2016 14:30:00 22.7 C 47 % 10.81 C
3607 07-07-2016 14:35:00 22.8 C 52 % 12.43 C
3608 07-07-2016 14:40:00 23.1 C 53 % 13 C
3609 07-07-2016 14:45:00 23.2 C 48 % 11.59 C
3610 07-07-2016 14:50:00 23.5 C 48 % 11.86 C
3611 07-07-2016 14:55:00 23.7 C 49 % 12.36 C
3612 07-07-2016 15:00:00 23.8 C 46 % 11.49 C
3613 07-07-2016 15:05:00 23.8 C 50 % 12.76 C
3614 07-07-2016 15:10:00 23.8 C 48 % 12.14 C
3615 07-07-2016 15:15:00 23.8 C 49 % 12.45 C
3616 07-07-2016 15:20:00 23.8 C 47 % 11.82 C
3617 07-07-2016 15:25:00 23.8 C 54 % 13.94 C
3618 07-07-2016 15:30:00 23.7 C 49 % 12.36 C
3619 07-07-2016 15:35:00 23.7 C 47 % 11.73 C
3620 07-07-2016 15:40:00 23.8 C 59 % 15.31 C
3621 07-07-2016 15:45:00 23.9 C 51 % 13.15 C
3622 07-07-2016 15:50:00 24.1 C 43 % 10.75 C
3623 07-07-2016 15:55:00 24.3 C 44 % 11.27 C
3624 07-07-2016 16:00:00 24.6 C 52 % 14.09 C
3625 07-07-2016 16:05:00 24.7 C 54 % 14.77 C
Sensor: Nr:Datum:Temp:Feuchte:Taupunkt:
Aussen-T/F 3626 07-07-2016 16:10:00 24.9 C 57 % 15.8 C
3627 07-07-2016 16:15:00 25.1 C 53 % 14.85 C
3628 07-07-2016 16:20:00 25.2 C 44 % 12.09 C
3629 07-07-2016 16:25:00 25.1 C 45 % 12.34 C
3630 07-07-2016 16:30:00 24.9 C 58 % 16.07 C
3631 07-07-2016 16:35:00 24.8 C 42 % 11.02 C
3632 07-07-2016 16:40:00 24.8 C 57 % 15.7 C
3633 07-07-2016 16:45:00 24.9 C 54 % 14.95 C
3634 07-07-2016 16:50:00 24.9 C 59 % 16.34 C
3635 07-07-2016 16:55:00 24.9 C 63 % 17.37 C
3636 07-07-2016 17:00:00 24.9 C 63 % 17.37 C
3637 07-07-2016 17:05:00 24.8 C 62 % 17.02 C
3638 07-07-2016 17:10:00 24.9 C 66 % 18.11 C
3639 07-07-2016 17:15:00 24.9 C 60 % 16.6 C
3640 07-07-2016 17:20:00 24.8 C 63 % 17.28 C
3641 07-07-2016 17:25:00 24.8 C 61 % 16.77 C
3642 07-07-2016 17:30:00 24.8 C 66 % 18.01 C
3643 07-07-2016 17:35:00 24.9 C 64 % 17.62 C
3644 07-07-2016 17:40:00 25.1 C 61 % 17.05 C
3645 07-07-2016 17:45:00 24.9 C 61 % 16.86 C
3646 07-07-2016 17:50:00 24.6 C 63 % 17.09 C
3647 07-07-2016 17:55:00 24.2 C 63 % 16.71 C
3648 07-07-2016 18:00:00 23.8 C 64 % 16.58 C
3649 07-07-2016 18:05:00 23.5 C 67 % 17.02 C
3650 07-07-2016 18:10:00 23.3 C 68 % 17.06 C
Sensor: Nr:Datum:Temp:Feuchte:Taupunkt:
Aussen-T/F 3651 07-07-2016 18:15:00 23.3 C 67 % 16.83 C
3652 07-07-2016 18:20:00 23.2 C 69 % 17.2 C
3653 07-07-2016 18:25:00 23.3 C 70 % 17.52 C
3654 07-07-2016 18:30:00 23.4 C 69 % 17.39 C
3655 07-07-2016 18:35:00 23.8 C 70 % 18 C
3656 07-07-2016 18:40:00 24 C 68 % 17.73 C
3657 07-07-2016 18:45:00 24.1 C 65 % 17.11 C
3658 07-07-2016 18:50:00 24.1 C 67 % 17.59 C
3659 07-07-2016 18:55:00 23.9 C 67 % 17.4 C
3660 07-07-2016 19:00:00 23.7 C 66 % 16.97 C
3661 07-07-2016 19:05:00 23.5 C 67 % 17.02 C
3662 07-07-2016 19:10:00 23.4 C 68 % 17.16 C
3663 07-07-2016 19:15:00 23.6 C 64 % 16.39 C
3664 07-07-2016 19:20:00 24 C 67 % 17.49 C
3665 07-07-2016 19:25:00 24.4 C 68 % 18.11 C
3666 07-07-2016 19:30:00 24.6 C 65 % 17.58 C
3667 07-07-2016 19:35:00 24.2 C 64 % 16.96 C
3668 07-07-2016 19:40:00 23.6 C 66 % 16.88 C
3669 07-07-2016 19:45:00 23.1 C 68 % 16.87 C
3670 07-07-2016 19:50:00 22.5 C 69 % 16.53 C
3671 07-07-2016 19:55:00 22 C 70 % 16.28 C
3672 07-07-2016 20:00:00 21.6 C 71 % 16.12 C
3673 07-07-2016 20:05:00 21.3 C 73 % 16.26 C
3674 07-07-2016 20:10:00 21.2 C 73 % 16.17 C
3675 07-07-2016 20:15:00 21 C 74 % 16.19 C
Sensor: Nr:Datum:Temp:Feuchte:Taupunkt:
Aussen-T/F 3676 07-07-2016 20:20:00 20.9 C 74 % 16.09 C
3677 07-07-2016 20:25:00 20.8 C 75 % 16.21 C
3678 07-07-2016 20:30:00 20.8 C 75 % 16.21 C
3679 07-07-2016 20:35:00 20.8 C 75 % 16.21 C
3680 07-07-2016 20:40:00 20.8 C 74 % 16 C
3681 07-07-2016 20:45:00 20.7 C 75 % 16.11 C
3682 07-07-2016 20:50:00 20.5 C 75 % 15.92 C
3683 07-07-2016 20:55:00 20.3 C 75 % 15.72 C
3684 07-07-2016 21:00:00 20.1 C 76 % 15.74 C
3685 07-07-2016 21:05:00 19.8 C 76 % 15.45 C
3686 07-07-2016 21:10:00 19.6 C 76 % 15.26 C
3687 07-07-2016 21:15:00 19.4 C 77 % 15.27 C
3688 07-07-2016 21:20:00 19.3 C 76 % 14.97 C
3689 07-07-2016 21:25:00 19.1 C 76 % 14.77 C
3690 07-07-2016 21:30:00 19 C 76 % 14.68 C
3691 07-07-2016 21:35:00 18.9 C 76 % 14.58 C
3692 07-07-2016 21:40:00 18.8 C 77 % 14.68 C
3693 07-07-2016 21:45:00 18.7 C 78 % 14.79 C
3694 07-07-2016 21:50:00 18.5 C 78 % 14.59 C
3695 07-07-2016 21:55:00 18.3 C 79 % 14.6 C
3696 07-07-2016 22:00:00 18.1 C 79 % 14.4 C
3697 07-07-2016 22:05:00 17.8 C 81 % 14.5 C
3698 07-07-2016 22:10:00 17.7 C 81 % 14.4 C
3699 07-07-2016 22:15:00 17.6 C 81 % 14.3 C
3700 07-07-2016 22:20:00 17.5 C 81 % 14.2 C
Sensor: Nr:Datum:Temp:Feuchte:Taupunkt:
Aussen-T/F 3701 07-07-2016 22:25:00 17.4 C 82 % 14.3 C
3702 07-07-2016 22:30:00 17.2 C 82 % 14.1 C
3703 07-07-2016 22:35:00 17.1 C 82 % 14 C
3704 07-07-2016 22:40:00 16.9 C 83 % 14 C
3705 07-07-2016 22:45:00 16.8 C 83 % 13.9 C
3706 07-07-2016 22:50:00 16.7 C 83 % 13.8 C
3707 07-07-2016 22:55:00 16.6 C 84 % 13.89 C
3708 07-07-2016 23:00:00 16.5 C 84 % 13.79 C
3709 07-07-2016 23:05:00 16.3 C 84 % 13.59 C
3710 07-07-2016 23:10:00 16.2 C 85 % 13.68 C
3711 07-07-2016 23:15:00 15.9 C 85 % 13.38 C
3712 07-07-2016 23:20:00 15.8 C 86 % 13.46 C
3713 07-07-2016 23:25:00 15.8 C 86 % 13.46 C
3714 07-07-2016 23:30:00 15.7 C 87 % 13.54 C
3715 07-07-2016 23:35:00 15.7 C 88 % 13.72 C
3716 07-07-2016 23:40:00 15.7 C 88 % 13.72 C
3717 07-07-2016 23:45:00 15.6 C 88 % 13.62 C
3718 07-07-2016 23:50:00 15.4 C 88 % 13.42 C
3719 07-07-2016 23:55:00 15.4 C 88 % 13.42 C
3720 08-07-2016 00:00:00 15.3 C 88 % 13.33 C
3721 08-07-2016 00:05:00 15.2 C 87 % 13.05 C
3722 08-07-2016 00:10:00 15.1 C 88 % 13.13 C
3723 08-07-2016 00:15:00 14.9 C 88 % 12.93 C
3724 08-07-2016 00:20:00 14.8 C 88 % 12.83 C
3725 08-07-2016 00:25:00 14.8 C 88 % 12.83 C
Sensor: Nr:Datum:Temp:Feuchte:Taupunkt:
Aussen-T/F 3726 08-07-2016 00:30:00 14.7 C 89 % 12.91 C
3727 08-07-2016 00:35:00 14.6 C 89 % 12.81 C
3728 08-07-2016 00:40:00 14.5 C 89 % 12.71 C
3729 08-07-2016 00:45:00 14.4 C 89 % 12.61 C
3730 08-07-2016 00:50:00 14.3 C 89 % 12.51 C
3731 08-07-2016 00:55:00 14.3 C 89 % 12.51 C
3732 08-07-2016 01:00:00 14.3 C 89 % 12.51 C
3733 08-07-2016 01:05:00 14.2 C 89 % 12.41 C
3734 08-07-2016 01:10:00 14.2 C 89 % 12.41 C
3735 08-07-2016 01:15:00 14.1 C 89 % 12.32 C
3736 08-07-2016 01:20:00 14 C 89 % 12.22 C
3737 08-07-2016 01:25:00 13.9 C 89 % 12.12 C
3738 08-07-2016 01:30:00 13.8 C 89 % 12.02 C
3739 08-07-2016 01:35:00 13.8 C 89 % 12.02 C
3740 08-07-2016 01:40:00 13.8 C 90 % 12.19 C
3741 08-07-2016 01:45:00 13.8 C 90 % 12.19 C
3742 08-07-2016 01:50:00 13.8 C 90 % 12.19 C
3743 08-07-2016 01:55:00 13.9 C 90 % 12.29 C
3744 08-07-2016 02:00:00 13.8 C 90 % 12.19 C
3745 08-07-2016 02:05:00 13.8 C 90 % 12.19 C
3746 08-07-2016 02:10:00 13.8 C 91 % 12.36 C
3747 08-07-2016 02:15:00 13.9 C 91 % 12.46 C
3748 08-07-2016 02:20:00 13.9 C 92 % 12.62 C
3749 08-07-2016 02:25:00 14 C 92 % 12.72 C
3750 08-07-2016 02:30:00 14 C 91 % 12.56 C
Sensor: Nr:Datum:Temp:Feuchte:Taupunkt:
Aussen-T/F 3751 08-07-2016 02:35:00 13.9 C 91 % 12.46 C
3752 08-07-2016 02:40:00 13.9 C 91 % 12.46 C
3753 08-07-2016 02:45:00 13.8 C 92 % 12.52 C
3754 08-07-2016 02:50:00 13.7 C 91 % 12.26 C
3755 08-07-2016 02:55:00 13.6 C 91 % 12.16 C
3756 08-07-2016 03:00:00 13.5 C 92 % 12.23 C
3757 08-07-2016 03:05:00 13.4 C 91 % 11.96 C
3758 08-07-2016 03:10:00 13.2 C 91 % 11.76 C
3759 08-07-2016 03:15:00 13.1 C 92 % 11.83 C
3760 08-07-2016 03:20:00 13.1 C 92 % 11.83 C
3761 08-07-2016 03:25:00 13.1 C 92 % 11.83 C
3762 08-07-2016 03:30:00 13 C 92 % 11.73 C
3763 08-07-2016 03:35:00 12.9 C 92 % 11.63 C
3764 08-07-2016 03:40:00 12.9 C 92 % 11.63 C
3765 08-07-2016 03:45:00 12.8 C 92 % 11.53 C
3766 08-07-2016 03:50:00 12.9 C 93 % 11.8 C
3767 08-07-2016 03:55:00 12.9 C 93 % 11.8 C
3768 08-07-2016 04:00:00 12.8 C 93 % 11.7 C
3769 08-07-2016 04:05:00 12.8 C 93 % 11.7 C
3770 08-07-2016 04:10:00 12.8 C 93 % 11.7 C
3771 08-07-2016 04:15:00 12.8 C 93 % 11.7 C
3772 08-07-2016 04:20:00 12.8 C 93 % 11.7 C
3773 08-07-2016 04:25:00 12.8 C 93 % 11.7 C
3774 08-07-2016 04:30:00 12.8 C 93 % 11.7 C
3775 08-07-2016 04:35:00 12.8 C 93 % 11.7 C
Sensor: Nr:Datum:Temp:Feuchte:Taupunkt:
Aussen-T/F 3776 08-07-2016 04:40:00 12.9 C 94 % 11.96 C
3777 08-07-2016 04:45:00 12.9 C 94 % 11.96 C
3778 08-07-2016 04:50:00 12.9 C 93 % 11.8 C
3779 08-07-2016 04:55:00 12.8 C 93 % 11.7 C
3780 08-07-2016 05:00:00 12.7 C 93 % 11.6 C
3781 08-07-2016 05:05:00 12.7 C 94 % 11.76 C
3782 08-07-2016 05:10:00 12.8 C 93 % 11.7 C
3783 08-07-2016 05:15:00 12.7 C 93 % 11.6 C
3784 08-07-2016 05:20:00 12.7 C 93 % 11.6 C
3785 08-07-2016 05:25:00 12.6 C 93 % 11.5 C
3786 08-07-2016 05:30:00 12.6 C 93 % 11.5 C
3787 08-07-2016 05:35:00 12.5 C 93 % 11.4 C
3788 08-07-2016 05:40:00 12.5 C 94 % 11.56 C
3789 08-07-2016 05:45:00 12.5 C 94 % 11.56 C
3790 08-07-2016 05:50:00 12.4 C 94 % 11.46 C
3791 08-07-2016 05:55:00 12.5 C 94 % 11.56 C
3792 08-07-2016 06:00:00 12.6 C 94 % 11.66 C
3793 08-07-2016 06:05:00 12.7 C 94 % 11.76 C
3794 08-07-2016 06:10:00 12.7 C 94 % 11.76 C
3795 08-07-2016 06:15:00 12.7 C 94 % 11.76 C
3796 08-07-2016 06:20:00 12.7 C 94 % 11.76 C
3797 08-07-2016 06:25:00 12.7 C 94 % 11.76 C
3798 08-07-2016 06:30:00 12.8 C 95 % 12.02 C
3799 08-07-2016 06:35:00 12.9 C 95 % 12.12 C
3800 08-07-2016 06:40:00 12.9 C 95 % 12.12 C
Sensor: Nr:Datum:Temp:Feuchte:Taupunkt:
Aussen-T/F 3801 08-07-2016 06:45:00 13 C 94 % 12.06 C
3802 08-07-2016 06:50:00 13 C 94 % 12.06 C
3803 08-07-2016 06:55:00 13 C 94 % 12.06 C
3804 08-07-2016 07:00:00 13 C 94 % 12.06 C
3805 08-07-2016 07:05:00 13 C 94 % 12.06 C
3806 08-07-2016 07:10:00 12.9 C 94 % 11.96 C
3807 08-07-2016 07:15:00 13 C 94 % 12.06 C
3808 08-07-2016 07:20:00 13 C 94 % 12.06 C
3809 08-07-2016 07:25:00 13.1 C 94 % 12.16 C
3810 08-07-2016 07:30:00 13.1 C 94 % 12.16 C
3811 08-07-2016 07:35:00 13.2 C 94 % 12.26 C
3812 08-07-2016 07:40:00 13.2 C 94 % 12.26 C
3813 08-07-2016 07:45:00 13.3 C 94 % 12.36 C
3814 08-07-2016 07:50:00 13.3 C 94 % 12.36 C
3815 08-07-2016 07:55:00 13.4 C 94 % 12.45 C
3816 08-07-2016 08:00:00 13.6 C 94 % 12.65 C
3817 08-07-2016 08:05:00 13.7 C 94 % 12.75 C
3818 08-07-2016 08:10:00 13.8 C 94 % 12.85 C
3819 08-07-2016 08:15:00 13.9 C 94 % 12.95 C
3820 08-07-2016 08:20:00 14.1 C 94 % 13.15 C
3821 08-07-2016 08:25:00 14.3 C 94 % 13.35 C
3822 08-07-2016 08:30:00 14.4 C 94 % 13.45 C
3823 08-07-2016 08:35:00 14.6 C 93 % 13.48 C
3824 08-07-2016 08:40:00 14.8 C 93 % 13.68 C
3825 08-07-2016 08:45:00 14.9 C 93 % 13.78 C
Sensor: Nr:Datum:Temp:Feuchte:Taupunkt:
Aussen-T/F 3826 08-07-2016 08:50:00 15.1 C 93 % 13.98 C
3827 08-07-2016 08:55:00 15.2 C 92 % 13.91 C
3828 08-07-2016 09:00:00 15.4 C 91 % 13.94 C
3829 08-07-2016 09:05:00 15.6 C 91 % 14.14 C
3830 08-07-2016 09:10:00 15.7 C 91 % 14.24 C
3831 08-07-2016 09:15:00 15.8 C 91 % 14.33 C
3832 08-07-2016 09:20:00 15.9 C 91 % 14.43 C
3833 08-07-2016 09:25:00 16 C 91 % 14.53 C
3834 08-07-2016 09:30:00 16.2 C 91 % 14.73 C
3835 08-07-2016 09:35:00 16.3 C 91 % 14.83 C
3836 08-07-2016 09:40:00 16.4 C 91 % 14.93 C
3837 08-07-2016 09:45:00 16.6 C 91 % 15.13 C
3838 08-07-2016 09:50:00 16.8 C 91 % 15.32 C
3839 08-07-2016 09:55:00 17.1 C 91 % 15.62 C
3840 08-07-2016 10:00:00 17.3 C 91 % 15.82 C
3841 08-07-2016 10:05:00 17.6 C 90 % 15.94 C
3842 08-07-2016 10:10:00 17.8 C 90 % 16.14 C
3843 08-07-2016 10:15:00 18.2 C 89 % 16.36 C
3844 08-07-2016 10:20:00 18.5 C 89 % 16.65 C
3845 08-07-2016 10:25:00 18.8 C 89 % 16.95 C
3846 08-07-2016 10:30:00 19.1 C 88 % 17.07 C
3847 08-07-2016 10:35:00 19.4 C 88 % 17.36 C
3848 08-07-2016 10:40:00 19.8 C 87 % 17.57 C
3849 08-07-2016 10:45:00 20.2 C 83 % 17.22 C
3850 08-07-2016 10:50:00 20.7 C 80 % 17.13 C
Sensor: Nr:Datum:Temp:Feuchte:Taupunkt:
Aussen-T/F 3851 08-07-2016 10:55:00 21 C 81 % 17.61 C
3852 08-07-2016 11:00:00 21.2 C 78 % 17.21 C
3853 08-07-2016 11:05:00 21.4 C 73 % 16.36 C
3854 08-07-2016 11:10:00 21.7 C 71 % 16.21 C
3855 08-07-2016 11:15:00 22 C 73 % 16.94 C
3856 08-07-2016 11:20:00 22.2 C 71 % 16.69 C
3857 08-07-2016 11:25:00 22.4 C 66 % 15.74 C
3858 08-07-2016 11:30:00 22.7 C 71 % 17.17 C
3859 08-07-2016 11:35:00 22.9 C 69 % 16.91 C
3860 08-07-2016 11:40:00 23.1 C 67 % 16.64 C
3861 08-07-2016 11:45:00 23.2 C 69 % 17.2 C
3862 08-07-2016 11:50:00 23.3 C 69 % 17.29 C
3863 08-07-2016 11:55:00 23.2 C 67 % 16.73 C
3864 08-07-2016 12:00:00 23.2 C 66 % 16.5 C
3865 08-07-2016 12:05:00 23.2 C 67 % 16.73 C
3866 08-07-2016 12:10:00 23.3 C 68 % 17.06 C
3867 08-07-2016 12:15:00 23.4 C 68 % 17.16 C
3868 08-07-2016 12:20:00 23.5 C 65 % 16.54 C
3869 08-07-2016 12:25:00 23.8 C 68 % 17.54 C
3870 08-07-2016 12:30:00 24.1 C 62 % 16.37 C
3871 08-07-2016 12:35:00 24.4 C 62 % 16.65 C
3872 08-07-2016 12:40:00 24.6 C 60 % 16.32 C
3873 08-07-2016 12:45:00 24.8 C 60 % 16.51 C
3874 08-07-2016 12:50:00 25 C 64 % 17.72 C
3875 08-07-2016 12:55:00 25.1 C 63 % 17.56 C
Sensor: Nr:Datum:Temp:Feuchte:Taupunkt:
Aussen-T/F 3876 08-07-2016 13:00:00 25.1 C 63 % 17.56 C